<?xml version="1.0" encoding="UTF-8" standalone="no" ?>
<gpx xmlns="http://www.topografix.com/GPX/1/1" xmlns:xsi="http://www.w3.org/2001/XMLSchema-instance" xsi:schemaLocation="http://www.topografix.com/GPX/1/1 http://www.topografix.com/GPX/1/1/gpx.xsd" version="1.1" creator="VisuGPX - https://www.visugpx.com">
  <metadata>
    <name>crêtes d\'aigues champs</name>
    <desc><![CDATA[avec passages directes]]></desc>
  </metadata>
  <trk>
    <name><![CDATA[AIGUE CHAMP 07/13]]></name>
    <trkseg>
      <trkpt lat="44.22543" lon="6.00143">
        <ele>794.19</ele>
        <time>2013-07-19T06:14:38Z</time>
      </trkpt>
      <trkpt lat="44.22543" lon="6.00159">
        <ele>794.19</ele>
        <time>2013-07-19T06:14:58Z</time>
      </trkpt>
      <trkpt lat="44.22546" lon="6.00158">
        <ele>794.67</ele>
        <time>2013-07-19T06:15:12Z</time>
      </trkpt>
      <trkpt lat="44.22543" lon="6.00159">
        <ele>793.71</ele>
        <time>2013-07-19T06:15:31Z</time>
      </trkpt>
      <trkpt lat="44.22544" lon="6.00163">
        <ele>797.07</ele>
        <time>2013-07-19T06:15:35Z</time>
      </trkpt>
      <trkpt lat="44.22545" lon="6.00162">
        <ele>796.59</ele>
        <time>2013-07-19T06:15:36Z</time>
      </trkpt>
      <trkpt lat="44.22546" lon="6.00162">
        <ele>800.44</ele>
        <time>2013-07-19T06:15:38Z</time>
      </trkpt>
      <trkpt lat="44.22547" lon="6.00161">
        <ele>803.8</ele>
        <time>2013-07-19T06:15:40Z</time>
      </trkpt>
      <trkpt lat="44.22548" lon="6.00159">
        <ele>807.64</ele>
        <time>2013-07-19T06:15:42Z</time>
      </trkpt>
      <trkpt lat="44.22547" lon="6.00158">
        <ele>811.01</ele>
        <time>2013-07-19T06:15:44Z</time>
      </trkpt>
      <trkpt lat="44.22547" lon="6.00158">
        <ele>813.89</ele>
        <time>2013-07-19T06:15:46Z</time>
      </trkpt>
      <trkpt lat="44.22546" lon="6.00159">
        <ele>817.26</ele>
        <time>2013-07-19T06:15:48Z</time>
      </trkpt>
      <trkpt lat="44.22546" lon="6.0016">
        <ele>820.62</ele>
        <time>2013-07-19T06:15:50Z</time>
      </trkpt>
      <trkpt lat="44.22545" lon="6.00162">
        <ele>823.51</ele>
        <time>2013-07-19T06:15:53Z</time>
      </trkpt>
      <trkpt lat="44.22544" lon="6.00163">
        <ele>827.35</ele>
        <time>2013-07-19T06:15:55Z</time>
      </trkpt>
      <trkpt lat="44.22545" lon="6.00166">
        <ele>832.64</ele>
        <time>2013-07-19T06:15:59Z</time>
      </trkpt>
      <trkpt lat="44.22546" lon="6.00168">
        <ele>833.12</ele>
        <time>2013-07-19T06:16:01Z</time>
      </trkpt>
      <trkpt lat="44.22547" lon="6.00169">
        <ele>836.48</ele>
        <time>2013-07-19T06:16:04Z</time>
      </trkpt>
      <trkpt lat="44.22547" lon="6.00168">
        <ele>840.81</ele>
        <time>2013-07-19T06:16:09Z</time>
      </trkpt>
      <trkpt lat="44.22546" lon="6.00165">
        <ele>844.18</ele>
        <time>2013-07-19T06:16:14Z</time>
      </trkpt>
      <trkpt lat="44.22547" lon="6.00163">
        <ele>847.54</ele>
        <time>2013-07-19T06:16:21Z</time>
      </trkpt>
      <trkpt lat="44.22547" lon="6.00164">
        <ele>848.02</ele>
        <time>2013-07-19T06:16:22Z</time>
      </trkpt>
      <trkpt lat="44.22547" lon="6.00168">
        <ele>850.9</ele>
        <time>2013-07-19T06:16:30Z</time>
      </trkpt>
      <trkpt lat="44.22542" lon="6.00165">
        <ele>854.27</ele>
        <time>2013-07-19T06:16:47Z</time>
      </trkpt>
      <trkpt lat="44.22544" lon="6.00165">
        <ele>854.27</ele>
        <time>2013-07-19T06:17:07Z</time>
      </trkpt>
      <trkpt lat="44.22544" lon="6.00164">
        <ele>854.27</ele>
        <time>2013-07-19T06:17:26Z</time>
      </trkpt>
      <trkpt lat="44.22543" lon="6.0016">
        <ele>854.27</ele>
        <time>2013-07-19T06:17:48Z</time>
      </trkpt>
      <trkpt lat="44.22544" lon="6.00158">
        <ele>854.27</ele>
        <time>2013-07-19T06:18:11Z</time>
      </trkpt>
      <trkpt lat="44.22543" lon="6.00162">
        <ele>854.75</ele>
        <time>2013-07-19T06:18:34Z</time>
      </trkpt>
      <trkpt lat="44.22544" lon="6.00174">
        <ele>856.19</ele>
        <time>2013-07-19T06:18:48Z</time>
      </trkpt>
      <trkpt lat="44.22542" lon="6.00178">
        <ele>856.19</ele>
        <time>2013-07-19T06:19:03Z</time>
      </trkpt>
      <trkpt lat="44.2255" lon="6.0019">
        <ele>858.11</ele>
        <time>2013-07-19T06:19:18Z</time>
      </trkpt>
      <trkpt lat="44.22558" lon="6.00202">
        <ele>858.59</ele>
        <time>2013-07-19T06:19:31Z</time>
      </trkpt>
      <trkpt lat="44.22569" lon="6.00218">
        <ele>859.56</ele>
        <time>2013-07-19T06:19:46Z</time>
      </trkpt>
      <trkpt lat="44.22576" lon="6.00228">
        <ele>860.04</ele>
        <time>2013-07-19T06:20:00Z</time>
      </trkpt>
      <trkpt lat="44.22583" lon="6.0024">
        <ele>861</ele>
        <time>2013-07-19T06:20:18Z</time>
      </trkpt>
      <trkpt lat="44.22582" lon="6.0025">
        <ele>861.48</ele>
        <time>2013-07-19T06:20:32Z</time>
      </trkpt>
      <trkpt lat="44.22568" lon="6.00261">
        <ele>861</ele>
        <time>2013-07-19T06:20:46Z</time>
      </trkpt>
      <trkpt lat="44.22553" lon="6.0027">
        <ele>861</ele>
        <time>2013-07-19T06:21:03Z</time>
      </trkpt>
      <trkpt lat="44.22537" lon="6.00281">
        <ele>860.52</ele>
        <time>2013-07-19T06:21:18Z</time>
      </trkpt>
      <trkpt lat="44.22524" lon="6.00294">
        <ele>861</ele>
        <time>2013-07-19T06:21:35Z</time>
      </trkpt>
      <trkpt lat="44.22512" lon="6.00308">
        <ele>861</ele>
        <time>2013-07-19T06:21:48Z</time>
      </trkpt>
      <trkpt lat="44.22506" lon="6.00318">
        <ele>861.48</ele>
        <time>2013-07-19T06:22:00Z</time>
      </trkpt>
      <trkpt lat="44.22504" lon="6.0032">
        <ele>861.48</ele>
        <time>2013-07-19T06:22:02Z</time>
      </trkpt>
      <trkpt lat="44.22486" lon="6.00329">
        <ele>862.44</ele>
        <time>2013-07-19T06:22:19Z</time>
      </trkpt>
      <trkpt lat="44.2247" lon="6.00337">
        <ele>861</ele>
        <time>2013-07-19T06:22:35Z</time>
      </trkpt>
      <trkpt lat="44.22453" lon="6.00337">
        <ele>861</ele>
        <time>2013-07-19T06:22:51Z</time>
      </trkpt>
      <trkpt lat="44.2244" lon="6.00329">
        <ele>861.96</ele>
        <time>2013-07-19T06:23:05Z</time>
      </trkpt>
      <trkpt lat="44.22438" lon="6.00334">
        <ele>863.4</ele>
        <time>2013-07-19T06:23:15Z</time>
      </trkpt>
      <trkpt lat="44.22436" lon="6.00348">
        <ele>866.29</ele>
        <time>2013-07-19T06:23:30Z</time>
      </trkpt>
      <trkpt lat="44.22423" lon="6.0036">
        <ele>868.21</ele>
        <time>2013-07-19T06:23:46Z</time>
      </trkpt>
      <trkpt lat="44.22421" lon="6.00374">
        <ele>870.61</ele>
        <time>2013-07-19T06:23:58Z</time>
      </trkpt>
      <trkpt lat="44.22415" lon="6.00383">
        <ele>872.53</ele>
        <time>2013-07-19T06:24:10Z</time>
      </trkpt>
      <trkpt lat="44.22404" lon="6.00389">
        <ele>873.98</ele>
        <time>2013-07-19T06:24:24Z</time>
      </trkpt>
      <trkpt lat="44.22393" lon="6.00399">
        <ele>875.42</ele>
        <time>2013-07-19T06:24:39Z</time>
      </trkpt>
      <trkpt lat="44.22383" lon="6.00408">
        <ele>877.82</ele>
        <time>2013-07-19T06:24:54Z</time>
      </trkpt>
      <trkpt lat="44.22373" lon="6.00424">
        <ele>879.74</ele>
        <time>2013-07-19T06:25:10Z</time>
      </trkpt>
      <trkpt lat="44.22367" lon="6.00441">
        <ele>882.63</ele>
        <time>2013-07-19T06:25:26Z</time>
      </trkpt>
      <trkpt lat="44.22367" lon="6.00456">
        <ele>885.51</ele>
        <time>2013-07-19T06:25:40Z</time>
      </trkpt>
      <trkpt lat="44.22369" lon="6.00477">
        <ele>886.95</ele>
        <time>2013-07-19T06:25:54Z</time>
      </trkpt>
      <trkpt lat="44.22368" lon="6.00491">
        <ele>888.88</ele>
        <time>2013-07-19T06:26:08Z</time>
      </trkpt>
      <trkpt lat="44.22371" lon="6.00493">
        <ele>888.88</ele>
        <time>2013-07-19T06:26:22Z</time>
      </trkpt>
      <trkpt lat="44.22368" lon="6.00495">
        <ele>889.84</ele>
        <time>2013-07-19T06:26:39Z</time>
      </trkpt>
      <trkpt lat="44.22366" lon="6.00498">
        <ele>889.84</ele>
        <time>2013-07-19T06:26:54Z</time>
      </trkpt>
      <trkpt lat="44.22366" lon="6.00494">
        <ele>889.84</ele>
        <time>2013-07-19T06:27:09Z</time>
      </trkpt>
      <trkpt lat="44.22363" lon="6.00494">
        <ele>889.84</ele>
        <time>2013-07-19T06:27:26Z</time>
      </trkpt>
      <trkpt lat="44.22365" lon="6.00494">
        <ele>886.47</ele>
        <time>2013-07-19T06:27:32Z</time>
      </trkpt>
      <trkpt lat="44.22365" lon="6.00493">
        <ele>890.32</ele>
        <time>2013-07-19T06:27:33Z</time>
      </trkpt>
      <trkpt lat="44.22364" lon="6.00493">
        <ele>893.2</ele>
        <time>2013-07-19T06:27:34Z</time>
      </trkpt>
      <trkpt lat="44.22365" lon="6.00494">
        <ele>890.32</ele>
        <time>2013-07-19T06:27:35Z</time>
      </trkpt>
      <trkpt lat="44.22358" lon="6.00494">
        <ele>891.28</ele>
        <time>2013-07-19T06:27:49Z</time>
      </trkpt>
      <trkpt lat="44.22351" lon="6.00506">
        <ele>892.72</ele>
        <time>2013-07-19T06:28:03Z</time>
      </trkpt>
      <trkpt lat="44.22351" lon="6.0051">
        <ele>893.2</ele>
        <time>2013-07-19T06:28:08Z</time>
      </trkpt>
      <trkpt lat="44.2235" lon="6.00518">
        <ele>894.16</ele>
        <time>2013-07-19T06:28:15Z</time>
      </trkpt>
      <trkpt lat="44.22351" lon="6.00523">
        <ele>894.16</ele>
        <time>2013-07-19T06:28:19Z</time>
      </trkpt>
      <trkpt lat="44.2236" lon="6.00535">
        <ele>894.16</ele>
        <time>2013-07-19T06:28:34Z</time>
      </trkpt>
      <trkpt lat="44.22354" lon="6.00542">
        <ele>896.09</ele>
        <time>2013-07-19T06:28:47Z</time>
      </trkpt>
      <trkpt lat="44.22351" lon="6.00558">
        <ele>898.01</ele>
        <time>2013-07-19T06:29:02Z</time>
      </trkpt>
      <trkpt lat="44.22349" lon="6.00571">
        <ele>901.37</ele>
        <time>2013-07-19T06:29:15Z</time>
      </trkpt>
      <trkpt lat="44.22348" lon="6.00575">
        <ele>898.49</ele>
        <time>2013-07-19T06:29:20Z</time>
      </trkpt>
      <trkpt lat="44.2235" lon="6.00579">
        <ele>901.37</ele>
        <time>2013-07-19T06:29:25Z</time>
      </trkpt>
      <trkpt lat="44.22361" lon="6.00586">
        <ele>901.37</ele>
        <time>2013-07-19T06:29:39Z</time>
      </trkpt>
      <trkpt lat="44.22368" lon="6.00594">
        <ele>900.89</ele>
        <time>2013-07-19T06:29:51Z</time>
      </trkpt>
      <trkpt lat="44.22371" lon="6.00598">
        <ele>903.78</ele>
        <time>2013-07-19T06:29:58Z</time>
      </trkpt>
      <trkpt lat="44.22374" lon="6.00609">
        <ele>904.74</ele>
        <time>2013-07-19T06:30:13Z</time>
      </trkpt>
      <trkpt lat="44.22387" lon="6.00614">
        <ele>905.22</ele>
        <time>2013-07-19T06:30:26Z</time>
      </trkpt>
      <trkpt lat="44.22392" lon="6.00626">
        <ele>908.1</ele>
        <time>2013-07-19T06:30:40Z</time>
      </trkpt>
      <trkpt lat="44.22387" lon="6.00634">
        <ele>910.03</ele>
        <time>2013-07-19T06:30:55Z</time>
      </trkpt>
      <trkpt lat="44.22378" lon="6.00645">
        <ele>910.99</ele>
        <time>2013-07-19T06:31:11Z</time>
      </trkpt>
      <trkpt lat="44.22371" lon="6.00661">
        <ele>913.39</ele>
        <time>2013-07-19T06:31:27Z</time>
      </trkpt>
      <trkpt lat="44.22369" lon="6.00672">
        <ele>914.35</ele>
        <time>2013-07-19T06:31:42Z</time>
      </trkpt>
      <trkpt lat="44.22369" lon="6.00677">
        <ele>913.87</ele>
        <time>2013-07-19T06:31:58Z</time>
      </trkpt>
      <trkpt lat="44.2237" lon="6.00678">
        <ele>914.35</ele>
        <time>2013-07-19T06:32:16Z</time>
      </trkpt>
      <trkpt lat="44.22369" lon="6.00672">
        <ele>914.35</ele>
        <time>2013-07-19T06:32:28Z</time>
      </trkpt>
      <trkpt lat="44.22367" lon="6.00669">
        <ele>913.87</ele>
        <time>2013-07-19T06:32:51Z</time>
      </trkpt>
      <trkpt lat="44.22368" lon="6.00686">
        <ele>916.27</ele>
        <time>2013-07-19T06:33:04Z</time>
      </trkpt>
      <trkpt lat="44.22375" lon="6.00695">
        <ele>919.16</ele>
        <time>2013-07-19T06:33:17Z</time>
      </trkpt>
      <trkpt lat="44.22383" lon="6.00698">
        <ele>922.52</ele>
        <time>2013-07-19T06:33:28Z</time>
      </trkpt>
      <trkpt lat="44.22388" lon="6.0071">
        <ele>923</ele>
        <time>2013-07-19T06:33:43Z</time>
      </trkpt>
      <trkpt lat="44.22389" lon="6.00713">
        <ele>926.37</ele>
        <time>2013-07-19T06:33:48Z</time>
      </trkpt>
      <trkpt lat="44.22392" lon="6.00716">
        <ele>926.85</ele>
        <time>2013-07-19T06:33:55Z</time>
      </trkpt>
      <trkpt lat="44.22398" lon="6.00727">
        <ele>928.77</ele>
        <time>2013-07-19T06:34:09Z</time>
      </trkpt>
      <trkpt lat="44.22399" lon="6.00732">
        <ele>932.14</ele>
        <time>2013-07-19T06:34:18Z</time>
      </trkpt>
      <trkpt lat="44.224" lon="6.00735">
        <ele>931.65</ele>
        <time>2013-07-19T06:34:35Z</time>
      </trkpt>
      <trkpt lat="44.22403" lon="6.00739">
        <ele>933.58</ele>
        <time>2013-07-19T06:34:50Z</time>
      </trkpt>
      <trkpt lat="44.22405" lon="6.00745">
        <ele>935.5</ele>
        <time>2013-07-19T06:35:01Z</time>
      </trkpt>
      <trkpt lat="44.22408" lon="6.00751">
        <ele>937.9</ele>
        <time>2013-07-19T06:35:16Z</time>
      </trkpt>
      <trkpt lat="44.22408" lon="6.00751">
        <ele>937.9</ele>
        <time>2013-07-19T06:35:17Z</time>
      </trkpt>
      <trkpt lat="44.2241" lon="6.0075">
        <ele>939.35</ele>
        <time>2013-07-19T06:35:34Z</time>
      </trkpt>
      <trkpt lat="44.22417" lon="6.00742">
        <ele>941.75</ele>
        <time>2013-07-19T06:35:50Z</time>
      </trkpt>
      <trkpt lat="44.22421" lon="6.00746">
        <ele>944.63</ele>
        <time>2013-07-19T06:36:05Z</time>
      </trkpt>
      <trkpt lat="44.22425" lon="6.00749">
        <ele>945.11</ele>
        <time>2013-07-19T06:36:19Z</time>
      </trkpt>
      <trkpt lat="44.22428" lon="6.0075">
        <ele>948.48</ele>
        <time>2013-07-19T06:36:28Z</time>
      </trkpt>
      <trkpt lat="44.22428" lon="6.00754">
        <ele>947.52</ele>
        <time>2013-07-19T06:36:47Z</time>
      </trkpt>
      <trkpt lat="44.2243" lon="6.00751">
        <ele>947.52</ele>
        <time>2013-07-19T06:37:13Z</time>
      </trkpt>
      <trkpt lat="44.2243" lon="6.00754">
        <ele>948.96</ele>
        <time>2013-07-19T06:37:37Z</time>
      </trkpt>
      <trkpt lat="44.2243" lon="6.00755">
        <ele>954.25</ele>
        <time>2013-07-19T06:37:43Z</time>
      </trkpt>
      <trkpt lat="44.2243" lon="6.00755">
        <ele>949.92</ele>
        <time>2013-07-19T06:37:44Z</time>
      </trkpt>
      <trkpt lat="44.22431" lon="6.00758">
        <ele>950.88</ele>
        <time>2013-07-19T06:38:05Z</time>
      </trkpt>
      <trkpt lat="44.22432" lon="6.0076">
        <ele>952.8</ele>
        <time>2013-07-19T06:38:09Z</time>
      </trkpt>
      <trkpt lat="44.22435" lon="6.00761">
        <ele>955.21</ele>
        <time>2013-07-19T06:38:24Z</time>
      </trkpt>
      <trkpt lat="44.22437" lon="6.00762">
        <ele>957.61</ele>
        <time>2013-07-19T06:38:38Z</time>
      </trkpt>
      <trkpt lat="44.22442" lon="6.0076">
        <ele>957.61</ele>
        <time>2013-07-19T06:38:56Z</time>
      </trkpt>
      <trkpt lat="44.22441" lon="6.00765">
        <ele>958.09</ele>
        <time>2013-07-19T06:39:08Z</time>
      </trkpt>
      <trkpt lat="44.22442" lon="6.00769">
        <ele>961.46</ele>
        <time>2013-07-19T06:39:18Z</time>
      </trkpt>
      <trkpt lat="44.22442" lon="6.00771">
        <ele>961.46</ele>
        <time>2013-07-19T06:39:33Z</time>
      </trkpt>
      <trkpt lat="44.22441" lon="6.00774">
        <ele>964.34</ele>
        <time>2013-07-19T06:39:46Z</time>
      </trkpt>
      <trkpt lat="44.22442" lon="6.00778">
        <ele>966.26</ele>
        <time>2013-07-19T06:40:04Z</time>
      </trkpt>
      <trkpt lat="44.22444" lon="6.0078">
        <ele>969.63</ele>
        <time>2013-07-19T06:40:12Z</time>
      </trkpt>
      <trkpt lat="44.22445" lon="6.00786">
        <ele>969.63</ele>
        <time>2013-07-19T06:40:26Z</time>
      </trkpt>
      <trkpt lat="44.22446" lon="6.0079">
        <ele>972.51</ele>
        <time>2013-07-19T06:40:41Z</time>
      </trkpt>
      <trkpt lat="44.22444" lon="6.0079">
        <ele>972.51</ele>
        <time>2013-07-19T06:40:58Z</time>
      </trkpt>
      <trkpt lat="44.22442" lon="6.00794">
        <ele>972.99</ele>
        <time>2013-07-19T06:41:28Z</time>
      </trkpt>
      <trkpt lat="44.22442" lon="6.00797">
        <ele>972.99</ele>
        <time>2013-07-19T06:41:52Z</time>
      </trkpt>
      <trkpt lat="44.22447" lon="6.008">
        <ele>974.91</ele>
        <time>2013-07-19T06:42:06Z</time>
      </trkpt>
      <trkpt lat="44.22449" lon="6.00797">
        <ele>975.39</ele>
        <time>2013-07-19T06:42:25Z</time>
      </trkpt>
      <trkpt lat="44.2245" lon="6.00796">
        <ele>974.91</ele>
        <time>2013-07-19T06:42:48Z</time>
      </trkpt>
      <trkpt lat="44.22452" lon="6.00797">
        <ele>975.88</ele>
        <time>2013-07-19T06:43:16Z</time>
      </trkpt>
      <trkpt lat="44.22454" lon="6.00795">
        <ele>975.39</ele>
        <time>2013-07-19T06:43:41Z</time>
      </trkpt>
      <trkpt lat="44.22454" lon="6.00795">
        <ele>972.03</ele>
        <time>2013-07-19T06:43:43Z</time>
      </trkpt>
      <trkpt lat="44.22454" lon="6.00795">
        <ele>976.36</ele>
        <time>2013-07-19T06:43:44Z</time>
      </trkpt>
      <trkpt lat="44.2245" lon="6.00793">
        <ele>975.88</ele>
        <time>2013-07-19T06:44:00Z</time>
      </trkpt>
      <trkpt lat="44.22452" lon="6.00795">
        <ele>976.84</ele>
        <time>2013-07-19T06:44:17Z</time>
      </trkpt>
      <trkpt lat="44.22453" lon="6.00806">
        <ele>979.24</ele>
        <time>2013-07-19T06:44:31Z</time>
      </trkpt>
      <trkpt lat="44.22454" lon="6.00815">
        <ele>982.12</ele>
        <time>2013-07-19T06:44:43Z</time>
      </trkpt>
      <trkpt lat="44.22459" lon="6.0082">
        <ele>983.57</ele>
        <time>2013-07-19T06:44:58Z</time>
      </trkpt>
      <trkpt lat="44.22465" lon="6.00824">
        <ele>986.45</ele>
        <time>2013-07-19T06:45:11Z</time>
      </trkpt>
      <trkpt lat="44.22468" lon="6.00827">
        <ele>988.37</ele>
        <time>2013-07-19T06:45:27Z</time>
      </trkpt>
      <trkpt lat="44.22467" lon="6.0083">
        <ele>988.85</ele>
        <time>2013-07-19T06:45:43Z</time>
      </trkpt>
      <trkpt lat="44.22469" lon="6.00834">
        <ele>992.7</ele>
        <time>2013-07-19T06:45:59Z</time>
      </trkpt>
      <trkpt lat="44.22469" lon="6.00842">
        <ele>995.58</ele>
        <time>2013-07-19T06:46:15Z</time>
      </trkpt>
      <trkpt lat="44.22468" lon="6.00852">
        <ele>994.62</ele>
        <time>2013-07-19T06:46:29Z</time>
      </trkpt>
      <trkpt lat="44.22469" lon="6.00854">
        <ele>997.99</ele>
        <time>2013-07-19T06:46:35Z</time>
      </trkpt>
      <trkpt lat="44.2247" lon="6.00859">
        <ele>998.47</ele>
        <time>2013-07-19T06:46:50Z</time>
      </trkpt>
      <trkpt lat="44.22472" lon="6.00866">
        <ele>1000.87</ele>
        <time>2013-07-19T06:47:07Z</time>
      </trkpt>
      <trkpt lat="44.22472" lon="6.00871">
        <ele>1002.31</ele>
        <time>2013-07-19T06:47:24Z</time>
      </trkpt>
      <trkpt lat="44.22474" lon="6.00875">
        <ele>1004.72</ele>
        <time>2013-07-19T06:47:40Z</time>
      </trkpt>
      <trkpt lat="44.22477" lon="6.00878">
        <ele>1007.12</ele>
        <time>2013-07-19T06:47:56Z</time>
      </trkpt>
      <trkpt lat="44.2248" lon="6.0088">
        <ele>1006.64</ele>
        <time>2013-07-19T06:48:12Z</time>
      </trkpt>
      <trkpt lat="44.22481" lon="6.0088">
        <ele>1010</ele>
        <time>2013-07-19T06:48:27Z</time>
      </trkpt>
      <trkpt lat="44.22484" lon="6.00884">
        <ele>1011.44</ele>
        <time>2013-07-19T06:48:47Z</time>
      </trkpt>
      <trkpt lat="44.22484" lon="6.00885">
        <ele>1012.41</ele>
        <time>2013-07-19T06:49:03Z</time>
      </trkpt>
      <trkpt lat="44.2249" lon="6.00885">
        <ele>1014.33</ele>
        <time>2013-07-19T06:49:29Z</time>
      </trkpt>
      <trkpt lat="44.22493" lon="6.00888">
        <ele>1015.77</ele>
        <time>2013-07-19T06:49:50Z</time>
      </trkpt>
      <trkpt lat="44.22493" lon="6.00888">
        <ele>1016.73</ele>
        <time>2013-07-19T06:50:03Z</time>
      </trkpt>
      <trkpt lat="44.22497" lon="6.0089">
        <ele>1019.13</ele>
        <time>2013-07-19T06:50:18Z</time>
      </trkpt>
      <trkpt lat="44.22499" lon="6.00889">
        <ele>1020.1</ele>
        <time>2013-07-19T06:50:32Z</time>
      </trkpt>
      <trkpt lat="44.225" lon="6.00889">
        <ele>1022.98</ele>
        <time>2013-07-19T06:50:36Z</time>
      </trkpt>
      <trkpt lat="44.22505" lon="6.00891">
        <ele>1022.5</ele>
        <time>2013-07-19T06:51:05Z</time>
      </trkpt>
      <trkpt lat="44.22513" lon="6.00896">
        <ele>1024.42</ele>
        <time>2013-07-19T06:51:31Z</time>
      </trkpt>
      <trkpt lat="44.22514" lon="6.00891">
        <ele>1025.86</ele>
        <time>2013-07-19T06:51:45Z</time>
      </trkpt>
      <trkpt lat="44.22517" lon="6.00883">
        <ele>1025.86</ele>
        <time>2013-07-19T06:52:00Z</time>
      </trkpt>
      <trkpt lat="44.22519" lon="6.00877">
        <ele>1022.98</ele>
        <time>2013-07-19T06:52:11Z</time>
      </trkpt>
      <trkpt lat="44.22519" lon="6.00877">
        <ele>1027.31</ele>
        <time>2013-07-19T06:52:13Z</time>
      </trkpt>
      <trkpt lat="44.22519" lon="6.00876">
        <ele>1024.42</ele>
        <time>2013-07-19T06:52:14Z</time>
      </trkpt>
      <trkpt lat="44.22522" lon="6.00876">
        <ele>1026.34</ele>
        <time>2013-07-19T06:52:28Z</time>
      </trkpt>
      <trkpt lat="44.22523" lon="6.00875">
        <ele>1026.34</ele>
        <time>2013-07-19T06:52:43Z</time>
      </trkpt>
      <trkpt lat="44.22527" lon="6.00871">
        <ele>1028.27</ele>
        <time>2013-07-19T06:52:59Z</time>
      </trkpt>
      <trkpt lat="44.22533" lon="6.00865">
        <ele>1028.75</ele>
        <time>2013-07-19T06:53:13Z</time>
      </trkpt>
      <trkpt lat="44.22537" lon="6.00863">
        <ele>1030.19</ele>
        <time>2013-07-19T06:53:34Z</time>
      </trkpt>
      <trkpt lat="44.22537" lon="6.00863">
        <ele>1030.67</ele>
        <time>2013-07-19T06:53:36Z</time>
      </trkpt>
      <trkpt lat="44.22537" lon="6.00865">
        <ele>1028.75</ele>
        <time>2013-07-19T06:53:40Z</time>
      </trkpt>
      <trkpt lat="44.22537" lon="6.00865">
        <ele>1031.63</ele>
        <time>2013-07-19T06:53:41Z</time>
      </trkpt>
      <trkpt lat="44.22539" lon="6.00864">
        <ele>1030.19</ele>
        <time>2013-07-19T06:53:48Z</time>
      </trkpt>
      <trkpt lat="44.22539" lon="6.00864">
        <ele>1032.11</ele>
        <time>2013-07-19T06:53:49Z</time>
      </trkpt>
      <trkpt lat="44.2254" lon="6.00863">
        <ele>1030.19</ele>
        <time>2013-07-19T06:53:52Z</time>
      </trkpt>
      <trkpt lat="44.22541" lon="6.00862">
        <ele>1030.19</ele>
        <time>2013-07-19T06:53:55Z</time>
      </trkpt>
      <trkpt lat="44.22541" lon="6.00861">
        <ele>1032.11</ele>
        <time>2013-07-19T06:53:56Z</time>
      </trkpt>
      <trkpt lat="44.22541" lon="6.00861">
        <ele>1030.19</ele>
        <time>2013-07-19T06:53:57Z</time>
      </trkpt>
      <trkpt lat="44.22542" lon="6.0086">
        <ele>1033.07</ele>
        <time>2013-07-19T06:53:58Z</time>
      </trkpt>
      <trkpt lat="44.22542" lon="6.0086">
        <ele>1031.15</ele>
        <time>2013-07-19T06:53:59Z</time>
      </trkpt>
      <trkpt lat="44.22544" lon="6.0086">
        <ele>1031.63</ele>
        <time>2013-07-19T06:54:14Z</time>
      </trkpt>
      <trkpt lat="44.22547" lon="6.00858">
        <ele>1032.59</ele>
        <time>2013-07-19T06:54:25Z</time>
      </trkpt>
      <trkpt lat="44.22547" lon="6.00855">
        <ele>1032.59</ele>
        <time>2013-07-19T06:54:37Z</time>
      </trkpt>
      <trkpt lat="44.22552" lon="6.00855">
        <ele>1030.19</ele>
        <time>2013-07-19T06:54:44Z</time>
      </trkpt>
      <trkpt lat="44.22553" lon="6.00855">
        <ele>1032.11</ele>
        <time>2013-07-19T06:54:45Z</time>
      </trkpt>
      <trkpt lat="44.22554" lon="6.00854">
        <ele>1031.63</ele>
        <time>2013-07-19T06:55:09Z</time>
      </trkpt>
      <trkpt lat="44.22552" lon="6.00854">
        <ele>1033.07</ele>
        <time>2013-07-19T06:55:31Z</time>
      </trkpt>
      <trkpt lat="44.22551" lon="6.00853">
        <ele>1033.55</ele>
        <time>2013-07-19T06:55:36Z</time>
      </trkpt>
      <trkpt lat="44.2255" lon="6.00853">
        <ele>1029.23</ele>
        <time>2013-07-19T06:55:45Z</time>
      </trkpt>
      <trkpt lat="44.2255" lon="6.00853">
        <ele>1034.52</ele>
        <time>2013-07-19T06:55:46Z</time>
      </trkpt>
      <trkpt lat="44.2255" lon="6.00853">
        <ele>1034.52</ele>
        <time>2013-07-19T06:55:47Z</time>
      </trkpt>
      <trkpt lat="44.2255" lon="6.00853">
        <ele>1032.59</ele>
        <time>2013-07-19T06:55:48Z</time>
      </trkpt>
      <trkpt lat="44.22549" lon="6.00854">
        <ele>1030.19</ele>
        <time>2013-07-19T06:55:50Z</time>
      </trkpt>
      <trkpt lat="44.2255" lon="6.00854">
        <ele>1032.11</ele>
        <time>2013-07-19T06:55:51Z</time>
      </trkpt>
      <trkpt lat="44.2255" lon="6.00854">
        <ele>1033.55</ele>
        <time>2013-07-19T06:55:52Z</time>
      </trkpt>
      <trkpt lat="44.2255" lon="6.00854">
        <ele>1036.44</ele>
        <time>2013-07-19T06:55:53Z</time>
      </trkpt>
      <trkpt lat="44.2255" lon="6.00854">
        <ele>1033.55</ele>
        <time>2013-07-19T06:55:54Z</time>
      </trkpt>
      <trkpt lat="44.2255" lon="6.00854">
        <ele>1035</ele>
        <time>2013-07-19T06:55:58Z</time>
      </trkpt>
      <trkpt lat="44.22551" lon="6.00854">
        <ele>1033.55</ele>
        <time>2013-07-19T06:55:59Z</time>
      </trkpt>
      <trkpt lat="44.22552" lon="6.00854">
        <ele>1035</ele>
        <time>2013-07-19T06:56:00Z</time>
      </trkpt>
      <trkpt lat="44.22554" lon="6.00854">
        <ele>1035</ele>
        <time>2013-07-19T06:56:06Z</time>
      </trkpt>
      <trkpt lat="44.22554" lon="6.00851">
        <ele>1034.52</ele>
        <time>2013-07-19T06:56:15Z</time>
      </trkpt>
      <trkpt lat="44.22555" lon="6.00851">
        <ele>1034.52</ele>
        <time>2013-07-19T06:56:17Z</time>
      </trkpt>
      <trkpt lat="44.22556" lon="6.00849">
        <ele>1032.11</ele>
        <time>2013-07-19T06:56:20Z</time>
      </trkpt>
      <trkpt lat="44.22557" lon="6.00849">
        <ele>1035</ele>
        <time>2013-07-19T06:56:21Z</time>
      </trkpt>
      <trkpt lat="44.22561" lon="6.00849">
        <ele>1033.07</ele>
        <time>2013-07-19T06:56:33Z</time>
      </trkpt>
      <trkpt lat="44.22566" lon="6.0084">
        <ele>1033.07</ele>
        <time>2013-07-19T06:56:52Z</time>
      </trkpt>
      <trkpt lat="44.22568" lon="6.00838">
        <ele>1034.04</ele>
        <time>2013-07-19T06:57:04Z</time>
      </trkpt>
      <trkpt lat="44.22569" lon="6.00838">
        <ele>1032.11</ele>
        <time>2013-07-19T06:57:07Z</time>
      </trkpt>
      <trkpt lat="44.22573" lon="6.00832">
        <ele>1032.11</ele>
        <time>2013-07-19T06:57:22Z</time>
      </trkpt>
      <trkpt lat="44.22576" lon="6.00823">
        <ele>1030.19</ele>
        <time>2013-07-19T06:57:35Z</time>
      </trkpt>
      <trkpt lat="44.22578" lon="6.0082">
        <ele>1030.19</ele>
        <time>2013-07-19T06:57:39Z</time>
      </trkpt>
      <trkpt lat="44.22579" lon="6.00817">
        <ele>1031.15</ele>
        <time>2013-07-19T06:57:45Z</time>
      </trkpt>
      <trkpt lat="44.22584" lon="6.00814">
        <ele>1029.23</ele>
        <time>2013-07-19T06:57:58Z</time>
      </trkpt>
      <trkpt lat="44.22584" lon="6.00814">
        <ele>1031.15</ele>
        <time>2013-07-19T06:58:00Z</time>
      </trkpt>
      <trkpt lat="44.22587" lon="6.00811">
        <ele>1030.67</ele>
        <time>2013-07-19T06:58:06Z</time>
      </trkpt>
      <trkpt lat="44.22588" lon="6.00809">
        <ele>1029.23</ele>
        <time>2013-07-19T06:58:15Z</time>
      </trkpt>
      <trkpt lat="44.22591" lon="6.00802">
        <ele>1029.71</ele>
        <time>2013-07-19T06:58:26Z</time>
      </trkpt>
      <trkpt lat="44.22595" lon="6.00793">
        <ele>1029.23</ele>
        <time>2013-07-19T06:58:36Z</time>
      </trkpt>
      <trkpt lat="44.22596" lon="6.00792">
        <ele>1027.79</ele>
        <time>2013-07-19T06:58:37Z</time>
      </trkpt>
      <trkpt lat="44.22599" lon="6.0079">
        <ele>1028.75</ele>
        <time>2013-07-19T06:58:52Z</time>
      </trkpt>
      <trkpt lat="44.22601" lon="6.00796">
        <ele>1029.71</ele>
        <time>2013-07-19T06:59:10Z</time>
      </trkpt>
      <trkpt lat="44.22601" lon="6.00799">
        <ele>1029.23</ele>
        <time>2013-07-19T06:59:38Z</time>
      </trkpt>
      <trkpt lat="44.22603" lon="6.00797">
        <ele>1028.75</ele>
        <time>2013-07-19T06:59:53Z</time>
      </trkpt>
      <trkpt lat="44.22604" lon="6.00797">
        <ele>1030.19</ele>
        <time>2013-07-19T06:59:54Z</time>
      </trkpt>
      <trkpt lat="44.22604" lon="6.00796">
        <ele>1029.23</ele>
        <time>2013-07-19T06:59:55Z</time>
      </trkpt>
      <trkpt lat="44.22606" lon="6.00795">
        <ele>1030.19</ele>
        <time>2013-07-19T06:59:58Z</time>
      </trkpt>
      <trkpt lat="44.22608" lon="6.00793">
        <ele>1030.67</ele>
        <time>2013-07-19T07:00:01Z</time>
      </trkpt>
      <trkpt lat="44.22608" lon="6.00793">
        <ele>1029.71</ele>
        <time>2013-07-19T07:00:02Z</time>
      </trkpt>
      <trkpt lat="44.2261" lon="6.00789">
        <ele>1029.71</ele>
        <time>2013-07-19T07:00:24Z</time>
      </trkpt>
      <trkpt lat="44.2261" lon="6.00789">
        <ele>1029.71</ele>
        <time>2013-07-19T07:00:26Z</time>
      </trkpt>
      <trkpt lat="44.22612" lon="6.00789">
        <ele>1030.67</ele>
        <time>2013-07-19T07:00:41Z</time>
      </trkpt>
      <trkpt lat="44.22613" lon="6.00787">
        <ele>1032.59</ele>
        <time>2013-07-19T07:00:55Z</time>
      </trkpt>
      <trkpt lat="44.22615" lon="6.00786">
        <ele>1032.59</ele>
        <time>2013-07-19T07:00:59Z</time>
      </trkpt>
      <trkpt lat="44.22622" lon="6.00783">
        <ele>1034.04</ele>
        <time>2013-07-19T07:01:14Z</time>
      </trkpt>
      <trkpt lat="44.22627" lon="6.00782">
        <ele>1033.55</ele>
        <time>2013-07-19T07:01:28Z</time>
      </trkpt>
      <trkpt lat="44.22629" lon="6.00781">
        <ele>1035.48</ele>
        <time>2013-07-19T07:01:32Z</time>
      </trkpt>
      <trkpt lat="44.2263" lon="6.00781">
        <ele>1033.07</ele>
        <time>2013-07-19T07:01:34Z</time>
      </trkpt>
      <trkpt lat="44.2263" lon="6.0078">
        <ele>1035.48</ele>
        <time>2013-07-19T07:01:35Z</time>
      </trkpt>
      <trkpt lat="44.22633" lon="6.0078">
        <ele>1031.63</ele>
        <time>2013-07-19T07:01:41Z</time>
      </trkpt>
      <trkpt lat="44.22633" lon="6.0078">
        <ele>1031.63</ele>
        <time>2013-07-19T07:01:42Z</time>
      </trkpt>
      <trkpt lat="44.22634" lon="6.0078">
        <ele>1036.92</ele>
        <time>2013-07-19T07:01:43Z</time>
      </trkpt>
      <trkpt lat="44.22635" lon="6.0078">
        <ele>1034.52</ele>
        <time>2013-07-19T07:01:44Z</time>
      </trkpt>
      <trkpt lat="44.22637" lon="6.00777">
        <ele>1035.96</ele>
        <time>2013-07-19T07:01:50Z</time>
      </trkpt>
      <trkpt lat="44.22637" lon="6.00776">
        <ele>1034.52</ele>
        <time>2013-07-19T07:01:51Z</time>
      </trkpt>
      <trkpt lat="44.2264" lon="6.00773">
        <ele>1035.48</ele>
        <time>2013-07-19T07:02:11Z</time>
      </trkpt>
      <trkpt lat="44.22642" lon="6.00772">
        <ele>1035.96</ele>
        <time>2013-07-19T07:02:28Z</time>
      </trkpt>
      <trkpt lat="44.22642" lon="6.00773">
        <ele>1035.96</ele>
        <time>2013-07-19T07:02:50Z</time>
      </trkpt>
      <trkpt lat="44.22644" lon="6.00772">
        <ele>1034.04</ele>
        <time>2013-07-19T07:03:02Z</time>
      </trkpt>
      <trkpt lat="44.22645" lon="6.00771">
        <ele>1037.4</ele>
        <time>2013-07-19T07:03:03Z</time>
      </trkpt>
      <trkpt lat="44.22646" lon="6.0077">
        <ele>1037.4</ele>
        <time>2013-07-19T07:03:10Z</time>
      </trkpt>
      <trkpt lat="44.22647" lon="6.00769">
        <ele>1037.4</ele>
        <time>2013-07-19T07:03:14Z</time>
      </trkpt>
      <trkpt lat="44.22651" lon="6.00761">
        <ele>1035.96</ele>
        <time>2013-07-19T07:03:32Z</time>
      </trkpt>
      <trkpt lat="44.22651" lon="6.0076">
        <ele>1034.52</ele>
        <time>2013-07-19T07:03:38Z</time>
      </trkpt>
      <trkpt lat="44.22651" lon="6.0076">
        <ele>1037.4</ele>
        <time>2013-07-19T07:03:39Z</time>
      </trkpt>
      <trkpt lat="44.22652" lon="6.0076">
        <ele>1033.55</ele>
        <time>2013-07-19T07:03:43Z</time>
      </trkpt>
      <trkpt lat="44.22652" lon="6.0076">
        <ele>1033.55</ele>
        <time>2013-07-19T07:03:44Z</time>
      </trkpt>
      <trkpt lat="44.22653" lon="6.0076">
        <ele>1037.4</ele>
        <time>2013-07-19T07:03:45Z</time>
      </trkpt>
      <trkpt lat="44.22653" lon="6.0076">
        <ele>1035</ele>
        <time>2013-07-19T07:03:47Z</time>
      </trkpt>
      <trkpt lat="44.22653" lon="6.0076">
        <ele>1040.28</ele>
        <time>2013-07-19T07:03:48Z</time>
      </trkpt>
      <trkpt lat="44.22653" lon="6.0076">
        <ele>1037.4</ele>
        <time>2013-07-19T07:03:49Z</time>
      </trkpt>
      <trkpt lat="44.22654" lon="6.0076">
        <ele>1036.92</ele>
        <time>2013-07-19T07:03:53Z</time>
      </trkpt>
      <trkpt lat="44.22654" lon="6.0076">
        <ele>1038.84</ele>
        <time>2013-07-19T07:03:55Z</time>
      </trkpt>
      <trkpt lat="44.22655" lon="6.0076">
        <ele>1038.36</ele>
        <time>2013-07-19T07:03:58Z</time>
      </trkpt>
      <trkpt lat="44.22656" lon="6.00761">
        <ele>1039.8</ele>
        <time>2013-07-19T07:04:03Z</time>
      </trkpt>
      <trkpt lat="44.22656" lon="6.0076">
        <ele>1038.36</ele>
        <time>2013-07-19T07:04:04Z</time>
      </trkpt>
      <trkpt lat="44.22656" lon="6.0076">
        <ele>1039.32</ele>
        <time>2013-07-19T07:04:06Z</time>
      </trkpt>
      <trkpt lat="44.22657" lon="6.0076">
        <ele>1040.28</ele>
        <time>2013-07-19T07:04:14Z</time>
      </trkpt>
      <trkpt lat="44.22657" lon="6.0076">
        <ele>1039.32</ele>
        <time>2013-07-19T07:04:15Z</time>
      </trkpt>
      <trkpt lat="44.22657" lon="6.00761">
        <ele>1037.88</ele>
        <time>2013-07-19T07:04:35Z</time>
      </trkpt>
      <trkpt lat="44.22657" lon="6.0076">
        <ele>1040.28</ele>
        <time>2013-07-19T07:04:36Z</time>
      </trkpt>
      <trkpt lat="44.2266" lon="6.00757">
        <ele>1040.76</ele>
        <time>2013-07-19T07:04:44Z</time>
      </trkpt>
      <trkpt lat="44.22663" lon="6.00753">
        <ele>1040.28</ele>
        <time>2013-07-19T07:05:07Z</time>
      </trkpt>
      <trkpt lat="44.22659" lon="6.00759">
        <ele>1038.84</ele>
        <time>2013-07-19T07:05:25Z</time>
      </trkpt>
      <trkpt lat="44.22659" lon="6.00759">
        <ele>1042.69</ele>
        <time>2013-07-19T07:05:26Z</time>
      </trkpt>
      <trkpt lat="44.22659" lon="6.00759">
        <ele>1042.69</ele>
        <time>2013-07-19T07:05:27Z</time>
      </trkpt>
      <trkpt lat="44.22659" lon="6.0076">
        <ele>1040.28</ele>
        <time>2013-07-19T07:05:28Z</time>
      </trkpt>
      <trkpt lat="44.22661" lon="6.00761">
        <ele>1039.32</ele>
        <time>2013-07-19T07:05:50Z</time>
      </trkpt>
      <trkpt lat="44.22661" lon="6.00761">
        <ele>1041.73</ele>
        <time>2013-07-19T07:05:51Z</time>
      </trkpt>
      <trkpt lat="44.22658" lon="6.00766">
        <ele>1040.76</ele>
        <time>2013-07-19T07:06:05Z</time>
      </trkpt>
      <trkpt lat="44.22658" lon="6.00768">
        <ele>1041.25</ele>
        <time>2013-07-19T07:06:07Z</time>
      </trkpt>
      <trkpt lat="44.22657" lon="6.00774">
        <ele>1040.76</ele>
        <time>2013-07-19T07:06:27Z</time>
      </trkpt>
      <trkpt lat="44.22659" lon="6.0077">
        <ele>1040.76</ele>
        <time>2013-07-19T07:06:46Z</time>
      </trkpt>
      <trkpt lat="44.22687" lon="6.00786">
        <ele>1063.84</ele>
        <time>2013-07-19T07:15:44Z</time>
      </trkpt>
      <trkpt lat="44.22691" lon="6.00781">
        <ele>1064.8</ele>
        <time>2013-07-19T07:16:01Z</time>
      </trkpt>
      <trkpt lat="44.22691" lon="6.00782">
        <ele>1065.28</ele>
        <time>2013-07-19T07:16:04Z</time>
      </trkpt>
      <trkpt lat="44.22691" lon="6.00789">
        <ele>1065.76</ele>
        <time>2013-07-19T07:16:18Z</time>
      </trkpt>
      <trkpt lat="44.22693" lon="6.00792">
        <ele>1064.32</ele>
        <time>2013-07-19T07:16:42Z</time>
      </trkpt>
      <trkpt lat="44.22693" lon="6.00792">
        <ele>1067.2</ele>
        <time>2013-07-19T07:16:43Z</time>
      </trkpt>
      <trkpt lat="44.22694" lon="6.00793">
        <ele>1065.28</ele>
        <time>2013-07-19T07:16:44Z</time>
      </trkpt>
      <trkpt lat="44.22694" lon="6.00793">
        <ele>1065.76</ele>
        <time>2013-07-19T07:17:17Z</time>
      </trkpt>
      <trkpt lat="44.22695" lon="6.00794">
        <ele>1065.76</ele>
        <time>2013-07-19T07:17:46Z</time>
      </trkpt>
      <trkpt lat="44.22697" lon="6.00797">
        <ele>1065.76</ele>
        <time>2013-07-19T07:18:13Z</time>
      </trkpt>
      <trkpt lat="44.22698" lon="6.00796">
        <ele>1065.76</ele>
        <time>2013-07-19T07:18:32Z</time>
      </trkpt>
      <trkpt lat="44.22693" lon="6.00793">
        <ele>1066.24</ele>
        <time>2013-07-19T07:18:52Z</time>
      </trkpt>
      <trkpt lat="44.22689" lon="6.00788">
        <ele>1065.76</ele>
        <time>2013-07-19T07:19:17Z</time>
      </trkpt>
      <trkpt lat="44.22688" lon="6.00781">
        <ele>1066.24</ele>
        <time>2013-07-19T07:19:42Z</time>
      </trkpt>
      <trkpt lat="44.22688" lon="6.00773">
        <ele>1067.68</ele>
        <time>2013-07-19T07:20:00Z</time>
      </trkpt>
      <trkpt lat="44.22678" lon="6.00756">
        <ele>1067.68</ele>
        <time>2013-07-19T07:20:16Z</time>
      </trkpt>
      <trkpt lat="44.22674" lon="6.00751">
        <ele>1067.2</ele>
        <time>2013-07-19T07:20:31Z</time>
      </trkpt>
      <trkpt lat="44.2267" lon="6.00749">
        <ele>1067.2</ele>
        <time>2013-07-19T07:20:56Z</time>
      </trkpt>
      <trkpt lat="44.22672" lon="6.00751">
        <ele>1067.2</ele>
        <time>2013-07-19T07:21:15Z</time>
      </trkpt>
      <trkpt lat="44.22673" lon="6.0075">
        <ele>1067.68</ele>
        <time>2013-07-19T07:21:43Z</time>
      </trkpt>
      <trkpt lat="44.22676" lon="6.00751">
        <ele>1067.68</ele>
        <time>2013-07-19T07:22:03Z</time>
      </trkpt>
      <trkpt lat="44.22676" lon="6.00756">
        <ele>1067.68</ele>
        <time>2013-07-19T07:22:24Z</time>
      </trkpt>
      <trkpt lat="44.22672" lon="6.00752">
        <ele>1068.16</ele>
        <time>2013-07-19T07:22:52Z</time>
      </trkpt>
      <trkpt lat="44.2267" lon="6.0075">
        <ele>1068.16</ele>
        <time>2013-07-19T07:23:18Z</time>
      </trkpt>
      <trkpt lat="44.22672" lon="6.00745">
        <ele>1068.64</ele>
        <time>2013-07-19T07:23:47Z</time>
      </trkpt>
      <trkpt lat="44.22671" lon="6.00751">
        <ele>1068.64</ele>
        <time>2013-07-19T07:24:15Z</time>
      </trkpt>
      <trkpt lat="44.22671" lon="6.00746">
        <ele>1069.12</ele>
        <time>2013-07-19T07:24:38Z</time>
      </trkpt>
      <trkpt lat="44.22673" lon="6.00758">
        <ele>1069.12</ele>
        <time>2013-07-19T07:24:51Z</time>
      </trkpt>
      <trkpt lat="44.22673" lon="6.0076">
        <ele>1067.68</ele>
        <time>2013-07-19T07:25:05Z</time>
      </trkpt>
      <trkpt lat="44.22671" lon="6.0076">
        <ele>1068.16</ele>
        <time>2013-07-19T07:25:20Z</time>
      </trkpt>
      <trkpt lat="44.22669" lon="6.0077">
        <ele>1070.57</ele>
        <time>2013-07-19T07:25:34Z</time>
      </trkpt>
      <trkpt lat="44.22666" lon="6.00775">
        <ele>1072.49</ele>
        <time>2013-07-19T07:25:47Z</time>
      </trkpt>
      <trkpt lat="44.22662" lon="6.0078">
        <ele>1076.33</ele>
        <time>2013-07-19T07:25:59Z</time>
      </trkpt>
      <trkpt lat="44.22661" lon="6.00782">
        <ele>1076.33</ele>
        <time>2013-07-19T07:26:05Z</time>
      </trkpt>
      <trkpt lat="44.22658" lon="6.00785">
        <ele>1078.26</ele>
        <time>2013-07-19T07:26:19Z</time>
      </trkpt>
      <trkpt lat="44.22654" lon="6.00784">
        <ele>1079.22</ele>
        <time>2013-07-19T07:26:32Z</time>
      </trkpt>
      <trkpt lat="44.22652" lon="6.00787">
        <ele>1082.58</ele>
        <time>2013-07-19T07:26:46Z</time>
      </trkpt>
      <trkpt lat="44.22647" lon="6.00787">
        <ele>1083.54</ele>
        <time>2013-07-19T07:27:01Z</time>
      </trkpt>
      <trkpt lat="44.22645" lon="6.00794">
        <ele>1084.02</ele>
        <time>2013-07-19T07:27:16Z</time>
      </trkpt>
      <trkpt lat="44.22645" lon="6.00794">
        <ele>1087.39</ele>
        <time>2013-07-19T07:27:17Z</time>
      </trkpt>
      <trkpt lat="44.22644" lon="6.008">
        <ele>1088.83</ele>
        <time>2013-07-19T07:27:33Z</time>
      </trkpt>
      <trkpt lat="44.22641" lon="6.00802">
        <ele>1091.23</ele>
        <time>2013-07-19T07:27:47Z</time>
      </trkpt>
      <trkpt lat="44.22639" lon="6.008">
        <ele>1090.27</ele>
        <time>2013-07-19T07:28:03Z</time>
      </trkpt>
      <trkpt lat="44.22637" lon="6.00804">
        <ele>1094.12</ele>
        <time>2013-07-19T07:28:14Z</time>
      </trkpt>
      <trkpt lat="44.22637" lon="6.0081">
        <ele>1094.6</ele>
        <time>2013-07-19T07:28:25Z</time>
      </trkpt>
      <trkpt lat="44.22634" lon="6.00809">
        <ele>1096.04</ele>
        <time>2013-07-19T07:28:37Z</time>
      </trkpt>
      <trkpt lat="44.22633" lon="6.0081">
        <ele>1097.96</ele>
        <time>2013-07-19T07:28:46Z</time>
      </trkpt>
      <trkpt lat="44.22631" lon="6.00814">
        <ele>1098.44</ele>
        <time>2013-07-19T07:28:57Z</time>
      </trkpt>
      <trkpt lat="44.22627" lon="6.00817">
        <ele>1099.89</ele>
        <time>2013-07-19T07:29:06Z</time>
      </trkpt>
      <trkpt lat="44.22625" lon="6.00821">
        <ele>1102.29</ele>
        <time>2013-07-19T07:29:18Z</time>
      </trkpt>
      <trkpt lat="44.22625" lon="6.00821">
        <ele>1104.69</ele>
        <time>2013-07-19T07:29:34Z</time>
      </trkpt>
      <trkpt lat="44.22625" lon="6.00821">
        <ele>1104.21</ele>
        <time>2013-07-19T07:29:35Z</time>
      </trkpt>
      <trkpt lat="44.22621" lon="6.00825">
        <ele>1106.13</ele>
        <time>2013-07-19T07:29:49Z</time>
      </trkpt>
      <trkpt lat="44.22618" lon="6.00828">
        <ele>1109.5</ele>
        <time>2013-07-19T07:30:01Z</time>
      </trkpt>
      <trkpt lat="44.22617" lon="6.00827">
        <ele>1106.13</ele>
        <time>2013-07-19T07:30:12Z</time>
      </trkpt>
      <trkpt lat="44.22617" lon="6.00827">
        <ele>1109.98</ele>
        <time>2013-07-19T07:30:13Z</time>
      </trkpt>
      <trkpt lat="44.22617" lon="6.00829">
        <ele>1108.54</ele>
        <time>2013-07-19T07:30:31Z</time>
      </trkpt>
      <trkpt lat="44.2262" lon="6.00831">
        <ele>1109.98</ele>
        <time>2013-07-19T07:30:44Z</time>
      </trkpt>
      <trkpt lat="44.22617" lon="6.00832">
        <ele>1113.34</ele>
        <time>2013-07-19T07:30:55Z</time>
      </trkpt>
      <trkpt lat="44.22617" lon="6.00833">
        <ele>1109.98</ele>
        <time>2013-07-19T07:30:56Z</time>
      </trkpt>
      <trkpt lat="44.2262" lon="6.00832">
        <ele>1109.02</ele>
        <time>2013-07-19T07:31:12Z</time>
      </trkpt>
      <trkpt lat="44.2262" lon="6.00832">
        <ele>1112.86</ele>
        <time>2013-07-19T07:31:13Z</time>
      </trkpt>
      <trkpt lat="44.22623" lon="6.0083">
        <ele>1111.9</ele>
        <time>2013-07-19T07:31:29Z</time>
      </trkpt>
      <trkpt lat="44.22626" lon="6.00833">
        <ele>1113.34</ele>
        <time>2013-07-19T07:31:44Z</time>
      </trkpt>
      <trkpt lat="44.22629" lon="6.00833">
        <ele>1113.34</ele>
        <time>2013-07-19T07:31:57Z</time>
      </trkpt>
      <trkpt lat="44.22629" lon="6.00833">
        <ele>1113.34</ele>
        <time>2013-07-19T07:31:58Z</time>
      </trkpt>
      <trkpt lat="44.2263" lon="6.00834">
        <ele>1111.9</ele>
        <time>2013-07-19T07:32:00Z</time>
      </trkpt>
      <trkpt lat="44.22631" lon="6.00834">
        <ele>1113.34</ele>
        <time>2013-07-19T07:32:02Z</time>
      </trkpt>
      <trkpt lat="44.22636" lon="6.00837">
        <ele>1113.82</ele>
        <time>2013-07-19T07:32:16Z</time>
      </trkpt>
      <trkpt lat="44.22636" lon="6.00838">
        <ele>1117.67</ele>
        <time>2013-07-19T07:32:18Z</time>
      </trkpt>
      <trkpt lat="44.22637" lon="6.0084">
        <ele>1114.31</ele>
        <time>2013-07-19T07:32:26Z</time>
      </trkpt>
      <trkpt lat="44.22639" lon="6.00841">
        <ele>1117.67</ele>
        <time>2013-07-19T07:32:32Z</time>
      </trkpt>
      <trkpt lat="44.22641" lon="6.00843">
        <ele>1121.52</ele>
        <time>2013-07-19T07:32:47Z</time>
      </trkpt>
      <trkpt lat="44.22643" lon="6.00846">
        <ele>1119.59</ele>
        <time>2013-07-19T07:33:05Z</time>
      </trkpt>
      <trkpt lat="44.22643" lon="6.00846">
        <ele>1122.96</ele>
        <time>2013-07-19T07:33:06Z</time>
      </trkpt>
      <trkpt lat="44.22641" lon="6.00848">
        <ele>1123.44</ele>
        <time>2013-07-19T07:33:18Z</time>
      </trkpt>
      <trkpt lat="44.22641" lon="6.00852">
        <ele>1126.8</ele>
        <time>2013-07-19T07:33:32Z</time>
      </trkpt>
      <trkpt lat="44.22642" lon="6.00851">
        <ele>1123.44</ele>
        <time>2013-07-19T07:33:37Z</time>
      </trkpt>
      <trkpt lat="44.22642" lon="6.00853">
        <ele>1127.28</ele>
        <time>2013-07-19T07:33:43Z</time>
      </trkpt>
      <trkpt lat="44.22645" lon="6.00854">
        <ele>1127.28</ele>
        <time>2013-07-19T07:33:59Z</time>
      </trkpt>
      <trkpt lat="44.22646" lon="6.00857">
        <ele>1127.76</ele>
        <time>2013-07-19T07:34:13Z</time>
      </trkpt>
      <trkpt lat="44.22647" lon="6.00859">
        <ele>1131.61</ele>
        <time>2013-07-19T07:34:19Z</time>
      </trkpt>
      <trkpt lat="44.2265" lon="6.00859">
        <ele>1130.65</ele>
        <time>2013-07-19T07:34:30Z</time>
      </trkpt>
      <trkpt lat="44.22654" lon="6.00859">
        <ele>1130.65</ele>
        <time>2013-07-19T07:34:45Z</time>
      </trkpt>
      <trkpt lat="44.22654" lon="6.00859">
        <ele>1128.73</ele>
        <time>2013-07-19T07:34:47Z</time>
      </trkpt>
      <trkpt lat="44.22654" lon="6.00859">
        <ele>1134.49</ele>
        <time>2013-07-19T07:34:48Z</time>
      </trkpt>
      <trkpt lat="44.22654" lon="6.00859">
        <ele>1130.17</ele>
        <time>2013-07-19T07:34:49Z</time>
      </trkpt>
      <trkpt lat="44.22656" lon="6.00863">
        <ele>1134.01</ele>
        <time>2013-07-19T07:35:01Z</time>
      </trkpt>
      <trkpt lat="44.22656" lon="6.00864">
        <ele>1133.53</ele>
        <time>2013-07-19T07:35:03Z</time>
      </trkpt>
      <trkpt lat="44.22658" lon="6.00866">
        <ele>1135.45</ele>
        <time>2013-07-19T07:35:16Z</time>
      </trkpt>
      <trkpt lat="44.22657" lon="6.00868">
        <ele>1132.09</ele>
        <time>2013-07-19T07:35:24Z</time>
      </trkpt>
      <trkpt lat="44.22657" lon="6.00868">
        <ele>1134.49</ele>
        <time>2013-07-19T07:35:25Z</time>
      </trkpt>
      <trkpt lat="44.22657" lon="6.00869">
        <ele>1139.78</ele>
        <time>2013-07-19T07:35:26Z</time>
      </trkpt>
      <trkpt lat="44.22657" lon="6.00869">
        <ele>1136.9</ele>
        <time>2013-07-19T07:35:27Z</time>
      </trkpt>
      <trkpt lat="44.22659" lon="6.0087">
        <ele>1136.9</ele>
        <time>2013-07-19T07:35:39Z</time>
      </trkpt>
      <trkpt lat="44.22659" lon="6.00872">
        <ele>1138.34</ele>
        <time>2013-07-19T07:35:46Z</time>
      </trkpt>
      <trkpt lat="44.22656" lon="6.00873">
        <ele>1138.82</ele>
        <time>2013-07-19T07:35:58Z</time>
      </trkpt>
      <trkpt lat="44.22653" lon="6.00873">
        <ele>1140.26</ele>
        <time>2013-07-19T07:36:13Z</time>
      </trkpt>
      <trkpt lat="44.22645" lon="6.00869">
        <ele>1141.22</ele>
        <time>2013-07-19T07:36:28Z</time>
      </trkpt>
      <trkpt lat="44.2264" lon="6.00867">
        <ele>1142.66</ele>
        <time>2013-07-19T07:36:40Z</time>
      </trkpt>
      <trkpt lat="44.22639" lon="6.00871">
        <ele>1142.66</ele>
        <time>2013-07-19T07:36:54Z</time>
      </trkpt>
      <trkpt lat="44.22633" lon="6.00873">
        <ele>1145.07</ele>
        <time>2013-07-19T07:37:07Z</time>
      </trkpt>
      <trkpt lat="44.22628" lon="6.00875">
        <ele>1147.95</ele>
        <time>2013-07-19T07:37:21Z</time>
      </trkpt>
      <trkpt lat="44.22624" lon="6.00879">
        <ele>1149.39</ele>
        <time>2013-07-19T07:37:35Z</time>
      </trkpt>
      <trkpt lat="44.22624" lon="6.00879">
        <ele>1146.51</ele>
        <time>2013-07-19T07:37:36Z</time>
      </trkpt>
      <trkpt lat="44.22624" lon="6.00879">
        <ele>1150.35</ele>
        <time>2013-07-19T07:37:37Z</time>
      </trkpt>
      <trkpt lat="44.2262" lon="6.0088">
        <ele>1151.32</ele>
        <time>2013-07-19T07:37:52Z</time>
      </trkpt>
      <trkpt lat="44.22617" lon="6.00884">
        <ele>1154.68</ele>
        <time>2013-07-19T07:38:05Z</time>
      </trkpt>
      <trkpt lat="44.22614" lon="6.00887">
        <ele>1154.68</ele>
        <time>2013-07-19T07:38:16Z</time>
      </trkpt>
      <trkpt lat="44.22612" lon="6.00894">
        <ele>1156.6</ele>
        <time>2013-07-19T07:38:29Z</time>
      </trkpt>
      <trkpt lat="44.22614" lon="6.00899">
        <ele>1159.49</ele>
        <time>2013-07-19T07:38:41Z</time>
      </trkpt>
      <trkpt lat="44.22617" lon="6.00903">
        <ele>1161.89</ele>
        <time>2013-07-19T07:38:55Z</time>
      </trkpt>
      <trkpt lat="44.22617" lon="6.00904">
        <ele>1159.01</ele>
        <time>2013-07-19T07:38:57Z</time>
      </trkpt>
      <trkpt lat="44.22618" lon="6.00904">
        <ele>1163.33</ele>
        <time>2013-07-19T07:38:58Z</time>
      </trkpt>
      <trkpt lat="44.22618" lon="6.00905">
        <ele>1161.89</ele>
        <time>2013-07-19T07:38:59Z</time>
      </trkpt>
      <trkpt lat="44.22616" lon="6.00904">
        <ele>1162.37</ele>
        <time>2013-07-19T07:39:17Z</time>
      </trkpt>
      <trkpt lat="44.22617" lon="6.00902">
        <ele>1162.85</ele>
        <time>2013-07-19T07:39:40Z</time>
      </trkpt>
      <trkpt lat="44.22618" lon="6.00907">
        <ele>1162.85</ele>
        <time>2013-07-19T07:40:05Z</time>
      </trkpt>
      <trkpt lat="44.22616" lon="6.00905">
        <ele>1162.85</ele>
        <time>2013-07-19T07:40:31Z</time>
      </trkpt>
      <trkpt lat="44.22617" lon="6.00905">
        <ele>1163.33</ele>
        <time>2013-07-19T07:40:54Z</time>
      </trkpt>
      <trkpt lat="44.22617" lon="6.0091">
        <ele>1163.33</ele>
        <time>2013-07-19T07:41:13Z</time>
      </trkpt>
      <trkpt lat="44.22618" lon="6.00904">
        <ele>1163.33</ele>
        <time>2013-07-19T07:41:28Z</time>
      </trkpt>
      <trkpt lat="44.22616" lon="6.00903">
        <ele>1163.81</ele>
        <time>2013-07-19T07:41:52Z</time>
      </trkpt>
      <trkpt lat="44.2262" lon="6.00907">
        <ele>1163.81</ele>
        <time>2013-07-19T07:42:16Z</time>
      </trkpt>
      <trkpt lat="44.22618" lon="6.0091">
        <ele>1164.77</ele>
        <time>2013-07-19T07:42:35Z</time>
      </trkpt>
      <trkpt lat="44.22616" lon="6.00909">
        <ele>1164.29</ele>
        <time>2013-07-19T07:42:55Z</time>
      </trkpt>
      <trkpt lat="44.22618" lon="6.00911">
        <ele>1164.77</ele>
        <time>2013-07-19T07:43:24Z</time>
      </trkpt>
      <trkpt lat="44.22623" lon="6.00914">
        <ele>1165.74</ele>
        <time>2013-07-19T07:43:43Z</time>
      </trkpt>
      <trkpt lat="44.22625" lon="6.00918">
        <ele>1168.62</ele>
        <time>2013-07-19T07:43:56Z</time>
      </trkpt>
      <trkpt lat="44.22628" lon="6.00918">
        <ele>1168.14</ele>
        <time>2013-07-19T07:44:11Z</time>
      </trkpt>
      <trkpt lat="44.22629" lon="6.00924">
        <ele>1170.54</ele>
        <time>2013-07-19T07:44:25Z</time>
      </trkpt>
      <trkpt lat="44.22629" lon="6.00935">
        <ele>1172.47</ele>
        <time>2013-07-19T07:44:42Z</time>
      </trkpt>
      <trkpt lat="44.2263" lon="6.00942">
        <ele>1173.43</ele>
        <time>2013-07-19T07:44:55Z</time>
      </trkpt>
      <trkpt lat="44.2263" lon="6.00945">
        <ele>1174.39</ele>
        <time>2013-07-19T07:45:15Z</time>
      </trkpt>
      <trkpt lat="44.22627" lon="6.0094">
        <ele>1171.98</ele>
        <time>2013-07-19T07:45:33Z</time>
      </trkpt>
      <trkpt lat="44.22623" lon="6.00944">
        <ele>1169.1</ele>
        <time>2013-07-19T07:45:48Z</time>
      </trkpt>
      <trkpt lat="44.22623" lon="6.00945">
        <ele>1173.43</ele>
        <time>2013-07-19T07:45:49Z</time>
      </trkpt>
      <trkpt lat="44.22623" lon="6.00947">
        <ele>1169.1</ele>
        <time>2013-07-19T07:45:54Z</time>
      </trkpt>
      <trkpt lat="44.22622" lon="6.00946">
        <ele>1173.43</ele>
        <time>2013-07-19T07:45:55Z</time>
      </trkpt>
      <trkpt lat="44.22622" lon="6.00947">
        <ele>1170.06</ele>
        <time>2013-07-19T07:45:56Z</time>
      </trkpt>
      <trkpt lat="44.22619" lon="6.00956">
        <ele>1170.54</ele>
        <time>2013-07-19T07:46:13Z</time>
      </trkpt>
      <trkpt lat="44.22618" lon="6.0096">
        <ele>1173.91</ele>
        <time>2013-07-19T07:46:21Z</time>
      </trkpt>
      <trkpt lat="44.22613" lon="6.00972">
        <ele>1173.43</ele>
        <time>2013-07-19T07:46:36Z</time>
      </trkpt>
      <trkpt lat="44.22609" lon="6.00982">
        <ele>1174.87</ele>
        <time>2013-07-19T07:46:55Z</time>
      </trkpt>
      <trkpt lat="44.22607" lon="6.00988">
        <ele>1178.71</ele>
        <time>2013-07-19T07:47:07Z</time>
      </trkpt>
      <trkpt lat="44.22597" lon="6.00998">
        <ele>1176.79</ele>
        <time>2013-07-19T07:47:24Z</time>
      </trkpt>
      <trkpt lat="44.22591" lon="6.01004">
        <ele>1177.75</ele>
        <time>2013-07-19T07:47:38Z</time>
      </trkpt>
      <trkpt lat="44.22583" lon="6.0101">
        <ele>1176.79</ele>
        <time>2013-07-19T07:47:53Z</time>
      </trkpt>
      <trkpt lat="44.22581" lon="6.01015">
        <ele>1181.12</ele>
        <time>2013-07-19T07:48:03Z</time>
      </trkpt>
      <trkpt lat="44.22581" lon="6.01016">
        <ele>1179.19</ele>
        <time>2013-07-19T07:48:04Z</time>
      </trkpt>
      <trkpt lat="44.22578" lon="6.01024">
        <ele>1181.6</ele>
        <time>2013-07-19T07:48:20Z</time>
      </trkpt>
      <trkpt lat="44.22573" lon="6.01036">
        <ele>1182.56</ele>
        <time>2013-07-19T07:48:38Z</time>
      </trkpt>
      <trkpt lat="44.22569" lon="6.01044">
        <ele>1184</ele>
        <time>2013-07-19T07:48:51Z</time>
      </trkpt>
      <trkpt lat="44.22565" lon="6.01051">
        <ele>1184</ele>
        <time>2013-07-19T07:49:06Z</time>
      </trkpt>
      <trkpt lat="44.22566" lon="6.01058">
        <ele>1183.52</ele>
        <time>2013-07-19T07:49:20Z</time>
      </trkpt>
      <trkpt lat="44.22565" lon="6.01064">
        <ele>1184.96</ele>
        <time>2013-07-19T07:49:31Z</time>
      </trkpt>
      <trkpt lat="44.22568" lon="6.0107">
        <ele>1186.88</ele>
        <time>2013-07-19T07:49:46Z</time>
      </trkpt>
      <trkpt lat="44.22567" lon="6.01075">
        <ele>1188.81</ele>
        <time>2013-07-19T07:49:59Z</time>
      </trkpt>
      <trkpt lat="44.22571" lon="6.01082">
        <ele>1191.69</ele>
        <time>2013-07-19T07:50:14Z</time>
      </trkpt>
      <trkpt lat="44.22571" lon="6.01088">
        <ele>1192.17</ele>
        <time>2013-07-19T07:50:29Z</time>
      </trkpt>
      <trkpt lat="44.22568" lon="6.01095">
        <ele>1192.65</ele>
        <time>2013-07-19T07:50:42Z</time>
      </trkpt>
      <trkpt lat="44.22568" lon="6.01106">
        <ele>1194.58</ele>
        <time>2013-07-19T07:50:59Z</time>
      </trkpt>
      <trkpt lat="44.22565" lon="6.01113">
        <ele>1191.21</ele>
        <time>2013-07-19T07:51:10Z</time>
      </trkpt>
      <trkpt lat="44.22565" lon="6.01113">
        <ele>1196.5</ele>
        <time>2013-07-19T07:51:11Z</time>
      </trkpt>
      <trkpt lat="44.22559" lon="6.01127">
        <ele>1195.06</ele>
        <time>2013-07-19T07:51:30Z</time>
      </trkpt>
      <trkpt lat="44.22562" lon="6.01131">
        <ele>1195.54</ele>
        <time>2013-07-19T07:51:51Z</time>
      </trkpt>
      <trkpt lat="44.22557" lon="6.01134">
        <ele>1196.98</ele>
        <time>2013-07-19T07:52:11Z</time>
      </trkpt>
      <trkpt lat="44.22557" lon="6.01137">
        <ele>1196.98</ele>
        <time>2013-07-19T07:52:31Z</time>
      </trkpt>
      <trkpt lat="44.22557" lon="6.0115">
        <ele>1197.46</ele>
        <time>2013-07-19T07:52:50Z</time>
      </trkpt>
      <trkpt lat="44.22555" lon="6.01158">
        <ele>1198.9</ele>
        <time>2013-07-19T07:53:06Z</time>
      </trkpt>
      <trkpt lat="44.22552" lon="6.01167">
        <ele>1199.38</ele>
        <time>2013-07-19T07:53:21Z</time>
      </trkpt>
      <trkpt lat="44.22554" lon="6.01174">
        <ele>1199.86</ele>
        <time>2013-07-19T07:53:37Z</time>
      </trkpt>
      <trkpt lat="44.22548" lon="6.01178">
        <ele>1199.86</ele>
        <time>2013-07-19T07:53:53Z</time>
      </trkpt>
      <trkpt lat="44.22544" lon="6.01184">
        <ele>1200.82</ele>
        <time>2013-07-19T07:54:08Z</time>
      </trkpt>
      <trkpt lat="44.22542" lon="6.01193">
        <ele>1201.79</ele>
        <time>2013-07-19T07:54:23Z</time>
      </trkpt>
      <trkpt lat="44.22538" lon="6.01202">
        <ele>1201.79</ele>
        <time>2013-07-19T07:54:37Z</time>
      </trkpt>
      <trkpt lat="44.22535" lon="6.01215">
        <ele>1201.79</ele>
        <time>2013-07-19T07:54:54Z</time>
      </trkpt>
      <trkpt lat="44.22534" lon="6.01228">
        <ele>1203.23</ele>
        <time>2013-07-19T07:55:08Z</time>
      </trkpt>
      <trkpt lat="44.22534" lon="6.01236">
        <ele>1203.23</ele>
        <time>2013-07-19T07:55:22Z</time>
      </trkpt>
      <trkpt lat="44.22536" lon="6.01245">
        <ele>1202.75</ele>
        <time>2013-07-19T07:55:37Z</time>
      </trkpt>
      <trkpt lat="44.22538" lon="6.01252">
        <ele>1200.82</ele>
        <time>2013-07-19T07:55:58Z</time>
      </trkpt>
      <trkpt lat="44.22538" lon="6.01266">
        <ele>1201.3</ele>
        <time>2013-07-19T07:56:10Z</time>
      </trkpt>
      <trkpt lat="44.22537" lon="6.01269">
        <ele>1202.75</ele>
        <time>2013-07-19T07:56:26Z</time>
      </trkpt>
      <trkpt lat="44.22536" lon="6.01277">
        <ele>1203.23</ele>
        <time>2013-07-19T07:56:38Z</time>
      </trkpt>
      <trkpt lat="44.2254" lon="6.01286">
        <ele>1202.27</ele>
        <time>2013-07-19T07:56:50Z</time>
      </trkpt>
      <trkpt lat="44.22541" lon="6.0129">
        <ele>1204.19</ele>
        <time>2013-07-19T07:57:05Z</time>
      </trkpt>
      <trkpt lat="44.22537" lon="6.01298">
        <ele>1202.27</ele>
        <time>2013-07-19T07:57:18Z</time>
      </trkpt>
      <trkpt lat="44.22535" lon="6.0131">
        <ele>1204.19</ele>
        <time>2013-07-19T07:57:31Z</time>
      </trkpt>
      <trkpt lat="44.22531" lon="6.01321">
        <ele>1203.23</ele>
        <time>2013-07-19T07:57:46Z</time>
      </trkpt>
      <trkpt lat="44.22527" lon="6.01338">
        <ele>1203.23</ele>
        <time>2013-07-19T07:58:00Z</time>
      </trkpt>
      <trkpt lat="44.22526" lon="6.01353">
        <ele>1201.79</ele>
        <time>2013-07-19T07:58:15Z</time>
      </trkpt>
      <trkpt lat="44.22527" lon="6.01368">
        <ele>1201.79</ele>
        <time>2013-07-19T07:58:29Z</time>
      </trkpt>
      <trkpt lat="44.22529" lon="6.01377">
        <ele>1202.27</ele>
        <time>2013-07-19T07:58:36Z</time>
      </trkpt>
      <trkpt lat="44.22529" lon="6.01387">
        <ele>1201.3</ele>
        <time>2013-07-19T07:58:45Z</time>
      </trkpt>
      <trkpt lat="44.22524" lon="6.01399">
        <ele>1201.79</ele>
        <time>2013-07-19T07:58:58Z</time>
      </trkpt>
      <trkpt lat="44.22522" lon="6.01403">
        <ele>1202.27</ele>
        <time>2013-07-19T07:59:05Z</time>
      </trkpt>
      <trkpt lat="44.22516" lon="6.01411">
        <ele>1202.27</ele>
        <time>2013-07-19T07:59:16Z</time>
      </trkpt>
      <trkpt lat="44.22507" lon="6.01408">
        <ele>1201.79</ele>
        <time>2013-07-19T07:59:28Z</time>
      </trkpt>
      <trkpt lat="44.22499" lon="6.01403">
        <ele>1201.3</ele>
        <time>2013-07-19T07:59:39Z</time>
      </trkpt>
      <trkpt lat="44.22494" lon="6.01399">
        <ele>1200.82</ele>
        <time>2013-07-19T07:59:53Z</time>
      </trkpt>
      <trkpt lat="44.22492" lon="6.014">
        <ele>1200.82</ele>
        <time>2013-07-19T08:00:09Z</time>
      </trkpt>
      <trkpt lat="44.22491" lon="6.01396">
        <ele>1200.82</ele>
        <time>2013-07-19T08:00:30Z</time>
      </trkpt>
      <trkpt lat="44.22492" lon="6.01396">
        <ele>1200.82</ele>
        <time>2013-07-19T08:00:59Z</time>
      </trkpt>
      <trkpt lat="44.22491" lon="6.01398">
        <ele>1200.82</ele>
        <time>2013-07-19T08:01:28Z</time>
      </trkpt>
      <trkpt lat="44.22489" lon="6.01395">
        <ele>1200.82</ele>
        <time>2013-07-19T08:01:47Z</time>
      </trkpt>
      <trkpt lat="44.22489" lon="6.01391">
        <ele>1201.3</ele>
        <time>2013-07-19T08:02:13Z</time>
      </trkpt>
      <trkpt lat="44.22485" lon="6.01392">
        <ele>1201.3</ele>
        <time>2013-07-19T08:02:36Z</time>
      </trkpt>
      <trkpt lat="44.22489" lon="6.01399">
        <ele>1201.3</ele>
        <time>2013-07-19T08:02:57Z</time>
      </trkpt>
      <trkpt lat="44.2249" lon="6.01399">
        <ele>1201.79</ele>
        <time>2013-07-19T08:03:22Z</time>
      </trkpt>
      <trkpt lat="44.2249" lon="6.01401">
        <ele>1201.79</ele>
        <time>2013-07-19T08:03:51Z</time>
      </trkpt>
      <trkpt lat="44.2249" lon="6.014">
        <ele>1202.27</ele>
        <time>2013-07-19T08:04:14Z</time>
      </trkpt>
      <trkpt lat="44.22487" lon="6.01396">
        <ele>1201.79</ele>
        <time>2013-07-19T08:04:40Z</time>
      </trkpt>
      <trkpt lat="44.22489" lon="6.01405">
        <ele>1201.3</ele>
        <time>2013-07-19T08:04:58Z</time>
      </trkpt>
      <trkpt lat="44.22485" lon="6.0142">
        <ele>1203.71</ele>
        <time>2013-07-19T08:05:11Z</time>
      </trkpt>
      <trkpt lat="44.22485" lon="6.01421">
        <ele>1200.82</ele>
        <time>2013-07-19T08:05:12Z</time>
      </trkpt>
      <trkpt lat="44.22486" lon="6.01427">
        <ele>1203.71</ele>
        <time>2013-07-19T08:05:17Z</time>
      </trkpt>
      <trkpt lat="44.22485" lon="6.01428">
        <ele>1199.38</ele>
        <time>2013-07-19T08:05:22Z</time>
      </trkpt>
      <trkpt lat="44.22485" lon="6.01429">
        <ele>1199.38</ele>
        <time>2013-07-19T08:05:23Z</time>
      </trkpt>
      <trkpt lat="44.22485" lon="6.01429">
        <ele>1203.23</ele>
        <time>2013-07-19T08:05:24Z</time>
      </trkpt>
      <trkpt lat="44.22481" lon="6.01437">
        <ele>1202.75</ele>
        <time>2013-07-19T08:05:36Z</time>
      </trkpt>
      <trkpt lat="44.22477" lon="6.0145">
        <ele>1204.67</ele>
        <time>2013-07-19T08:05:53Z</time>
      </trkpt>
      <trkpt lat="44.22475" lon="6.01464">
        <ele>1208.03</ele>
        <time>2013-07-19T08:06:09Z</time>
      </trkpt>
      <trkpt lat="44.22473" lon="6.01475">
        <ele>1208.51</ele>
        <time>2013-07-19T08:06:22Z</time>
      </trkpt>
      <trkpt lat="44.2247" lon="6.01489">
        <ele>1209</ele>
        <time>2013-07-19T08:06:38Z</time>
      </trkpt>
      <trkpt lat="44.22469" lon="6.01495">
        <ele>1212.84</ele>
        <time>2013-07-19T08:06:44Z</time>
      </trkpt>
      <trkpt lat="44.22469" lon="6.01505">
        <ele>1213.32</ele>
        <time>2013-07-19T08:06:54Z</time>
      </trkpt>
      <trkpt lat="44.22468" lon="6.01514">
        <ele>1214.76</ele>
        <time>2013-07-19T08:07:07Z</time>
      </trkpt>
      <trkpt lat="44.22467" lon="6.01519">
        <ele>1215.72</ele>
        <time>2013-07-19T08:07:19Z</time>
      </trkpt>
      <trkpt lat="44.22464" lon="6.01529">
        <ele>1216.69</ele>
        <time>2013-07-19T08:07:30Z</time>
      </trkpt>
      <trkpt lat="44.22462" lon="6.01542">
        <ele>1219.57</ele>
        <time>2013-07-19T08:07:42Z</time>
      </trkpt>
      <trkpt lat="44.22459" lon="6.01556">
        <ele>1221.01</ele>
        <time>2013-07-19T08:07:55Z</time>
      </trkpt>
      <trkpt lat="44.22457" lon="6.01556">
        <ele>1221.01</ele>
        <time>2013-07-19T08:08:06Z</time>
      </trkpt>
      <trkpt lat="44.22455" lon="6.01558">
        <ele>1221.01</ele>
        <time>2013-07-19T08:08:18Z</time>
      </trkpt>
      <trkpt lat="44.22457" lon="6.01563">
        <ele>1222.45</ele>
        <time>2013-07-19T08:08:28Z</time>
      </trkpt>
      <trkpt lat="44.22455" lon="6.01573">
        <ele>1221.97</ele>
        <time>2013-07-19T08:08:40Z</time>
      </trkpt>
      <trkpt lat="44.22453" lon="6.01578">
        <ele>1224.86</ele>
        <time>2013-07-19T08:08:50Z</time>
      </trkpt>
      <trkpt lat="44.22454" lon="6.0158">
        <ele>1223.42</ele>
        <time>2013-07-19T08:09:01Z</time>
      </trkpt>
      <trkpt lat="44.22453" lon="6.01585">
        <ele>1224.86</ele>
        <time>2013-07-19T08:09:13Z</time>
      </trkpt>
      <trkpt lat="44.22452" lon="6.01584">
        <ele>1225.34</ele>
        <time>2013-07-19T08:09:41Z</time>
      </trkpt>
      <trkpt lat="44.22455" lon="6.01586">
        <ele>1225.34</ele>
        <time>2013-07-19T08:10:05Z</time>
      </trkpt>
      <trkpt lat="44.22459" lon="6.01581">
        <ele>1225.34</ele>
        <time>2013-07-19T08:10:28Z</time>
      </trkpt>
      <trkpt lat="44.22459" lon="6.01584">
        <ele>1225.82</ele>
        <time>2013-07-19T08:10:56Z</time>
      </trkpt>
      <trkpt lat="44.22457" lon="6.01593">
        <ele>1226.78</ele>
        <time>2013-07-19T08:11:09Z</time>
      </trkpt>
      <trkpt lat="44.22456" lon="6.01602">
        <ele>1225.82</ele>
        <time>2013-07-19T08:11:17Z</time>
      </trkpt>
      <trkpt lat="44.22454" lon="6.01621">
        <ele>1229.66</ele>
        <time>2013-07-19T08:11:32Z</time>
      </trkpt>
      <trkpt lat="44.22454" lon="6.01634">
        <ele>1229.66</ele>
        <time>2013-07-19T08:11:43Z</time>
      </trkpt>
      <trkpt lat="44.22456" lon="6.01647">
        <ele>1229.66</ele>
        <time>2013-07-19T08:11:52Z</time>
      </trkpt>
      <trkpt lat="44.22456" lon="6.01659">
        <ele>1232.55</ele>
        <time>2013-07-19T08:12:02Z</time>
      </trkpt>
      <trkpt lat="44.22455" lon="6.01672">
        <ele>1232.07</ele>
        <time>2013-07-19T08:12:13Z</time>
      </trkpt>
      <trkpt lat="44.22455" lon="6.01679">
        <ele>1233.03</ele>
        <time>2013-07-19T08:12:25Z</time>
      </trkpt>
      <trkpt lat="44.22453" lon="6.01686">
        <ele>1233.99</ele>
        <time>2013-07-19T08:12:36Z</time>
      </trkpt>
      <trkpt lat="44.22452" lon="6.01684">
        <ele>1233.51</ele>
        <time>2013-07-19T08:13:03Z</time>
      </trkpt>
      <trkpt lat="44.22452" lon="6.01686">
        <ele>1233.99</ele>
        <time>2013-07-19T08:13:32Z</time>
      </trkpt>
      <trkpt lat="44.22453" lon="6.01696">
        <ele>1235.43</ele>
        <time>2013-07-19T08:13:47Z</time>
      </trkpt>
      <trkpt lat="44.22452" lon="6.01709">
        <ele>1235.91</ele>
        <time>2013-07-19T08:13:59Z</time>
      </trkpt>
      <trkpt lat="44.22453" lon="6.01717">
        <ele>1235.43</ele>
        <time>2013-07-19T08:14:06Z</time>
      </trkpt>
      <trkpt lat="44.22455" lon="6.01731">
        <ele>1235.91</ele>
        <time>2013-07-19T08:14:18Z</time>
      </trkpt>
      <trkpt lat="44.22457" lon="6.01744">
        <ele>1236.39</ele>
        <time>2013-07-19T08:14:29Z</time>
      </trkpt>
      <trkpt lat="44.22456" lon="6.01753">
        <ele>1232.07</ele>
        <time>2013-07-19T08:14:37Z</time>
      </trkpt>
      <trkpt lat="44.22457" lon="6.01763">
        <ele>1236.39</ele>
        <time>2013-07-19T08:14:47Z</time>
      </trkpt>
      <trkpt lat="44.22458" lon="6.01772">
        <ele>1235.91</ele>
        <time>2013-07-19T08:14:57Z</time>
      </trkpt>
      <trkpt lat="44.22459" lon="6.01783">
        <ele>1235.91</ele>
        <time>2013-07-19T08:15:04Z</time>
      </trkpt>
      <trkpt lat="44.22462" lon="6.01798">
        <ele>1236.39</ele>
        <time>2013-07-19T08:15:15Z</time>
      </trkpt>
      <trkpt lat="44.22463" lon="6.01814">
        <ele>1236.39</ele>
        <time>2013-07-19T08:15:26Z</time>
      </trkpt>
      <trkpt lat="44.22462" lon="6.01824">
        <ele>1236.39</ele>
        <time>2013-07-19T08:15:36Z</time>
      </trkpt>
      <trkpt lat="44.22462" lon="6.0183">
        <ele>1235.91</ele>
        <time>2013-07-19T08:15:42Z</time>
      </trkpt>
      <trkpt lat="44.22462" lon="6.01847">
        <ele>1237.35</ele>
        <time>2013-07-19T08:15:54Z</time>
      </trkpt>
      <trkpt lat="44.22462" lon="6.01852">
        <ele>1237.35</ele>
        <time>2013-07-19T08:15:58Z</time>
      </trkpt>
      <trkpt lat="44.22464" lon="6.01865">
        <ele>1237.83</ele>
        <time>2013-07-19T08:16:11Z</time>
      </trkpt>
      <trkpt lat="44.22465" lon="6.01866">
        <ele>1237.35</ele>
        <time>2013-07-19T08:16:13Z</time>
      </trkpt>
      <trkpt lat="44.22466" lon="6.01869">
        <ele>1235.91</ele>
        <time>2013-07-19T08:16:16Z</time>
      </trkpt>
      <trkpt lat="44.22465" lon="6.01885">
        <ele>1236.39</ele>
        <time>2013-07-19T08:16:28Z</time>
      </trkpt>
      <trkpt lat="44.22465" lon="6.0189">
        <ele>1240.24</ele>
        <time>2013-07-19T08:16:32Z</time>
      </trkpt>
      <trkpt lat="44.22465" lon="6.01901">
        <ele>1239.28</ele>
        <time>2013-07-19T08:16:45Z</time>
      </trkpt>
      <trkpt lat="44.22464" lon="6.0191">
        <ele>1242.16</ele>
        <time>2013-07-19T08:16:55Z</time>
      </trkpt>
      <trkpt lat="44.22466" lon="6.01921">
        <ele>1241.2</ele>
        <time>2013-07-19T08:17:05Z</time>
      </trkpt>
      <trkpt lat="44.22465" lon="6.01931">
        <ele>1244.56</ele>
        <time>2013-07-19T08:17:14Z</time>
      </trkpt>
      <trkpt lat="44.22466" lon="6.01947">
        <ele>1244.08</ele>
        <time>2013-07-19T08:17:26Z</time>
      </trkpt>
      <trkpt lat="44.22468" lon="6.0196">
        <ele>1243.6</ele>
        <time>2013-07-19T08:17:37Z</time>
      </trkpt>
      <trkpt lat="44.22468" lon="6.01965">
        <ele>1244.56</ele>
        <time>2013-07-19T08:17:43Z</time>
      </trkpt>
      <trkpt lat="44.2247" lon="6.01971">
        <ele>1243.6</ele>
        <time>2013-07-19T08:17:48Z</time>
      </trkpt>
      <trkpt lat="44.22474" lon="6.01987">
        <ele>1244.08</ele>
        <time>2013-07-19T08:18:01Z</time>
      </trkpt>
      <trkpt lat="44.22475" lon="6.02002">
        <ele>1245.53</ele>
        <time>2013-07-19T08:18:14Z</time>
      </trkpt>
      <trkpt lat="44.22474" lon="6.02015">
        <ele>1245.04</ele>
        <time>2013-07-19T08:18:25Z</time>
      </trkpt>
      <trkpt lat="44.22476" lon="6.0203">
        <ele>1245.53</ele>
        <time>2013-07-19T08:18:37Z</time>
      </trkpt>
      <trkpt lat="44.22477" lon="6.02045">
        <ele>1245.53</ele>
        <time>2013-07-19T08:18:49Z</time>
      </trkpt>
      <trkpt lat="44.22478" lon="6.02058">
        <ele>1246.49</ele>
        <time>2013-07-19T08:18:59Z</time>
      </trkpt>
      <trkpt lat="44.22479" lon="6.02071">
        <ele>1246.01</ele>
        <time>2013-07-19T08:19:09Z</time>
      </trkpt>
      <trkpt lat="44.22477" lon="6.0209">
        <ele>1245.04</ele>
        <time>2013-07-19T08:19:22Z</time>
      </trkpt>
      <trkpt lat="44.22479" lon="6.02106">
        <ele>1247.45</ele>
        <time>2013-07-19T08:19:34Z</time>
      </trkpt>
      <trkpt lat="44.2248" lon="6.02118">
        <ele>1248.41</ele>
        <time>2013-07-19T08:19:44Z</time>
      </trkpt>
      <trkpt lat="44.2248" lon="6.02129">
        <ele>1248.89</ele>
        <time>2013-07-19T08:19:55Z</time>
      </trkpt>
      <trkpt lat="44.2248" lon="6.0214">
        <ele>1250.81</ele>
        <time>2013-07-19T08:20:07Z</time>
      </trkpt>
      <trkpt lat="44.2248" lon="6.02153">
        <ele>1250.33</ele>
        <time>2013-07-19T08:20:20Z</time>
      </trkpt>
      <trkpt lat="44.2248" lon="6.02154">
        <ele>1253.22</ele>
        <time>2013-07-19T08:20:21Z</time>
      </trkpt>
      <trkpt lat="44.22479" lon="6.02163">
        <ele>1254.66</ele>
        <time>2013-07-19T08:20:33Z</time>
      </trkpt>
      <trkpt lat="44.22479" lon="6.02165">
        <ele>1253.22</ele>
        <time>2013-07-19T08:20:35Z</time>
      </trkpt>
      <trkpt lat="44.22478" lon="6.02178">
        <ele>1255.62</ele>
        <time>2013-07-19T08:20:46Z</time>
      </trkpt>
      <trkpt lat="44.22478" lon="6.02179">
        <ele>1253.7</ele>
        <time>2013-07-19T08:20:47Z</time>
      </trkpt>
      <trkpt lat="44.22478" lon="6.02187">
        <ele>1254.66</ele>
        <time>2013-07-19T08:20:58Z</time>
      </trkpt>
      <trkpt lat="44.22477" lon="6.0219">
        <ele>1254.66</ele>
        <time>2013-07-19T08:21:16Z</time>
      </trkpt>
      <trkpt lat="44.22479" lon="6.02192">
        <ele>1254.18</ele>
        <time>2013-07-19T08:21:42Z</time>
      </trkpt>
      <trkpt lat="44.22479" lon="6.02201">
        <ele>1255.14</ele>
        <time>2013-07-19T08:21:53Z</time>
      </trkpt>
      <trkpt lat="44.22478" lon="6.02213">
        <ele>1258.02</ele>
        <time>2013-07-19T08:22:04Z</time>
      </trkpt>
      <trkpt lat="44.22478" lon="6.0223">
        <ele>1258.98</ele>
        <time>2013-07-19T08:22:18Z</time>
      </trkpt>
      <trkpt lat="44.22478" lon="6.0225">
        <ele>1259.94</ele>
        <time>2013-07-19T08:22:33Z</time>
      </trkpt>
      <trkpt lat="44.22479" lon="6.02263">
        <ele>1261.39</ele>
        <time>2013-07-19T08:22:44Z</time>
      </trkpt>
      <trkpt lat="44.22479" lon="6.02277">
        <ele>1263.31</ele>
        <time>2013-07-19T08:22:56Z</time>
      </trkpt>
      <trkpt lat="44.22479" lon="6.02281">
        <ele>1263.31</ele>
        <time>2013-07-19T08:23:04Z</time>
      </trkpt>
      <trkpt lat="44.2248" lon="6.0229">
        <ele>1262.83</ele>
        <time>2013-07-19T08:23:14Z</time>
      </trkpt>
      <trkpt lat="44.22481" lon="6.02294">
        <ele>1265.71</ele>
        <time>2013-07-19T08:23:18Z</time>
      </trkpt>
      <trkpt lat="44.22481" lon="6.023">
        <ele>1266.67</ele>
        <time>2013-07-19T08:23:22Z</time>
      </trkpt>
      <trkpt lat="44.2248" lon="6.02307">
        <ele>1267.16</ele>
        <time>2013-07-19T08:23:27Z</time>
      </trkpt>
      <trkpt lat="44.22482" lon="6.02325">
        <ele>1266.19</ele>
        <time>2013-07-19T08:23:40Z</time>
      </trkpt>
      <trkpt lat="44.22485" lon="6.02342">
        <ele>1265.71</ele>
        <time>2013-07-19T08:23:52Z</time>
      </trkpt>
      <trkpt lat="44.22487" lon="6.02355">
        <ele>1265.71</ele>
        <time>2013-07-19T08:24:04Z</time>
      </trkpt>
      <trkpt lat="44.22489" lon="6.02365">
        <ele>1264.75</ele>
        <time>2013-07-19T08:24:13Z</time>
      </trkpt>
      <trkpt lat="44.22487" lon="6.02382">
        <ele>1262.35</ele>
        <time>2013-07-19T08:24:26Z</time>
      </trkpt>
      <trkpt lat="44.22488" lon="6.02395">
        <ele>1260.91</ele>
        <time>2013-07-19T08:24:36Z</time>
      </trkpt>
      <trkpt lat="44.2249" lon="6.02409">
        <ele>1258.98</ele>
        <time>2013-07-19T08:24:47Z</time>
      </trkpt>
      <trkpt lat="44.22489" lon="6.02422">
        <ele>1260.43</ele>
        <time>2013-07-19T08:24:59Z</time>
      </trkpt>
      <trkpt lat="44.22488" lon="6.02437">
        <ele>1259.46</ele>
        <time>2013-07-19T08:25:11Z</time>
      </trkpt>
      <trkpt lat="44.22487" lon="6.02442">
        <ele>1258.5</ele>
        <time>2013-07-19T08:25:15Z</time>
      </trkpt>
      <trkpt lat="44.2249" lon="6.02457">
        <ele>1257.06</ele>
        <time>2013-07-19T08:25:27Z</time>
      </trkpt>
      <trkpt lat="44.2249" lon="6.02469">
        <ele>1255.14</ele>
        <time>2013-07-19T08:25:40Z</time>
      </trkpt>
      <trkpt lat="44.22491" lon="6.0247">
        <ele>1255.14</ele>
        <time>2013-07-19T08:25:41Z</time>
      </trkpt>
      <trkpt lat="44.22493" lon="6.02479">
        <ele>1251.77</ele>
        <time>2013-07-19T08:25:51Z</time>
      </trkpt>
      <trkpt lat="44.22498" lon="6.0249">
        <ele>1251.77</ele>
        <time>2013-07-19T08:26:02Z</time>
      </trkpt>
      <trkpt lat="44.22502" lon="6.02506">
        <ele>1248.41</ele>
        <time>2013-07-19T08:26:15Z</time>
      </trkpt>
      <trkpt lat="44.22502" lon="6.02517">
        <ele>1247.93</ele>
        <time>2013-07-19T08:26:23Z</time>
      </trkpt>
      <trkpt lat="44.225" lon="6.02527">
        <ele>1248.89</ele>
        <time>2013-07-19T08:26:37Z</time>
      </trkpt>
      <trkpt lat="44.225" lon="6.02534">
        <ele>1248.41</ele>
        <time>2013-07-19T08:26:54Z</time>
      </trkpt>
      <trkpt lat="44.225" lon="6.0254">
        <ele>1251.29</ele>
        <time>2013-07-19T08:27:01Z</time>
      </trkpt>
      <trkpt lat="44.22499" lon="6.02555">
        <ele>1250.33</ele>
        <time>2013-07-19T08:27:14Z</time>
      </trkpt>
      <trkpt lat="44.22496" lon="6.02566">
        <ele>1253.22</ele>
        <time>2013-07-19T08:27:24Z</time>
      </trkpt>
      <trkpt lat="44.22494" lon="6.02572">
        <ele>1252.25</ele>
        <time>2013-07-19T08:27:30Z</time>
      </trkpt>
      <trkpt lat="44.22492" lon="6.02586">
        <ele>1254.66</ele>
        <time>2013-07-19T08:27:42Z</time>
      </trkpt>
      <trkpt lat="44.22491" lon="6.02596">
        <ele>1255.14</ele>
        <time>2013-07-19T08:27:51Z</time>
      </trkpt>
      <trkpt lat="44.22489" lon="6.0261">
        <ele>1257.54</ele>
        <time>2013-07-19T08:28:05Z</time>
      </trkpt>
      <trkpt lat="44.22487" lon="6.0262">
        <ele>1260.43</ele>
        <time>2013-07-19T08:28:16Z</time>
      </trkpt>
      <trkpt lat="44.22486" lon="6.02637">
        <ele>1258.98</ele>
        <time>2013-07-19T08:28:28Z</time>
      </trkpt>
      <trkpt lat="44.22483" lon="6.0265">
        <ele>1259.46</ele>
        <time>2013-07-19T08:28:38Z</time>
      </trkpt>
      <trkpt lat="44.22484" lon="6.02665">
        <ele>1258.98</ele>
        <time>2013-07-19T08:28:48Z</time>
      </trkpt>
      <trkpt lat="44.22486" lon="6.02683">
        <ele>1258.98</ele>
        <time>2013-07-19T08:29:00Z</time>
      </trkpt>
      <trkpt lat="44.22488" lon="6.02698">
        <ele>1258.5</ele>
        <time>2013-07-19T08:29:12Z</time>
      </trkpt>
      <trkpt lat="44.22489" lon="6.0271">
        <ele>1258.02</ele>
        <time>2013-07-19T08:29:21Z</time>
      </trkpt>
      <trkpt lat="44.22491" lon="6.02725">
        <ele>1258.98</ele>
        <time>2013-07-19T08:29:32Z</time>
      </trkpt>
      <trkpt lat="44.2249" lon="6.0274">
        <ele>1258.5</ele>
        <time>2013-07-19T08:29:43Z</time>
      </trkpt>
      <trkpt lat="44.22489" lon="6.02754">
        <ele>1259.94</ele>
        <time>2013-07-19T08:29:56Z</time>
      </trkpt>
      <trkpt lat="44.22488" lon="6.02767">
        <ele>1261.87</ele>
        <time>2013-07-19T08:30:07Z</time>
      </trkpt>
      <trkpt lat="44.22486" lon="6.02776">
        <ele>1262.83</ele>
        <time>2013-07-19T08:30:14Z</time>
      </trkpt>
      <trkpt lat="44.22484" lon="6.02787">
        <ele>1264.27</ele>
        <time>2013-07-19T08:30:24Z</time>
      </trkpt>
      <trkpt lat="44.22483" lon="6.02791">
        <ele>1263.79</ele>
        <time>2013-07-19T08:30:28Z</time>
      </trkpt>
      <trkpt lat="44.22483" lon="6.02794">
        <ele>1265.71</ele>
        <time>2013-07-19T08:30:30Z</time>
      </trkpt>
      <trkpt lat="44.22483" lon="6.02796">
        <ele>1265.23</ele>
        <time>2013-07-19T08:30:31Z</time>
      </trkpt>
      <trkpt lat="44.22481" lon="6.02811">
        <ele>1263.79</ele>
        <time>2013-07-19T08:30:45Z</time>
      </trkpt>
      <trkpt lat="44.22481" lon="6.02812">
        <ele>1267.64</ele>
        <time>2013-07-19T08:30:46Z</time>
      </trkpt>
      <trkpt lat="44.22479" lon="6.02829">
        <ele>1265.71</ele>
        <time>2013-07-19T08:30:59Z</time>
      </trkpt>
      <trkpt lat="44.22478" lon="6.02844">
        <ele>1267.16</ele>
        <time>2013-07-19T08:31:11Z</time>
      </trkpt>
      <trkpt lat="44.22475" lon="6.02855">
        <ele>1268.6</ele>
        <time>2013-07-19T08:31:21Z</time>
      </trkpt>
      <trkpt lat="44.2247" lon="6.02867">
        <ele>1269.56</ele>
        <time>2013-07-19T08:31:33Z</time>
      </trkpt>
      <trkpt lat="44.22463" lon="6.0288">
        <ele>1270.04</ele>
        <time>2013-07-19T08:31:47Z</time>
      </trkpt>
      <trkpt lat="44.22456" lon="6.0289">
        <ele>1271</ele>
        <time>2013-07-19T08:31:58Z</time>
      </trkpt>
      <trkpt lat="44.22453" lon="6.02898">
        <ele>1271.96</ele>
        <time>2013-07-19T08:32:07Z</time>
      </trkpt>
      <trkpt lat="44.22451" lon="6.0291">
        <ele>1273.4</ele>
        <time>2013-07-19T08:32:18Z</time>
      </trkpt>
      <trkpt lat="44.2245" lon="6.0292">
        <ele>1275.81</ele>
        <time>2013-07-19T08:32:29Z</time>
      </trkpt>
      <trkpt lat="44.22449" lon="6.02924">
        <ele>1276.29</ele>
        <time>2013-07-19T08:32:33Z</time>
      </trkpt>
      <trkpt lat="44.22448" lon="6.02935">
        <ele>1278.21</ele>
        <time>2013-07-19T08:32:44Z</time>
      </trkpt>
      <trkpt lat="44.22447" lon="6.02944">
        <ele>1278.69</ele>
        <time>2013-07-19T08:32:54Z</time>
      </trkpt>
      <trkpt lat="44.22446" lon="6.02956">
        <ele>1280.61</ele>
        <time>2013-07-19T08:33:07Z</time>
      </trkpt>
      <trkpt lat="44.22445" lon="6.02967">
        <ele>1280.13</ele>
        <time>2013-07-19T08:33:19Z</time>
      </trkpt>
      <trkpt lat="44.22445" lon="6.02968">
        <ele>1284.46</ele>
        <time>2013-07-19T08:33:20Z</time>
      </trkpt>
      <trkpt lat="44.22443" lon="6.02976">
        <ele>1284.46</ele>
        <time>2013-07-19T08:33:31Z</time>
      </trkpt>
      <trkpt lat="44.22442" lon="6.02988">
        <ele>1287.34</ele>
        <time>2013-07-19T08:33:44Z</time>
      </trkpt>
      <trkpt lat="44.22441" lon="6.03002">
        <ele>1287.82</ele>
        <time>2013-07-19T08:33:56Z</time>
      </trkpt>
      <trkpt lat="44.2244" lon="6.03013">
        <ele>1290.23</ele>
        <time>2013-07-19T08:34:07Z</time>
      </trkpt>
      <trkpt lat="44.22439" lon="6.03024">
        <ele>1290.23</ele>
        <time>2013-07-19T08:34:19Z</time>
      </trkpt>
      <trkpt lat="44.22438" lon="6.03032">
        <ele>1291.19</ele>
        <time>2013-07-19T08:34:30Z</time>
      </trkpt>
      <trkpt lat="44.22436" lon="6.03037">
        <ele>1292.63</ele>
        <time>2013-07-19T08:34:42Z</time>
      </trkpt>
      <trkpt lat="44.22437" lon="6.03044">
        <ele>1293.59</ele>
        <time>2013-07-19T08:34:55Z</time>
      </trkpt>
      <trkpt lat="44.22436" lon="6.03054">
        <ele>1296.48</ele>
        <time>2013-07-19T08:35:07Z</time>
      </trkpt>
      <trkpt lat="44.22435" lon="6.03068">
        <ele>1296.48</ele>
        <time>2013-07-19T08:35:20Z</time>
      </trkpt>
      <trkpt lat="44.22433" lon="6.03076">
        <ele>1299.84</ele>
        <time>2013-07-19T08:35:30Z</time>
      </trkpt>
      <trkpt lat="44.22433" lon="6.03085">
        <ele>1299.36</ele>
        <time>2013-07-19T08:35:39Z</time>
      </trkpt>
      <trkpt lat="44.22431" lon="6.03092">
        <ele>1302.24</ele>
        <time>2013-07-19T08:35:48Z</time>
      </trkpt>
      <trkpt lat="44.22431" lon="6.03095">
        <ele>1302.24</ele>
        <time>2013-07-19T08:35:52Z</time>
      </trkpt>
      <trkpt lat="44.2243" lon="6.0311">
        <ele>1303.2</ele>
        <time>2013-07-19T08:36:05Z</time>
      </trkpt>
      <trkpt lat="44.2243" lon="6.03116">
        <ele>1305.13</ele>
        <time>2013-07-19T08:36:10Z</time>
      </trkpt>
      <trkpt lat="44.22428" lon="6.03125">
        <ele>1307.53</ele>
        <time>2013-07-19T08:36:21Z</time>
      </trkpt>
      <trkpt lat="44.22431" lon="6.03137">
        <ele>1306.57</ele>
        <time>2013-07-19T08:36:32Z</time>
      </trkpt>
      <trkpt lat="44.2243" lon="6.03147">
        <ele>1310.41</ele>
        <time>2013-07-19T08:36:44Z</time>
      </trkpt>
      <trkpt lat="44.2243" lon="6.0315">
        <ele>1306.57</ele>
        <time>2013-07-19T08:36:46Z</time>
      </trkpt>
      <trkpt lat="44.22431" lon="6.03161">
        <ele>1308.97</ele>
        <time>2013-07-19T08:36:58Z</time>
      </trkpt>
      <trkpt lat="44.2243" lon="6.03175">
        <ele>1310.41</ele>
        <time>2013-07-19T08:37:10Z</time>
      </trkpt>
      <trkpt lat="44.22429" lon="6.03177">
        <ele>1311.86</ele>
        <time>2013-07-19T08:37:12Z</time>
      </trkpt>
      <trkpt lat="44.22428" lon="6.0318">
        <ele>1312.34</ele>
        <time>2013-07-19T08:37:27Z</time>
      </trkpt>
      <trkpt lat="44.22426" lon="6.03182">
        <ele>1311.86</ele>
        <time>2013-07-19T08:37:56Z</time>
      </trkpt>
      <trkpt lat="44.22426" lon="6.03182">
        <ele>1312.34</ele>
        <time>2013-07-19T08:38:23Z</time>
      </trkpt>
      <trkpt lat="44.22425" lon="6.0318">
        <ele>1311.86</ele>
        <time>2013-07-19T08:38:52Z</time>
      </trkpt>
      <trkpt lat="44.22426" lon="6.03179">
        <ele>1312.34</ele>
        <time>2013-07-19T08:39:25Z</time>
      </trkpt>
      <trkpt lat="44.22426" lon="6.03183">
        <ele>1312.82</ele>
        <time>2013-07-19T08:39:47Z</time>
      </trkpt>
      <trkpt lat="44.22427" lon="6.03182">
        <ele>1312.82</ele>
        <time>2013-07-19T08:40:17Z</time>
      </trkpt>
      <trkpt lat="44.22426" lon="6.03182">
        <ele>1314.26</ele>
        <time>2013-07-19T08:40:45Z</time>
      </trkpt>
      <trkpt lat="44.22427" lon="6.03186">
        <ele>1312.82</ele>
        <time>2013-07-19T08:41:00Z</time>
      </trkpt>
      <trkpt lat="44.22431" lon="6.03194">
        <ele>1313.78</ele>
        <time>2013-07-19T08:41:21Z</time>
      </trkpt>
      <trkpt lat="44.2243" lon="6.03202">
        <ele>1313.3</ele>
        <time>2013-07-19T08:41:27Z</time>
      </trkpt>
      <trkpt lat="44.22429" lon="6.03213">
        <ele>1314.74</ele>
        <time>2013-07-19T08:41:35Z</time>
      </trkpt>
      <trkpt lat="44.22429" lon="6.03219">
        <ele>1313.78</ele>
        <time>2013-07-19T08:41:48Z</time>
      </trkpt>
      <trkpt lat="44.2243" lon="6.0322">
        <ele>1315.22</ele>
        <time>2013-07-19T08:41:54Z</time>
      </trkpt>
      <trkpt lat="44.22429" lon="6.03235">
        <ele>1314.74</ele>
        <time>2013-07-19T08:42:05Z</time>
      </trkpt>
      <trkpt lat="44.22429" lon="6.03238">
        <ele>1314.74</ele>
        <time>2013-07-19T08:42:14Z</time>
      </trkpt>
      <trkpt lat="44.2243" lon="6.03251">
        <ele>1315.22</ele>
        <time>2013-07-19T08:42:22Z</time>
      </trkpt>
      <trkpt lat="44.22433" lon="6.03272">
        <ele>1313.3</ele>
        <time>2013-07-19T08:42:36Z</time>
      </trkpt>
      <trkpt lat="44.22438" lon="6.03282">
        <ele>1312.82</ele>
        <time>2013-07-19T08:42:45Z</time>
      </trkpt>
      <trkpt lat="44.22438" lon="6.03282">
        <ele>1305.61</ele>
        <time>2013-07-19T08:42:50Z</time>
      </trkpt>
      <trkpt lat="44.22438" lon="6.03282">
        <ele>1311.86</ele>
        <time>2013-07-19T08:42:51Z</time>
      </trkpt>
      <trkpt lat="44.2244" lon="6.03286">
        <ele>1311.38</ele>
        <time>2013-07-19T08:43:13Z</time>
      </trkpt>
      <trkpt lat="44.22439" lon="6.03282">
        <ele>1312.34</ele>
        <time>2013-07-19T08:43:29Z</time>
      </trkpt>
      <trkpt lat="44.22438" lon="6.0328">
        <ele>1312.34</ele>
        <time>2013-07-19T08:43:39Z</time>
      </trkpt>
      <trkpt lat="44.22432" lon="6.03283">
        <ele>1311.86</ele>
        <time>2013-07-19T08:44:08Z</time>
      </trkpt>
      <trkpt lat="44.22434" lon="6.03283">
        <ele>1312.34</ele>
        <time>2013-07-19T08:44:12Z</time>
      </trkpt>
      <trkpt lat="44.22438" lon="6.03296">
        <ele>1311.86</ele>
        <time>2013-07-19T08:44:23Z</time>
      </trkpt>
      <trkpt lat="44.22439" lon="6.03298">
        <ele>1311.86</ele>
        <time>2013-07-19T08:44:40Z</time>
      </trkpt>
      <trkpt lat="44.22441" lon="6.03302">
        <ele>1311.38</ele>
        <time>2013-07-19T08:44:44Z</time>
      </trkpt>
      <trkpt lat="44.22444" lon="6.03315">
        <ele>1310.9</ele>
        <time>2013-07-19T08:44:53Z</time>
      </trkpt>
      <trkpt lat="44.22446" lon="6.03335">
        <ele>1310.41</ele>
        <time>2013-07-19T08:45:06Z</time>
      </trkpt>
      <trkpt lat="44.22449" lon="6.03349">
        <ele>1311.38</ele>
        <time>2013-07-19T08:45:16Z</time>
      </trkpt>
      <trkpt lat="44.22451" lon="6.03366">
        <ele>1311.86</ele>
        <time>2013-07-19T08:45:28Z</time>
      </trkpt>
      <trkpt lat="44.22452" lon="6.03372">
        <ele>1310.41</ele>
        <time>2013-07-19T08:45:39Z</time>
      </trkpt>
      <trkpt lat="44.22456" lon="6.03381">
        <ele>1307.53</ele>
        <time>2013-07-19T08:46:00Z</time>
      </trkpt>
      <trkpt lat="44.22457" lon="6.03384">
        <ele>1311.38</ele>
        <time>2013-07-19T08:46:02Z</time>
      </trkpt>
      <trkpt lat="44.22455" lon="6.0339">
        <ele>1310.41</ele>
        <time>2013-07-19T08:46:06Z</time>
      </trkpt>
      <trkpt lat="44.22455" lon="6.03396">
        <ele>1308.01</ele>
        <time>2013-07-19T08:46:10Z</time>
      </trkpt>
      <trkpt lat="44.22456" lon="6.03417">
        <ele>1311.86</ele>
        <time>2013-07-19T08:46:22Z</time>
      </trkpt>
      <trkpt lat="44.22458" lon="6.03435">
        <ele>1312.34</ele>
        <time>2013-07-19T08:46:34Z</time>
      </trkpt>
      <trkpt lat="44.22461" lon="6.03454">
        <ele>1311.86</ele>
        <time>2013-07-19T08:46:45Z</time>
      </trkpt>
      <trkpt lat="44.22461" lon="6.03456">
        <ele>1312.34</ele>
        <time>2013-07-19T08:46:46Z</time>
      </trkpt>
      <trkpt lat="44.22461" lon="6.03462">
        <ele>1307.53</ele>
        <time>2013-07-19T08:46:56Z</time>
      </trkpt>
      <trkpt lat="44.22461" lon="6.03463">
        <ele>1314.26</ele>
        <time>2013-07-19T08:46:57Z</time>
      </trkpt>
      <trkpt lat="44.22459" lon="6.03464">
        <ele>1315.22</ele>
        <time>2013-07-19T08:47:02Z</time>
      </trkpt>
      <trkpt lat="44.22459" lon="6.03469">
        <ele>1310.41</ele>
        <time>2013-07-19T08:47:05Z</time>
      </trkpt>
      <trkpt lat="44.22459" lon="6.03472">
        <ele>1313.78</ele>
        <time>2013-07-19T08:47:07Z</time>
      </trkpt>
      <trkpt lat="44.2246" lon="6.03474">
        <ele>1313.78</ele>
        <time>2013-07-19T08:47:08Z</time>
      </trkpt>
      <trkpt lat="44.22462" lon="6.03493">
        <ele>1313.78</ele>
        <time>2013-07-19T08:47:19Z</time>
      </trkpt>
      <trkpt lat="44.22461" lon="6.03497">
        <ele>1312.82</ele>
        <time>2013-07-19T08:47:21Z</time>
      </trkpt>
      <trkpt lat="44.22466" lon="6.03514">
        <ele>1312.82</ele>
        <time>2013-07-19T08:47:31Z</time>
      </trkpt>
      <trkpt lat="44.22469" lon="6.03528">
        <ele>1312.34</ele>
        <time>2013-07-19T08:47:39Z</time>
      </trkpt>
      <trkpt lat="44.22471" lon="6.03535">
        <ele>1312.82</ele>
        <time>2013-07-19T08:47:45Z</time>
      </trkpt>
      <trkpt lat="44.22471" lon="6.03537">
        <ele>1312.34</ele>
        <time>2013-07-19T08:48:05Z</time>
      </trkpt>
      <trkpt lat="44.22471" lon="6.0354">
        <ele>1312.34</ele>
        <time>2013-07-19T08:48:32Z</time>
      </trkpt>
      <trkpt lat="44.22473" lon="6.03549">
        <ele>1312.34</ele>
        <time>2013-07-19T08:48:47Z</time>
      </trkpt>
      <trkpt lat="44.22475" lon="6.03554">
        <ele>1310.9</ele>
        <time>2013-07-19T08:48:57Z</time>
      </trkpt>
      <trkpt lat="44.22479" lon="6.03566">
        <ele>1310.9</ele>
        <time>2013-07-19T08:49:09Z</time>
      </trkpt>
      <trkpt lat="44.22481" lon="6.03586">
        <ele>1308.49</ele>
        <time>2013-07-19T08:49:20Z</time>
      </trkpt>
      <trkpt lat="44.22482" lon="6.03601">
        <ele>1308.49</ele>
        <time>2013-07-19T08:49:30Z</time>
      </trkpt>
      <trkpt lat="44.22483" lon="6.03614">
        <ele>1308.49</ele>
        <time>2013-07-19T08:49:42Z</time>
      </trkpt>
      <trkpt lat="44.22487" lon="6.03636">
        <ele>1305.61</ele>
        <time>2013-07-19T08:49:54Z</time>
      </trkpt>
      <trkpt lat="44.22487" lon="6.03641">
        <ele>1309.45</ele>
        <time>2013-07-19T08:49:57Z</time>
      </trkpt>
      <trkpt lat="44.22488" lon="6.0366">
        <ele>1308.49</ele>
        <time>2013-07-19T08:50:08Z</time>
      </trkpt>
      <trkpt lat="44.22487" lon="6.03678">
        <ele>1311.38</ele>
        <time>2013-07-19T08:50:18Z</time>
      </trkpt>
      <trkpt lat="44.22488" lon="6.03684">
        <ele>1309.93</ele>
        <time>2013-07-19T08:50:21Z</time>
      </trkpt>
      <trkpt lat="44.22488" lon="6.03691">
        <ele>1310.9</ele>
        <time>2013-07-19T08:50:25Z</time>
      </trkpt>
      <trkpt lat="44.22489" lon="6.03708">
        <ele>1308.49</ele>
        <time>2013-07-19T08:50:35Z</time>
      </trkpt>
      <trkpt lat="44.22489" lon="6.03732">
        <ele>1308.01</ele>
        <time>2013-07-19T08:50:48Z</time>
      </trkpt>
      <trkpt lat="44.22489" lon="6.03738">
        <ele>1308.01</ele>
        <time>2013-07-19T08:50:52Z</time>
      </trkpt>
      <trkpt lat="44.22489" lon="6.03744">
        <ele>1307.05</ele>
        <time>2013-07-19T08:51:07Z</time>
      </trkpt>
      <trkpt lat="44.22492" lon="6.03766">
        <ele>1305.13</ele>
        <time>2013-07-19T08:51:19Z</time>
      </trkpt>
      <trkpt lat="44.22491" lon="6.03787">
        <ele>1302.72</ele>
        <time>2013-07-19T08:51:31Z</time>
      </trkpt>
      <trkpt lat="44.2249" lon="6.0379">
        <ele>1305.13</ele>
        <time>2013-07-19T08:51:33Z</time>
      </trkpt>
      <trkpt lat="44.2249" lon="6.03797">
        <ele>1303.2</ele>
        <time>2013-07-19T08:51:38Z</time>
      </trkpt>
      <trkpt lat="44.22491" lon="6.03813">
        <ele>1303.2</ele>
        <time>2013-07-19T08:51:48Z</time>
      </trkpt>
      <trkpt lat="44.22489" lon="6.03824">
        <ele>1303.69</ele>
        <time>2013-07-19T08:51:55Z</time>
      </trkpt>
      <trkpt lat="44.22488" lon="6.0383">
        <ele>1299.36</ele>
        <time>2013-07-19T08:52:00Z</time>
      </trkpt>
      <trkpt lat="44.22488" lon="6.0383">
        <ele>1303.2</ele>
        <time>2013-07-19T08:52:01Z</time>
      </trkpt>
      <trkpt lat="44.22488" lon="6.03833">
        <ele>1302.24</ele>
        <time>2013-07-19T08:52:06Z</time>
      </trkpt>
      <trkpt lat="44.22489" lon="6.03833">
        <ele>1301.28</ele>
        <time>2013-07-19T08:52:13Z</time>
      </trkpt>
      <trkpt lat="44.22489" lon="6.03852">
        <ele>1299.36</ele>
        <time>2013-07-19T08:52:26Z</time>
      </trkpt>
      <trkpt lat="44.22491" lon="6.03872">
        <ele>1297.44</ele>
        <time>2013-07-19T08:52:38Z</time>
      </trkpt>
      <trkpt lat="44.2249" lon="6.03875">
        <ele>1297.92</ele>
        <time>2013-07-19T08:52:48Z</time>
      </trkpt>
      <trkpt lat="44.22491" lon="6.03889">
        <ele>1297.44</ele>
        <time>2013-07-19T08:53:00Z</time>
      </trkpt>
      <trkpt lat="44.22493" lon="6.03902">
        <ele>1295.99</ele>
        <time>2013-07-19T08:53:09Z</time>
      </trkpt>
      <trkpt lat="44.22494" lon="6.03914">
        <ele>1294.55</ele>
        <time>2013-07-19T08:53:18Z</time>
      </trkpt>
      <trkpt lat="44.22496" lon="6.03924">
        <ele>1293.59</ele>
        <time>2013-07-19T08:53:26Z</time>
      </trkpt>
      <trkpt lat="44.22498" lon="6.03932">
        <ele>1291.67</ele>
        <time>2013-07-19T08:53:37Z</time>
      </trkpt>
      <trkpt lat="44.22499" lon="6.03942">
        <ele>1290.71</ele>
        <time>2013-07-19T08:53:45Z</time>
      </trkpt>
      <trkpt lat="44.22502" lon="6.03962">
        <ele>1288.3</ele>
        <time>2013-07-19T08:53:57Z</time>
      </trkpt>
      <trkpt lat="44.22506" lon="6.03982">
        <ele>1286.86</ele>
        <time>2013-07-19T08:54:09Z</time>
      </trkpt>
      <trkpt lat="44.22509" lon="6.0399">
        <ele>1284.94</ele>
        <time>2013-07-19T08:54:15Z</time>
      </trkpt>
      <trkpt lat="44.2251" lon="6.04005">
        <ele>1283.02</ele>
        <time>2013-07-19T08:54:25Z</time>
      </trkpt>
      <trkpt lat="44.22512" lon="6.0402">
        <ele>1284.46</ele>
        <time>2013-07-19T08:54:35Z</time>
      </trkpt>
      <trkpt lat="44.22513" lon="6.04025">
        <ele>1284.94</ele>
        <time>2013-07-19T08:54:39Z</time>
      </trkpt>
      <trkpt lat="44.22515" lon="6.04028">
        <ele>1284.46</ele>
        <time>2013-07-19T08:54:42Z</time>
      </trkpt>
      <trkpt lat="44.22517" lon="6.04041">
        <ele>1283.02</ele>
        <time>2013-07-19T08:54:53Z</time>
      </trkpt>
      <trkpt lat="44.22521" lon="6.04056">
        <ele>1282.06</ele>
        <time>2013-07-19T08:55:04Z</time>
      </trkpt>
      <trkpt lat="44.22524" lon="6.0407">
        <ele>1281.09</ele>
        <time>2013-07-19T08:55:14Z</time>
      </trkpt>
      <trkpt lat="44.22525" lon="6.04075">
        <ele>1277.25</ele>
        <time>2013-07-19T08:55:23Z</time>
      </trkpt>
      <trkpt lat="44.22525" lon="6.04076">
        <ele>1284.94</ele>
        <time>2013-07-19T08:55:24Z</time>
      </trkpt>
      <trkpt lat="44.22525" lon="6.04077">
        <ele>1280.61</ele>
        <time>2013-07-19T08:55:25Z</time>
      </trkpt>
      <trkpt lat="44.22529" lon="6.04088">
        <ele>1279.65</ele>
        <time>2013-07-19T08:55:36Z</time>
      </trkpt>
      <trkpt lat="44.2253" lon="6.04092">
        <ele>1279.17</ele>
        <time>2013-07-19T08:55:46Z</time>
      </trkpt>
      <trkpt lat="44.22525" lon="6.04089">
        <ele>1278.21</ele>
        <time>2013-07-19T08:55:59Z</time>
      </trkpt>
      <trkpt lat="44.22522" lon="6.04087">
        <ele>1274.36</ele>
        <time>2013-07-19T08:56:10Z</time>
      </trkpt>
      <trkpt lat="44.22521" lon="6.04086">
        <ele>1278.69</ele>
        <time>2013-07-19T08:56:13Z</time>
      </trkpt>
      <trkpt lat="44.2252" lon="6.04085">
        <ele>1275.33</ele>
        <time>2013-07-19T08:56:15Z</time>
      </trkpt>
      <trkpt lat="44.22519" lon="6.04081">
        <ele>1275.33</ele>
        <time>2013-07-19T08:56:19Z</time>
      </trkpt>
      <trkpt lat="44.22514" lon="6.04079">
        <ele>1273.88</ele>
        <time>2013-07-19T08:56:37Z</time>
      </trkpt>
      <trkpt lat="44.22508" lon="6.04077">
        <ele>1271.48</ele>
        <time>2013-07-19T08:56:55Z</time>
      </trkpt>
      <trkpt lat="44.22508" lon="6.04077">
        <ele>1271.48</ele>
        <time>2013-07-19T08:56:56Z</time>
      </trkpt>
      <trkpt lat="44.22505" lon="6.04075">
        <ele>1271</ele>
        <time>2013-07-19T08:57:15Z</time>
      </trkpt>
      <trkpt lat="44.22505" lon="6.04072">
        <ele>1271</ele>
        <time>2013-07-19T08:57:30Z</time>
      </trkpt>
      <trkpt lat="44.22505" lon="6.0407">
        <ele>1270.04</ele>
        <time>2013-07-19T08:57:32Z</time>
      </trkpt>
      <trkpt lat="44.22506" lon="6.04068">
        <ele>1266.67</ele>
        <time>2013-07-19T08:57:38Z</time>
      </trkpt>
      <trkpt lat="44.22506" lon="6.04068">
        <ele>1271</ele>
        <time>2013-07-19T08:57:39Z</time>
      </trkpt>
      <trkpt lat="44.22505" lon="6.04068">
        <ele>1267.16</ele>
        <time>2013-07-19T08:57:41Z</time>
      </trkpt>
      <trkpt lat="44.22502" lon="6.04069">
        <ele>1266.67</ele>
        <time>2013-07-19T08:58:00Z</time>
      </trkpt>
      <trkpt lat="44.22505" lon="6.04057">
        <ele>1263.31</ele>
        <time>2013-07-19T08:58:17Z</time>
      </trkpt>
      <trkpt lat="44.22501" lon="6.04051">
        <ele>1262.35</ele>
        <time>2013-07-19T08:58:31Z</time>
      </trkpt>
      <trkpt lat="44.22496" lon="6.04052">
        <ele>1260.43</ele>
        <time>2013-07-19T08:58:48Z</time>
      </trkpt>
      <trkpt lat="44.22497" lon="6.04053">
        <ele>1257.06</ele>
        <time>2013-07-19T08:58:51Z</time>
      </trkpt>
      <trkpt lat="44.22497" lon="6.04053">
        <ele>1261.87</ele>
        <time>2013-07-19T08:58:52Z</time>
      </trkpt>
      <trkpt lat="44.22499" lon="6.04045">
        <ele>1258.5</ele>
        <time>2013-07-19T08:59:06Z</time>
      </trkpt>
      <trkpt lat="44.225" lon="6.04046">
        <ele>1263.31</ele>
        <time>2013-07-19T08:59:09Z</time>
      </trkpt>
      <trkpt lat="44.22499" lon="6.04045">
        <ele>1261.39</ele>
        <time>2013-07-19T08:59:10Z</time>
      </trkpt>
      <trkpt lat="44.22499" lon="6.04044">
        <ele>1258.02</ele>
        <time>2013-07-19T08:59:11Z</time>
      </trkpt>
      <trkpt lat="44.22499" lon="6.04043">
        <ele>1259.94</ele>
        <time>2013-07-19T08:59:12Z</time>
      </trkpt>
      <trkpt lat="44.22497" lon="6.04041">
        <ele>1254.18</ele>
        <time>2013-07-19T08:59:24Z</time>
      </trkpt>
      <trkpt lat="44.22497" lon="6.04041">
        <ele>1260.91</ele>
        <time>2013-07-19T08:59:25Z</time>
      </trkpt>
      <trkpt lat="44.22497" lon="6.04041">
        <ele>1257.06</ele>
        <time>2013-07-19T08:59:26Z</time>
      </trkpt>
      <trkpt lat="44.22495" lon="6.04042">
        <ele>1255.62</ele>
        <time>2013-07-19T08:59:42Z</time>
      </trkpt>
      <trkpt lat="44.22492" lon="6.0404">
        <ele>1251.77</ele>
        <time>2013-07-19T08:59:53Z</time>
      </trkpt>
      <trkpt lat="44.22492" lon="6.0404">
        <ele>1255.62</ele>
        <time>2013-07-19T08:59:54Z</time>
      </trkpt>
      <trkpt lat="44.22492" lon="6.0404">
        <ele>1259.94</ele>
        <time>2013-07-19T08:59:55Z</time>
      </trkpt>
      <trkpt lat="44.22492" lon="6.0404">
        <ele>1248.41</ele>
        <time>2013-07-19T08:59:56Z</time>
      </trkpt>
      <trkpt lat="44.22492" lon="6.04041">
        <ele>1256.1</ele>
        <time>2013-07-19T08:59:57Z</time>
      </trkpt>
      <trkpt lat="44.22492" lon="6.04041">
        <ele>1260.91</ele>
        <time>2013-07-19T08:59:58Z</time>
      </trkpt>
      <trkpt lat="44.22492" lon="6.04041">
        <ele>1252.74</ele>
        <time>2013-07-19T08:59:59Z</time>
      </trkpt>
      <trkpt lat="44.22492" lon="6.04041">
        <ele>1257.54</ele>
        <time>2013-07-19T09:00:00Z</time>
      </trkpt>
      <trkpt lat="44.22491" lon="6.04041">
        <ele>1254.18</ele>
        <time>2013-07-19T09:00:01Z</time>
      </trkpt>
      <trkpt lat="44.2249" lon="6.04041">
        <ele>1248.41</ele>
        <time>2013-07-19T09:00:11Z</time>
      </trkpt>
      <trkpt lat="44.2249" lon="6.0404">
        <ele>1257.06</ele>
        <time>2013-07-19T09:00:12Z</time>
      </trkpt>
      <trkpt lat="44.22491" lon="6.0404">
        <ele>1253.22</ele>
        <time>2013-07-19T09:00:13Z</time>
      </trkpt>
      <trkpt lat="44.22487" lon="6.04037">
        <ele>1249.37</ele>
        <time>2013-07-19T09:00:27Z</time>
      </trkpt>
      <trkpt lat="44.22487" lon="6.04037">
        <ele>1248.89</ele>
        <time>2013-07-19T09:00:28Z</time>
      </trkpt>
      <trkpt lat="44.22487" lon="6.04037">
        <ele>1253.7</ele>
        <time>2013-07-19T09:00:30Z</time>
      </trkpt>
      <trkpt lat="44.22487" lon="6.04038">
        <ele>1249.37</ele>
        <time>2013-07-19T09:00:32Z</time>
      </trkpt>
      <trkpt lat="44.22487" lon="6.04037">
        <ele>1250.33</ele>
        <time>2013-07-19T09:00:33Z</time>
      </trkpt>
      <trkpt lat="44.22494" lon="6.0403">
        <ele>1248.41</ele>
        <time>2013-07-19T09:00:49Z</time>
      </trkpt>
      <trkpt lat="44.22498" lon="6.04032">
        <ele>1247.93</ele>
        <time>2013-07-19T09:01:07Z</time>
      </trkpt>
      <trkpt lat="44.22494" lon="6.04031">
        <ele>1238.32</ele>
        <time>2013-07-19T09:01:15Z</time>
      </trkpt>
      <trkpt lat="44.22494" lon="6.04031">
        <ele>1250.81</ele>
        <time>2013-07-19T09:01:16Z</time>
      </trkpt>
      <trkpt lat="44.22494" lon="6.04031">
        <ele>1243.6</ele>
        <time>2013-07-19T09:01:18Z</time>
      </trkpt>
      <trkpt lat="44.22493" lon="6.04031">
        <ele>1248.89</ele>
        <time>2013-07-19T09:01:19Z</time>
      </trkpt>
      <trkpt lat="44.22492" lon="6.04031">
        <ele>1244.08</ele>
        <time>2013-07-19T09:01:21Z</time>
      </trkpt>
      <trkpt lat="44.22491" lon="6.04032">
        <ele>1250.33</ele>
        <time>2013-07-19T09:01:26Z</time>
      </trkpt>
      <trkpt lat="44.22491" lon="6.04032">
        <ele>1248.41</ele>
        <time>2013-07-19T09:01:27Z</time>
      </trkpt>
      <trkpt lat="44.22491" lon="6.04032">
        <ele>1246.01</ele>
        <time>2013-07-19T09:01:28Z</time>
      </trkpt>
      <trkpt lat="44.22496" lon="6.04026">
        <ele>1244.08</ele>
        <time>2013-07-19T09:01:39Z</time>
      </trkpt>
      <trkpt lat="44.22484" lon="6.04017">
        <ele>1239.76</ele>
        <time>2013-07-19T09:01:53Z</time>
      </trkpt>
      <trkpt lat="44.22483" lon="6.04017">
        <ele>1239.76</ele>
        <time>2013-07-19T09:01:54Z</time>
      </trkpt>
      <trkpt lat="44.22483" lon="6.04017">
        <ele>1241.68</ele>
        <time>2013-07-19T09:01:55Z</time>
      </trkpt>
      <trkpt lat="44.22483" lon="6.04017">
        <ele>1240.24</ele>
        <time>2013-07-19T09:01:56Z</time>
      </trkpt>
      <trkpt lat="44.22483" lon="6.04016">
        <ele>1241.68</ele>
        <time>2013-07-19T09:01:57Z</time>
      </trkpt>
      <trkpt lat="44.22474" lon="6.04018">
        <ele>1240.24</ele>
        <time>2013-07-19T09:02:16Z</time>
      </trkpt>
      <trkpt lat="44.22473" lon="6.04023">
        <ele>1235.91</ele>
        <time>2013-07-19T09:02:27Z</time>
      </trkpt>
      <trkpt lat="44.22473" lon="6.04023">
        <ele>1242.64</ele>
        <time>2013-07-19T09:02:28Z</time>
      </trkpt>
      <trkpt lat="44.22473" lon="6.04023">
        <ele>1238.32</ele>
        <time>2013-07-19T09:02:29Z</time>
      </trkpt>
      <trkpt lat="44.22472" lon="6.0402">
        <ele>1233.03</ele>
        <time>2013-07-19T09:02:39Z</time>
      </trkpt>
      <trkpt lat="44.22472" lon="6.0402">
        <ele>1242.16</ele>
        <time>2013-07-19T09:02:40Z</time>
      </trkpt>
      <trkpt lat="44.22473" lon="6.0402">
        <ele>1238.32</ele>
        <time>2013-07-19T09:02:41Z</time>
      </trkpt>
      <trkpt lat="44.22474" lon="6.04019">
        <ele>1237.35</ele>
        <time>2013-07-19T09:02:47Z</time>
      </trkpt>
      <trkpt lat="44.22474" lon="6.04018">
        <ele>1233.51</ele>
        <time>2013-07-19T09:02:57Z</time>
      </trkpt>
      <trkpt lat="44.22474" lon="6.04019">
        <ele>1236.87</ele>
        <time>2013-07-19T09:02:59Z</time>
      </trkpt>
      <trkpt lat="44.22474" lon="6.04017">
        <ele>1234.95</ele>
        <time>2013-07-19T09:03:02Z</time>
      </trkpt>
      <trkpt lat="44.22475" lon="6.04015">
        <ele>1233.51</ele>
        <time>2013-07-19T09:03:19Z</time>
      </trkpt>
      <trkpt lat="44.22475" lon="6.04013">
        <ele>1231.11</ele>
        <time>2013-07-19T09:03:31Z</time>
      </trkpt>
      <trkpt lat="44.22475" lon="6.04013">
        <ele>1234.95</ele>
        <time>2013-07-19T09:03:35Z</time>
      </trkpt>
      <trkpt lat="44.22476" lon="6.04013">
        <ele>1231.59</ele>
        <time>2013-07-19T09:03:36Z</time>
      </trkpt>
      <trkpt lat="44.22475" lon="6.04014">
        <ele>1229.18</ele>
        <time>2013-07-19T09:03:52Z</time>
      </trkpt>
      <trkpt lat="44.22473" lon="6.04008">
        <ele>1227.26</ele>
        <time>2013-07-19T09:04:07Z</time>
      </trkpt>
      <trkpt lat="44.22468" lon="6.04008">
        <ele>1226.3</ele>
        <time>2013-07-19T09:04:25Z</time>
      </trkpt>
      <trkpt lat="44.22473" lon="6.04006">
        <ele>1220.53</ele>
        <time>2013-07-19T09:04:37Z</time>
      </trkpt>
      <trkpt lat="44.22473" lon="6.04006">
        <ele>1225.82</ele>
        <time>2013-07-19T09:04:38Z</time>
      </trkpt>
      <trkpt lat="44.22474" lon="6.04006">
        <ele>1223.9</ele>
        <time>2013-07-19T09:04:56Z</time>
      </trkpt>
      <trkpt lat="44.22475" lon="6.04007">
        <ele>1227.26</ele>
        <time>2013-07-19T09:04:58Z</time>
      </trkpt>
      <trkpt lat="44.22475" lon="6.04006">
        <ele>1224.38</ele>
        <time>2013-07-19T09:05:00Z</time>
      </trkpt>
      <trkpt lat="44.22469" lon="6.04004">
        <ele>1223.42</ele>
        <time>2013-07-19T09:05:11Z</time>
      </trkpt>
      <trkpt lat="44.22465" lon="6.04">
        <ele>1220.53</ele>
        <time>2013-07-19T09:05:24Z</time>
      </trkpt>
      <trkpt lat="44.22461" lon="6.03994">
        <ele>1219.09</ele>
        <time>2013-07-19T09:05:37Z</time>
      </trkpt>
      <trkpt lat="44.2246" lon="6.03989">
        <ele>1216.69</ele>
        <time>2013-07-19T09:05:52Z</time>
      </trkpt>
      <trkpt lat="44.22458" lon="6.0398">
        <ele>1214.76</ele>
        <time>2013-07-19T09:06:06Z</time>
      </trkpt>
      <trkpt lat="44.22453" lon="6.03982">
        <ele>1212.84</ele>
        <time>2013-07-19T09:06:20Z</time>
      </trkpt>
      <trkpt lat="44.22452" lon="6.03986">
        <ele>1211.88</ele>
        <time>2013-07-19T09:06:32Z</time>
      </trkpt>
      <trkpt lat="44.22447" lon="6.03986">
        <ele>1209.96</ele>
        <time>2013-07-19T09:06:47Z</time>
      </trkpt>
      <trkpt lat="44.22442" lon="6.03991">
        <ele>1207.07</ele>
        <time>2013-07-19T09:07:01Z</time>
      </trkpt>
      <trkpt lat="44.2244" lon="6.03992">
        <ele>1207.07</ele>
        <time>2013-07-19T09:07:20Z</time>
      </trkpt>
      <trkpt lat="44.22439" lon="6.0399">
        <ele>1206.11</ele>
        <time>2013-07-19T09:07:22Z</time>
      </trkpt>
      <trkpt lat="44.22438" lon="6.03985">
        <ele>1202.27</ele>
        <time>2013-07-19T09:07:28Z</time>
      </trkpt>
      <trkpt lat="44.22437" lon="6.03985">
        <ele>1208.03</ele>
        <time>2013-07-19T09:07:29Z</time>
      </trkpt>
      <trkpt lat="44.22437" lon="6.03984">
        <ele>1204.19</ele>
        <time>2013-07-19T09:07:30Z</time>
      </trkpt>
      <trkpt lat="44.22434" lon="6.0397">
        <ele>1205.15</ele>
        <time>2013-07-19T09:07:44Z</time>
      </trkpt>
      <trkpt lat="44.22428" lon="6.0396">
        <ele>1204.19</ele>
        <time>2013-07-19T09:07:57Z</time>
      </trkpt>
      <trkpt lat="44.22424" lon="6.03955">
        <ele>1202.27</ele>
        <time>2013-07-19T09:08:13Z</time>
      </trkpt>
      <trkpt lat="44.22421" lon="6.03952">
        <ele>1199.86</ele>
        <time>2013-07-19T09:08:27Z</time>
      </trkpt>
      <trkpt lat="44.22417" lon="6.03951">
        <ele>1198.9</ele>
        <time>2013-07-19T09:08:34Z</time>
      </trkpt>
      <trkpt lat="44.22411" lon="6.03954">
        <ele>1196.5</ele>
        <time>2013-07-19T09:08:47Z</time>
      </trkpt>
      <trkpt lat="44.2241" lon="6.0396">
        <ele>1195.06</ele>
        <time>2013-07-19T09:08:53Z</time>
      </trkpt>
      <trkpt lat="44.22407" lon="6.03957">
        <ele>1193.61</ele>
        <time>2013-07-19T09:09:04Z</time>
      </trkpt>
      <trkpt lat="44.22405" lon="6.03951">
        <ele>1192.65</ele>
        <time>2013-07-19T09:09:16Z</time>
      </trkpt>
      <trkpt lat="44.22401" lon="6.03944">
        <ele>1190.73</ele>
        <time>2013-07-19T09:09:30Z</time>
      </trkpt>
      <trkpt lat="44.22399" lon="6.03937">
        <ele>1188.81</ele>
        <time>2013-07-19T09:09:37Z</time>
      </trkpt>
      <trkpt lat="44.22394" lon="6.03932">
        <ele>1185.44</ele>
        <time>2013-07-19T09:09:49Z</time>
      </trkpt>
      <trkpt lat="44.22387" lon="6.0393">
        <ele>1184.48</ele>
        <time>2013-07-19T09:10:08Z</time>
      </trkpt>
      <trkpt lat="44.22382" lon="6.03922">
        <ele>1182.56</ele>
        <time>2013-07-19T09:10:20Z</time>
      </trkpt>
      <trkpt lat="44.22382" lon="6.03921">
        <ele>1182.08</ele>
        <time>2013-07-19T09:10:30Z</time>
      </trkpt>
      <trkpt lat="44.22375" lon="6.03923">
        <ele>1180.64</ele>
        <time>2013-07-19T09:10:41Z</time>
      </trkpt>
      <trkpt lat="44.22371" lon="6.03923">
        <ele>1179.19</ele>
        <time>2013-07-19T09:10:47Z</time>
      </trkpt>
      <trkpt lat="44.22368" lon="6.03924">
        <ele>1178.23</ele>
        <time>2013-07-19T09:10:49Z</time>
      </trkpt>
      <trkpt lat="44.22363" lon="6.03937">
        <ele>1178.71</ele>
        <time>2013-07-19T09:11:01Z</time>
      </trkpt>
      <trkpt lat="44.22359" lon="6.03947">
        <ele>1175.83</ele>
        <time>2013-07-19T09:11:10Z</time>
      </trkpt>
      <trkpt lat="44.22357" lon="6.03957">
        <ele>1175.83</ele>
        <time>2013-07-19T09:11:18Z</time>
      </trkpt>
      <trkpt lat="44.22357" lon="6.03962">
        <ele>1175.83</ele>
        <time>2013-07-19T09:11:22Z</time>
      </trkpt>
      <trkpt lat="44.22355" lon="6.03977">
        <ele>1174.87</ele>
        <time>2013-07-19T09:11:33Z</time>
      </trkpt>
      <trkpt lat="44.22354" lon="6.03988">
        <ele>1174.87</ele>
        <time>2013-07-19T09:11:40Z</time>
      </trkpt>
      <trkpt lat="44.22353" lon="6.04004">
        <ele>1173.91</ele>
        <time>2013-07-19T09:11:53Z</time>
      </trkpt>
      <trkpt lat="44.22353" lon="6.0402">
        <ele>1172.47</ele>
        <time>2013-07-19T09:12:05Z</time>
      </trkpt>
      <trkpt lat="44.22352" lon="6.04034">
        <ele>1170.06</ele>
        <time>2013-07-19T09:12:16Z</time>
      </trkpt>
      <trkpt lat="44.22348" lon="6.04053">
        <ele>1169.1</ele>
        <time>2013-07-19T09:12:29Z</time>
      </trkpt>
      <trkpt lat="44.22343" lon="6.04071">
        <ele>1168.14</ele>
        <time>2013-07-19T09:12:42Z</time>
      </trkpt>
      <trkpt lat="44.22342" lon="6.04073">
        <ele>1167.66</ele>
        <time>2013-07-19T09:12:44Z</time>
      </trkpt>
      <trkpt lat="44.22342" lon="6.04082">
        <ele>1164.29</ele>
        <time>2013-07-19T09:12:52Z</time>
      </trkpt>
      <trkpt lat="44.22339" lon="6.041">
        <ele>1165.74</ele>
        <time>2013-07-19T09:13:04Z</time>
      </trkpt>
      <trkpt lat="44.22337" lon="6.04109">
        <ele>1163.33</ele>
        <time>2013-07-19T09:13:11Z</time>
      </trkpt>
      <trkpt lat="44.22335" lon="6.04116">
        <ele>1162.37</ele>
        <time>2013-07-19T09:13:16Z</time>
      </trkpt>
      <trkpt lat="44.2233" lon="6.04127">
        <ele>1161.41</ele>
        <time>2013-07-19T09:13:26Z</time>
      </trkpt>
      <trkpt lat="44.22326" lon="6.0414">
        <ele>1159.97</ele>
        <time>2013-07-19T09:13:38Z</time>
      </trkpt>
      <trkpt lat="44.22327" lon="6.04145">
        <ele>1159.49</ele>
        <time>2013-07-19T09:13:42Z</time>
      </trkpt>
      <trkpt lat="44.22323" lon="6.04154">
        <ele>1158.05</ele>
        <time>2013-07-19T09:13:53Z</time>
      </trkpt>
      <trkpt lat="44.22312" lon="6.04151">
        <ele>1155.16</ele>
        <time>2013-07-19T09:14:05Z</time>
      </trkpt>
      <trkpt lat="44.22311" lon="6.04151">
        <ele>1156.12</ele>
        <time>2013-07-19T09:14:06Z</time>
      </trkpt>
      <trkpt lat="44.22308" lon="6.04153">
        <ele>1154.68</ele>
        <time>2013-07-19T09:14:09Z</time>
      </trkpt>
      <trkpt lat="44.22303" lon="6.04158">
        <ele>1153.72</ele>
        <time>2013-07-19T09:14:13Z</time>
      </trkpt>
      <trkpt lat="44.22288" lon="6.04167">
        <ele>1151.8</ele>
        <time>2013-07-19T09:14:27Z</time>
      </trkpt>
      <trkpt lat="44.22284" lon="6.0417">
        <ele>1150.84</ele>
        <time>2013-07-19T09:14:31Z</time>
      </trkpt>
      <trkpt lat="44.22282" lon="6.04167">
        <ele>1151.8</ele>
        <time>2013-07-19T09:14:37Z</time>
      </trkpt>
      <trkpt lat="44.22282" lon="6.04165">
        <ele>1149.87</ele>
        <time>2013-07-19T09:14:39Z</time>
      </trkpt>
      <trkpt lat="44.22283" lon="6.0416">
        <ele>1149.39</ele>
        <time>2013-07-19T09:14:43Z</time>
      </trkpt>
      <trkpt lat="44.22282" lon="6.04159">
        <ele>1149.39</ele>
        <time>2013-07-19T09:14:44Z</time>
      </trkpt>
      <trkpt lat="44.22281" lon="6.04142">
        <ele>1146.51</ele>
        <time>2013-07-19T09:14:55Z</time>
      </trkpt>
      <trkpt lat="44.22281" lon="6.04141">
        <ele>1147.47</ele>
        <time>2013-07-19T09:14:56Z</time>
      </trkpt>
      <trkpt lat="44.2228" lon="6.0413">
        <ele>1143.63</ele>
        <time>2013-07-19T09:15:02Z</time>
      </trkpt>
      <trkpt lat="44.22279" lon="6.04119">
        <ele>1144.11</ele>
        <time>2013-07-19T09:15:10Z</time>
      </trkpt>
      <trkpt lat="44.22278" lon="6.04112">
        <ele>1144.11</ele>
        <time>2013-07-19T09:15:14Z</time>
      </trkpt>
      <trkpt lat="44.22272" lon="6.04098">
        <ele>1142.18</ele>
        <time>2013-07-19T09:15:25Z</time>
      </trkpt>
      <trkpt lat="44.22271" lon="6.04096">
        <ele>1141.22</ele>
        <time>2013-07-19T09:15:27Z</time>
      </trkpt>
      <trkpt lat="44.22263" lon="6.0408">
        <ele>1139.3</ele>
        <time>2013-07-19T09:15:40Z</time>
      </trkpt>
      <trkpt lat="44.22261" lon="6.04077">
        <ele>1137.86</ele>
        <time>2013-07-19T09:15:42Z</time>
      </trkpt>
      <trkpt lat="44.2226" lon="6.04075">
        <ele>1138.82</ele>
        <time>2013-07-19T09:15:44Z</time>
      </trkpt>
      <trkpt lat="44.22258" lon="6.04072">
        <ele>1137.86</ele>
        <time>2013-07-19T09:15:46Z</time>
      </trkpt>
      <trkpt lat="44.22252" lon="6.04054">
        <ele>1134.97</ele>
        <time>2013-07-19T09:15:59Z</time>
      </trkpt>
      <trkpt lat="44.22247" lon="6.0404">
        <ele>1135.94</ele>
        <time>2013-07-19T09:16:09Z</time>
      </trkpt>
      <trkpt lat="44.22244" lon="6.04022">
        <ele>1134.49</ele>
        <time>2013-07-19T09:16:21Z</time>
      </trkpt>
      <trkpt lat="44.22245" lon="6.04005">
        <ele>1134.97</ele>
        <time>2013-07-19T09:16:31Z</time>
      </trkpt>
      <trkpt lat="44.22246" lon="6.03998">
        <ele>1134.97</ele>
        <time>2013-07-19T09:16:35Z</time>
      </trkpt>
      <trkpt lat="44.22241" lon="6.03977">
        <ele>1134.01</ele>
        <time>2013-07-19T09:16:48Z</time>
      </trkpt>
      <trkpt lat="44.22237" lon="6.03959">
        <ele>1134.01</ele>
        <time>2013-07-19T09:17:00Z</time>
      </trkpt>
      <trkpt lat="44.2223" lon="6.03941">
        <ele>1134.97</ele>
        <time>2013-07-19T09:17:12Z</time>
      </trkpt>
      <trkpt lat="44.22225" lon="6.03931">
        <ele>1134.01</ele>
        <time>2013-07-19T09:17:24Z</time>
      </trkpt>
      <trkpt lat="44.22226" lon="6.03931">
        <ele>1134.01</ele>
        <time>2013-07-19T09:17:35Z</time>
      </trkpt>
      <trkpt lat="44.22221" lon="6.03918">
        <ele>1134.01</ele>
        <time>2013-07-19T09:17:43Z</time>
      </trkpt>
      <trkpt lat="44.22218" lon="6.03913">
        <ele>1132.09</ele>
        <time>2013-07-19T09:17:46Z</time>
      </trkpt>
      <trkpt lat="44.22209" lon="6.03894">
        <ele>1130.65</ele>
        <time>2013-07-19T09:17:58Z</time>
      </trkpt>
      <trkpt lat="44.222" lon="6.03877">
        <ele>1131.61</ele>
        <time>2013-07-19T09:18:09Z</time>
      </trkpt>
      <trkpt lat="44.22189" lon="6.0386">
        <ele>1131.13</ele>
        <time>2013-07-19T09:18:23Z</time>
      </trkpt>
      <trkpt lat="44.22187" lon="6.03858">
        <ele>1130.65</ele>
        <time>2013-07-19T09:18:25Z</time>
      </trkpt>
      <trkpt lat="44.2218" lon="6.03852">
        <ele>1130.17</ele>
        <time>2013-07-19T09:18:35Z</time>
      </trkpt>
      <trkpt lat="44.22169" lon="6.03844">
        <ele>1129.21</ele>
        <time>2013-07-19T09:18:45Z</time>
      </trkpt>
      <trkpt lat="44.22159" lon="6.03832">
        <ele>1124.4</ele>
        <time>2013-07-19T09:18:58Z</time>
      </trkpt>
      <trkpt lat="44.22146" lon="6.03822">
        <ele>1123.92</ele>
        <time>2013-07-19T09:19:11Z</time>
      </trkpt>
      <trkpt lat="44.22136" lon="6.03811">
        <ele>1122.96</ele>
        <time>2013-07-19T09:19:22Z</time>
      </trkpt>
      <trkpt lat="44.22133" lon="6.03805">
        <ele>1122</ele>
        <time>2013-07-19T09:19:26Z</time>
      </trkpt>
      <trkpt lat="44.22119" lon="6.03805">
        <ele>1121.52</ele>
        <time>2013-07-19T09:19:37Z</time>
      </trkpt>
      <trkpt lat="44.22101" lon="6.03809">
        <ele>1119.59</ele>
        <time>2013-07-19T09:19:51Z</time>
      </trkpt>
      <trkpt lat="44.22086" lon="6.03809">
        <ele>1119.11</ele>
        <time>2013-07-19T09:20:04Z</time>
      </trkpt>
      <trkpt lat="44.22083" lon="6.03808">
        <ele>1118.15</ele>
        <time>2013-07-19T09:20:06Z</time>
      </trkpt>
      <trkpt lat="44.2207" lon="6.03802">
        <ele>1114.79</ele>
        <time>2013-07-19T09:20:16Z</time>
      </trkpt>
      <trkpt lat="44.22063" lon="6.03793">
        <ele>1115.75</ele>
        <time>2013-07-19T09:20:23Z</time>
      </trkpt>
      <trkpt lat="44.22049" lon="6.03793">
        <ele>1113.34</ele>
        <time>2013-07-19T09:20:35Z</time>
      </trkpt>
      <trkpt lat="44.22031" lon="6.03792">
        <ele>1111.42</ele>
        <time>2013-07-19T09:20:50Z</time>
      </trkpt>
      <trkpt lat="44.22019" lon="6.0379">
        <ele>1109.02</ele>
        <time>2013-07-19T09:21:00Z</time>
      </trkpt>
      <trkpt lat="44.22008" lon="6.03788">
        <ele>1108.06</ele>
        <time>2013-07-19T09:21:10Z</time>
      </trkpt>
      <trkpt lat="44.21988" lon="6.03784">
        <ele>1107.1</ele>
        <time>2013-07-19T09:21:25Z</time>
      </trkpt>
      <trkpt lat="44.21978" lon="6.03779">
        <ele>1105.17</ele>
        <time>2013-07-19T09:21:34Z</time>
      </trkpt>
      <trkpt lat="44.21966" lon="6.03779">
        <ele>1103.73</ele>
        <time>2013-07-19T09:21:43Z</time>
      </trkpt>
      <trkpt lat="44.21946" lon="6.03779">
        <ele>1102.29</ele>
        <time>2013-07-19T09:21:59Z</time>
      </trkpt>
      <trkpt lat="44.21931" lon="6.0378">
        <ele>1098.92</ele>
        <time>2013-07-19T09:22:12Z</time>
      </trkpt>
      <trkpt lat="44.21931" lon="6.03788">
        <ele>1099.4</ele>
        <time>2013-07-19T09:22:23Z</time>
      </trkpt>
      <trkpt lat="44.2193" lon="6.03803">
        <ele>1097</ele>
        <time>2013-07-19T09:22:35Z</time>
      </trkpt>
      <trkpt lat="44.21921" lon="6.03805">
        <ele>1095.08</ele>
        <time>2013-07-19T09:22:44Z</time>
      </trkpt>
      <trkpt lat="44.21916" lon="6.03805">
        <ele>1093.64</ele>
        <time>2013-07-19T09:22:49Z</time>
      </trkpt>
      <trkpt lat="44.21904" lon="6.03805">
        <ele>1093.64</ele>
        <time>2013-07-19T09:23:02Z</time>
      </trkpt>
      <trkpt lat="44.219" lon="6.03806">
        <ele>1092.68</ele>
        <time>2013-07-19T09:23:12Z</time>
      </trkpt>
      <trkpt lat="44.21899" lon="6.03793">
        <ele>1093.16</ele>
        <time>2013-07-19T09:23:28Z</time>
      </trkpt>
      <trkpt lat="44.21898" lon="6.03792">
        <ele>1096.04</ele>
        <time>2013-07-19T09:23:29Z</time>
      </trkpt>
      <trkpt lat="44.21892" lon="6.03789">
        <ele>1095.08</ele>
        <time>2013-07-19T09:23:39Z</time>
      </trkpt>
      <trkpt lat="44.21882" lon="6.03777">
        <ele>1094.6</ele>
        <time>2013-07-19T09:23:52Z</time>
      </trkpt>
      <trkpt lat="44.21876" lon="6.03767">
        <ele>1092.2</ele>
        <time>2013-07-19T09:24:02Z</time>
      </trkpt>
      <trkpt lat="44.21871" lon="6.03748">
        <ele>1093.16</ele>
        <time>2013-07-19T09:24:17Z</time>
      </trkpt>
      <trkpt lat="44.21871" lon="6.03743">
        <ele>1094.12</ele>
        <time>2013-07-19T09:24:29Z</time>
      </trkpt>
      <trkpt lat="44.2187" lon="6.03743">
        <ele>1093.64</ele>
        <time>2013-07-19T09:24:52Z</time>
      </trkpt>
      <trkpt lat="44.21871" lon="6.03737">
        <ele>1093.16</ele>
        <time>2013-07-19T09:25:07Z</time>
      </trkpt>
      <trkpt lat="44.21876" lon="6.03735">
        <ele>1095.08</ele>
        <time>2013-07-19T09:25:26Z</time>
      </trkpt>
      <trkpt lat="44.21875" lon="6.03721">
        <ele>1097</ele>
        <time>2013-07-19T09:25:36Z</time>
      </trkpt>
      <trkpt lat="44.21875" lon="6.03718">
        <ele>1094.12</ele>
        <time>2013-07-19T09:25:38Z</time>
      </trkpt>
      <trkpt lat="44.21876" lon="6.03701">
        <ele>1097.48</ele>
        <time>2013-07-19T09:25:50Z</time>
      </trkpt>
      <trkpt lat="44.21877" lon="6.03689">
        <ele>1097.48</ele>
        <time>2013-07-19T09:26:04Z</time>
      </trkpt>
      <trkpt lat="44.21876" lon="6.03686">
        <ele>1097</ele>
        <time>2013-07-19T09:26:13Z</time>
      </trkpt>
      <trkpt lat="44.21871" lon="6.03669">
        <ele>1097</ele>
        <time>2013-07-19T09:26:25Z</time>
      </trkpt>
      <trkpt lat="44.21869" lon="6.03664">
        <ele>1095.56</ele>
        <time>2013-07-19T09:26:28Z</time>
      </trkpt>
      <trkpt lat="44.21865" lon="6.03641">
        <ele>1096.04</ele>
        <time>2013-07-19T09:26:40Z</time>
      </trkpt>
      <trkpt lat="44.21863" lon="6.03621">
        <ele>1094.6</ele>
        <time>2013-07-19T09:26:51Z</time>
      </trkpt>
      <trkpt lat="44.21867" lon="6.03601">
        <ele>1094.12</ele>
        <time>2013-07-19T09:27:03Z</time>
      </trkpt>
      <trkpt lat="44.21872" lon="6.03583">
        <ele>1095.08</ele>
        <time>2013-07-19T09:27:15Z</time>
      </trkpt>
      <trkpt lat="44.21881" lon="6.03558">
        <ele>1095.08</ele>
        <time>2013-07-19T09:27:31Z</time>
      </trkpt>
      <trkpt lat="44.21883" lon="6.03553">
        <ele>1095.08</ele>
        <time>2013-07-19T09:27:35Z</time>
      </trkpt>
      <trkpt lat="44.21885" lon="6.03544">
        <ele>1097</ele>
        <time>2013-07-19T09:27:41Z</time>
      </trkpt>
      <trkpt lat="44.21886" lon="6.03536">
        <ele>1096.04</ele>
        <time>2013-07-19T09:27:46Z</time>
      </trkpt>
      <trkpt lat="44.21887" lon="6.03534">
        <ele>1097.96</ele>
        <time>2013-07-19T09:27:48Z</time>
      </trkpt>
      <trkpt lat="44.21888" lon="6.0353">
        <ele>1096.04</ele>
        <time>2013-07-19T09:27:50Z</time>
      </trkpt>
      <trkpt lat="44.21891" lon="6.03522">
        <ele>1097.96</ele>
        <time>2013-07-19T09:27:55Z</time>
      </trkpt>
      <trkpt lat="44.21895" lon="6.03506">
        <ele>1098.92</ele>
        <time>2013-07-19T09:28:07Z</time>
      </trkpt>
      <trkpt lat="44.21894" lon="6.03482">
        <ele>1099.89</ele>
        <time>2013-07-19T09:28:21Z</time>
      </trkpt>
      <trkpt lat="44.21894" lon="6.03475">
        <ele>1100.37</ele>
        <time>2013-07-19T09:28:25Z</time>
      </trkpt>
      <trkpt lat="44.21894" lon="6.03472">
        <ele>1099.4</ele>
        <time>2013-07-19T09:28:27Z</time>
      </trkpt>
      <trkpt lat="44.21893" lon="6.03454">
        <ele>1098.44</ele>
        <time>2013-07-19T09:28:37Z</time>
      </trkpt>
      <trkpt lat="44.21893" lon="6.03442">
        <ele>1101.81</ele>
        <time>2013-07-19T09:28:45Z</time>
      </trkpt>
      <trkpt lat="44.21893" lon="6.03437">
        <ele>1099.89</ele>
        <time>2013-07-19T09:28:48Z</time>
      </trkpt>
      <trkpt lat="44.21892" lon="6.03418">
        <ele>1101.81</ele>
        <time>2013-07-19T09:28:59Z</time>
      </trkpt>
      <trkpt lat="44.2189" lon="6.03396">
        <ele>1099.89</ele>
        <time>2013-07-19T09:29:12Z</time>
      </trkpt>
      <trkpt lat="44.2189" lon="6.03387">
        <ele>1100.85</ele>
        <time>2013-07-19T09:29:17Z</time>
      </trkpt>
      <trkpt lat="44.21891" lon="6.03373">
        <ele>1102.29</ele>
        <time>2013-07-19T09:29:25Z</time>
      </trkpt>
      <trkpt lat="44.2189" lon="6.03353">
        <ele>1102.29</ele>
        <time>2013-07-19T09:29:36Z</time>
      </trkpt>
      <trkpt lat="44.21888" lon="6.03329">
        <ele>1102.77</ele>
        <time>2013-07-19T09:29:50Z</time>
      </trkpt>
      <trkpt lat="44.21884" lon="6.03307">
        <ele>1104.21</ele>
        <time>2013-07-19T09:30:03Z</time>
      </trkpt>
      <trkpt lat="44.21881" lon="6.03282">
        <ele>1105.65</ele>
        <time>2013-07-19T09:30:18Z</time>
      </trkpt>
      <trkpt lat="44.21878" lon="6.03265">
        <ele>1105.17</ele>
        <time>2013-07-19T09:30:28Z</time>
      </trkpt>
      <trkpt lat="44.21872" lon="6.03242">
        <ele>1104.69</ele>
        <time>2013-07-19T09:30:42Z</time>
      </trkpt>
      <trkpt lat="44.21866" lon="6.03234">
        <ele>1106.13</ele>
        <time>2013-07-19T09:30:53Z</time>
      </trkpt>
      <trkpt lat="44.21863" lon="6.03227">
        <ele>1106.13</ele>
        <time>2013-07-19T09:31:01Z</time>
      </trkpt>
      <trkpt lat="44.21858" lon="6.03209">
        <ele>1106.61</ele>
        <time>2013-07-19T09:31:13Z</time>
      </trkpt>
      <trkpt lat="44.21855" lon="6.03188">
        <ele>1106.61</ele>
        <time>2013-07-19T09:31:26Z</time>
      </trkpt>
      <trkpt lat="44.2185" lon="6.03165">
        <ele>1107.1</ele>
        <time>2013-07-19T09:31:40Z</time>
      </trkpt>
      <trkpt lat="44.21839" lon="6.03153">
        <ele>1108.06</ele>
        <time>2013-07-19T09:31:51Z</time>
      </trkpt>
      <trkpt lat="44.21823" lon="6.03146">
        <ele>1107.58</ele>
        <time>2013-07-19T09:32:04Z</time>
      </trkpt>
      <trkpt lat="44.21817" lon="6.03142">
        <ele>1108.54</ele>
        <time>2013-07-19T09:32:09Z</time>
      </trkpt>
      <trkpt lat="44.21805" lon="6.03122">
        <ele>1109.02</ele>
        <time>2013-07-19T09:32:24Z</time>
      </trkpt>
      <trkpt lat="44.21802" lon="6.03109">
        <ele>1109.98</ele>
        <time>2013-07-19T09:32:32Z</time>
      </trkpt>
      <trkpt lat="44.21794" lon="6.03091">
        <ele>1110.46</ele>
        <time>2013-07-19T09:32:45Z</time>
      </trkpt>
      <trkpt lat="44.2179" lon="6.03083">
        <ele>1109.98</ele>
        <time>2013-07-19T09:32:51Z</time>
      </trkpt>
      <trkpt lat="44.21788" lon="6.0308">
        <ele>1111.42</ele>
        <time>2013-07-19T09:32:53Z</time>
      </trkpt>
      <trkpt lat="44.21781" lon="6.03068">
        <ele>1111.42</ele>
        <time>2013-07-19T09:33:03Z</time>
      </trkpt>
      <trkpt lat="44.21779" lon="6.03062">
        <ele>1111.9</ele>
        <time>2013-07-19T09:33:07Z</time>
      </trkpt>
      <trkpt lat="44.21778" lon="6.03059">
        <ele>1107.58</ele>
        <time>2013-07-19T09:33:09Z</time>
      </trkpt>
      <trkpt lat="44.21778" lon="6.03058">
        <ele>1110.46</ele>
        <time>2013-07-19T09:33:10Z</time>
      </trkpt>
      <trkpt lat="44.21777" lon="6.03052">
        <ele>1110.94</ele>
        <time>2013-07-19T09:33:14Z</time>
      </trkpt>
      <trkpt lat="44.21777" lon="6.03049">
        <ele>1110.46</ele>
        <time>2013-07-19T09:33:16Z</time>
      </trkpt>
      <trkpt lat="44.21783" lon="6.03023">
        <ele>1109.98</ele>
        <time>2013-07-19T09:33:32Z</time>
      </trkpt>
      <trkpt lat="44.21791" lon="6.03009">
        <ele>1107.58</ele>
        <time>2013-07-19T09:33:44Z</time>
      </trkpt>
      <trkpt lat="44.21806" lon="6.02991">
        <ele>1107.1</ele>
        <time>2013-07-19T09:34:00Z</time>
      </trkpt>
      <trkpt lat="44.21816" lon="6.02966">
        <ele>1105.17</ele>
        <time>2013-07-19T09:34:14Z</time>
      </trkpt>
      <trkpt lat="44.21815" lon="6.02961">
        <ele>1106.61</ele>
        <time>2013-07-19T09:34:17Z</time>
      </trkpt>
      <trkpt lat="44.21811" lon="6.0296">
        <ele>1104.21</ele>
        <time>2013-07-19T09:34:20Z</time>
      </trkpt>
      <trkpt lat="44.21808" lon="6.02959">
        <ele>1104.21</ele>
        <time>2013-07-19T09:34:23Z</time>
      </trkpt>
      <trkpt lat="44.21792" lon="6.02964">
        <ele>1103.73</ele>
        <time>2013-07-19T09:34:35Z</time>
      </trkpt>
      <trkpt lat="44.21778" lon="6.02966">
        <ele>1102.29</ele>
        <time>2013-07-19T09:34:46Z</time>
      </trkpt>
      <trkpt lat="44.21768" lon="6.02971">
        <ele>1101.81</ele>
        <time>2013-07-19T09:34:54Z</time>
      </trkpt>
      <trkpt lat="44.21761" lon="6.02969">
        <ele>1100.85</ele>
        <time>2013-07-19T09:35:01Z</time>
      </trkpt>
      <trkpt lat="44.21763" lon="6.02958">
        <ele>1101.33</ele>
        <time>2013-07-19T09:35:09Z</time>
      </trkpt>
      <trkpt lat="44.21777" lon="6.02945">
        <ele>1098.44</ele>
        <time>2013-07-19T09:35:23Z</time>
      </trkpt>
      <trkpt lat="44.21785" lon="6.02933">
        <ele>1099.4</ele>
        <time>2013-07-19T09:35:32Z</time>
      </trkpt>
      <trkpt lat="44.21788" lon="6.02909">
        <ele>1097.96</ele>
        <time>2013-07-19T09:35:45Z</time>
      </trkpt>
      <trkpt lat="44.21788" lon="6.02903">
        <ele>1096.52</ele>
        <time>2013-07-19T09:35:48Z</time>
      </trkpt>
      <trkpt lat="44.21786" lon="6.02879">
        <ele>1094.6</ele>
        <time>2013-07-19T09:36:01Z</time>
      </trkpt>
      <trkpt lat="44.21784" lon="6.02852">
        <ele>1094.12</ele>
        <time>2013-07-19T09:36:17Z</time>
      </trkpt>
      <trkpt lat="44.21783" lon="6.02829">
        <ele>1093.16</ele>
        <time>2013-07-19T09:36:31Z</time>
      </trkpt>
      <trkpt lat="44.21783" lon="6.0281">
        <ele>1092.2</ele>
        <time>2013-07-19T09:36:43Z</time>
      </trkpt>
      <trkpt lat="44.21782" lon="6.02806">
        <ele>1091.23</ele>
        <time>2013-07-19T09:36:57Z</time>
      </trkpt>
      <trkpt lat="44.21784" lon="6.02796">
        <ele>1091.71</ele>
        <time>2013-07-19T09:37:15Z</time>
      </trkpt>
      <trkpt lat="44.21787" lon="6.02789">
        <ele>1090.75</ele>
        <time>2013-07-19T09:37:28Z</time>
      </trkpt>
      <trkpt lat="44.21789" lon="6.02776">
        <ele>1088.83</ele>
        <time>2013-07-19T09:37:44Z</time>
      </trkpt>
      <trkpt lat="44.21785" lon="6.02752">
        <ele>1088.83</ele>
        <time>2013-07-19T09:37:57Z</time>
      </trkpt>
      <trkpt lat="44.21781" lon="6.02738">
        <ele>1084.5</ele>
        <time>2013-07-19T09:38:06Z</time>
      </trkpt>
      <trkpt lat="44.21776" lon="6.02733">
        <ele>1085.95</ele>
        <time>2013-07-19T09:38:11Z</time>
      </trkpt>
      <trkpt lat="44.21766" lon="6.02718">
        <ele>1084.99</ele>
        <time>2013-07-19T09:38:23Z</time>
      </trkpt>
      <trkpt lat="44.21754" lon="6.02705">
        <ele>1082.58</ele>
        <time>2013-07-19T09:38:36Z</time>
      </trkpt>
      <trkpt lat="44.21751" lon="6.02704">
        <ele>1082.1</ele>
        <time>2013-07-19T09:38:38Z</time>
      </trkpt>
      <trkpt lat="44.21739" lon="6.02701">
        <ele>1079.7</ele>
        <time>2013-07-19T09:38:49Z</time>
      </trkpt>
      <trkpt lat="44.21737" lon="6.02701">
        <ele>1080.18</ele>
        <time>2013-07-19T09:38:50Z</time>
      </trkpt>
      <trkpt lat="44.21733" lon="6.02702">
        <ele>1080.66</ele>
        <time>2013-07-19T09:38:53Z</time>
      </trkpt>
      <trkpt lat="44.21727" lon="6.02711">
        <ele>1079.7</ele>
        <time>2013-07-19T09:39:01Z</time>
      </trkpt>
      <trkpt lat="44.21722" lon="6.02727">
        <ele>1079.22</ele>
        <time>2013-07-19T09:39:12Z</time>
      </trkpt>
      <trkpt lat="44.21716" lon="6.02745">
        <ele>1078.74</ele>
        <time>2013-07-19T09:39:24Z</time>
      </trkpt>
      <trkpt lat="44.21711" lon="6.02763">
        <ele>1077.78</ele>
        <time>2013-07-19T09:39:36Z</time>
      </trkpt>
      <trkpt lat="44.2171" lon="6.02769">
        <ele>1076.81</ele>
        <time>2013-07-19T09:39:40Z</time>
      </trkpt>
      <trkpt lat="44.21703" lon="6.02772">
        <ele>1074.89</ele>
        <time>2013-07-19T09:39:47Z</time>
      </trkpt>
      <trkpt lat="44.217" lon="6.02759">
        <ele>1074.41</ele>
        <time>2013-07-19T09:39:55Z</time>
      </trkpt>
      <trkpt lat="44.21698" lon="6.02742">
        <ele>1074.41</ele>
        <time>2013-07-19T09:40:06Z</time>
      </trkpt>
      <trkpt lat="44.21699" lon="6.02732">
        <ele>1072.49</ele>
        <time>2013-07-19T09:40:12Z</time>
      </trkpt>
      <trkpt lat="44.21696" lon="6.02704">
        <ele>1071.53</ele>
        <time>2013-07-19T09:40:27Z</time>
      </trkpt>
      <trkpt lat="44.21689" lon="6.02682">
        <ele>1070.08</ele>
        <time>2013-07-19T09:40:40Z</time>
      </trkpt>
      <trkpt lat="44.21689" lon="6.02674">
        <ele>1069.6</ele>
        <time>2013-07-19T09:40:51Z</time>
      </trkpt>
      <trkpt lat="44.21685" lon="6.02673">
        <ele>1069.12</ele>
        <time>2013-07-19T09:41:02Z</time>
      </trkpt>
      <trkpt lat="44.2168" lon="6.02655">
        <ele>1068.16</ele>
        <time>2013-07-19T09:41:13Z</time>
      </trkpt>
      <trkpt lat="44.21675" lon="6.02635">
        <ele>1067.68</ele>
        <time>2013-07-19T09:41:26Z</time>
      </trkpt>
      <trkpt lat="44.21674" lon="6.02626">
        <ele>1066.24</ele>
        <time>2013-07-19T09:41:32Z</time>
      </trkpt>
      <trkpt lat="44.21677" lon="6.02609">
        <ele>1066.72</ele>
        <time>2013-07-19T09:41:42Z</time>
      </trkpt>
      <trkpt lat="44.21679" lon="6.02605">
        <ele>1065.28</ele>
        <time>2013-07-19T09:41:45Z</time>
      </trkpt>
      <trkpt lat="44.21681" lon="6.02604">
        <ele>1065.28</ele>
        <time>2013-07-19T09:42:01Z</time>
      </trkpt>
      <trkpt lat="44.2168" lon="6.02598">
        <ele>1064.8</ele>
        <time>2013-07-19T09:42:11Z</time>
      </trkpt>
      <trkpt lat="44.21686" lon="6.02584">
        <ele>1064.32</ele>
        <time>2013-07-19T09:42:21Z</time>
      </trkpt>
      <trkpt lat="44.21694" lon="6.0257">
        <ele>1062.87</ele>
        <time>2013-07-19T09:42:32Z</time>
      </trkpt>
      <trkpt lat="44.21696" lon="6.02567">
        <ele>1062.87</ele>
        <time>2013-07-19T09:42:35Z</time>
      </trkpt>
      <trkpt lat="44.21697" lon="6.02557">
        <ele>1061.91</ele>
        <time>2013-07-19T09:42:41Z</time>
      </trkpt>
      <trkpt lat="44.21692" lon="6.02545">
        <ele>1059.51</ele>
        <time>2013-07-19T09:42:49Z</time>
      </trkpt>
      <trkpt lat="44.21686" lon="6.02536">
        <ele>1058.07</ele>
        <time>2013-07-19T09:42:56Z</time>
      </trkpt>
      <trkpt lat="44.21676" lon="6.02524">
        <ele>1058.07</ele>
        <time>2013-07-19T09:43:07Z</time>
      </trkpt>
      <trkpt lat="44.21669" lon="6.0251">
        <ele>1055.67</ele>
        <time>2013-07-19T09:43:17Z</time>
      </trkpt>
      <trkpt lat="44.21668" lon="6.02504">
        <ele>1056.15</ele>
        <time>2013-07-19T09:43:21Z</time>
      </trkpt>
      <trkpt lat="44.21665" lon="6.02487">
        <ele>1054.22</ele>
        <time>2013-07-19T09:43:32Z</time>
      </trkpt>
      <trkpt lat="44.21664" lon="6.02467">
        <ele>1053.26</ele>
        <time>2013-07-19T09:43:44Z</time>
      </trkpt>
      <trkpt lat="44.21662" lon="6.02454">
        <ele>1054.22</ele>
        <time>2013-07-19T09:43:53Z</time>
      </trkpt>
      <trkpt lat="44.21658" lon="6.0243">
        <ele>1053.74</ele>
        <time>2013-07-19T09:44:07Z</time>
      </trkpt>
      <trkpt lat="44.21657" lon="6.02424">
        <ele>1052.3</ele>
        <time>2013-07-19T09:44:10Z</time>
      </trkpt>
      <trkpt lat="44.21655" lon="6.02407">
        <ele>1051.34</ele>
        <time>2013-07-19T09:44:20Z</time>
      </trkpt>
      <trkpt lat="44.21651" lon="6.02388">
        <ele>1048.94</ele>
        <time>2013-07-19T09:44:32Z</time>
      </trkpt>
      <trkpt lat="44.21654" lon="6.02381">
        <ele>1048.94</ele>
        <time>2013-07-19T09:44:37Z</time>
      </trkpt>
      <trkpt lat="44.21652" lon="6.02356">
        <ele>1046.53</ele>
        <time>2013-07-19T09:44:51Z</time>
      </trkpt>
      <trkpt lat="44.21649" lon="6.02335">
        <ele>1045.09</ele>
        <time>2013-07-19T09:45:03Z</time>
      </trkpt>
      <trkpt lat="44.21648" lon="6.02331">
        <ele>1044.61</ele>
        <time>2013-07-19T09:45:05Z</time>
      </trkpt>
      <trkpt lat="44.21649" lon="6.02312">
        <ele>1043.65</ele>
        <time>2013-07-19T09:45:17Z</time>
      </trkpt>
      <trkpt lat="44.21648" lon="6.02302">
        <ele>1042.21</ele>
        <time>2013-07-19T09:45:22Z</time>
      </trkpt>
      <trkpt lat="44.21648" lon="6.02296">
        <ele>1041.25</ele>
        <time>2013-07-19T09:45:26Z</time>
      </trkpt>
      <trkpt lat="44.21644" lon="6.02277">
        <ele>1040.28</ele>
        <time>2013-07-19T09:45:38Z</time>
      </trkpt>
      <trkpt lat="44.21643" lon="6.02272">
        <ele>1039.32</ele>
        <time>2013-07-19T09:45:41Z</time>
      </trkpt>
      <trkpt lat="44.21639" lon="6.02252">
        <ele>1038.84</ele>
        <time>2013-07-19T09:45:53Z</time>
      </trkpt>
      <trkpt lat="44.21637" lon="6.02235">
        <ele>1037.4</ele>
        <time>2013-07-19T09:46:03Z</time>
      </trkpt>
      <trkpt lat="44.21634" lon="6.02216">
        <ele>1035</ele>
        <time>2013-07-19T09:46:13Z</time>
      </trkpt>
      <trkpt lat="44.21633" lon="6.02192">
        <ele>1034.04</ele>
        <time>2013-07-19T09:46:27Z</time>
      </trkpt>
      <trkpt lat="44.21633" lon="6.02168">
        <ele>1033.07</ele>
        <time>2013-07-19T09:46:40Z</time>
      </trkpt>
      <trkpt lat="44.21635" lon="6.02155">
        <ele>1032.11</ele>
        <time>2013-07-19T09:46:49Z</time>
      </trkpt>
      <trkpt lat="44.21637" lon="6.02147">
        <ele>1031.15</ele>
        <time>2013-07-19T09:47:03Z</time>
      </trkpt>
      <trkpt lat="44.2164" lon="6.0213">
        <ele>1030.19</ele>
        <time>2013-07-19T09:47:14Z</time>
      </trkpt>
      <trkpt lat="44.21645" lon="6.02114">
        <ele>1029.71</ele>
        <time>2013-07-19T09:47:24Z</time>
      </trkpt>
      <trkpt lat="44.21648" lon="6.02094">
        <ele>1029.23</ele>
        <time>2013-07-19T09:47:36Z</time>
      </trkpt>
      <trkpt lat="44.21647" lon="6.02074">
        <ele>1028.27</ele>
        <time>2013-07-19T09:47:48Z</time>
      </trkpt>
      <trkpt lat="44.21646" lon="6.02061">
        <ele>1024.9</ele>
        <time>2013-07-19T09:47:54Z</time>
      </trkpt>
      <trkpt lat="44.21645" lon="6.02045">
        <ele>1024.42</ele>
        <time>2013-07-19T09:48:03Z</time>
      </trkpt>
      <trkpt lat="44.21644" lon="6.02039">
        <ele>1023.94</ele>
        <time>2013-07-19T09:48:07Z</time>
      </trkpt>
      <trkpt lat="44.21643" lon="6.02021">
        <ele>1022.02</ele>
        <time>2013-07-19T09:48:18Z</time>
      </trkpt>
      <trkpt lat="44.21646" lon="6.02">
        <ele>1020.58</ele>
        <time>2013-07-19T09:48:30Z</time>
      </trkpt>
      <trkpt lat="44.21642" lon="6.01984">
        <ele>1020.58</ele>
        <time>2013-07-19T09:48:40Z</time>
      </trkpt>
      <trkpt lat="44.21637" lon="6.01979">
        <ele>1019.62</ele>
        <time>2013-07-19T09:48:45Z</time>
      </trkpt>
      <trkpt lat="44.2162" lon="6.0198">
        <ele>1017.21</ele>
        <time>2013-07-19T09:48:58Z</time>
      </trkpt>
      <trkpt lat="44.21611" lon="6.01987">
        <ele>1016.73</ele>
        <time>2013-07-19T09:49:10Z</time>
      </trkpt>
      <trkpt lat="44.21605" lon="6.02005">
        <ele>1015.29</ele>
        <time>2013-07-19T09:49:20Z</time>
      </trkpt>
      <trkpt lat="44.21598" lon="6.02018">
        <ele>1014.33</ele>
        <time>2013-07-19T09:49:32Z</time>
      </trkpt>
      <trkpt lat="44.21597" lon="6.02016">
        <ele>1013.37</ele>
        <time>2013-07-19T09:49:33Z</time>
      </trkpt>
      <trkpt lat="44.21592" lon="6.02006">
        <ele>1013.37</ele>
        <time>2013-07-19T09:49:41Z</time>
      </trkpt>
      <trkpt lat="44.21596" lon="6.01982">
        <ele>1011.93</ele>
        <time>2013-07-19T09:49:56Z</time>
      </trkpt>
      <trkpt lat="44.21603" lon="6.0196">
        <ele>1010.48</ele>
        <time>2013-07-19T09:50:08Z</time>
      </trkpt>
      <trkpt lat="44.21603" lon="6.01953">
        <ele>1010</ele>
        <time>2013-07-19T09:50:13Z</time>
      </trkpt>
      <trkpt lat="44.216" lon="6.01932">
        <ele>1007.12</ele>
        <time>2013-07-19T09:50:27Z</time>
      </trkpt>
      <trkpt lat="44.216" lon="6.01928">
        <ele>1007.12</ele>
        <time>2013-07-19T09:50:29Z</time>
      </trkpt>
      <trkpt lat="44.21597" lon="6.01911">
        <ele>1002.31</ele>
        <time>2013-07-19T09:50:38Z</time>
      </trkpt>
      <trkpt lat="44.21596" lon="6.0191">
        <ele>1002.79</ele>
        <time>2013-07-19T09:50:39Z</time>
      </trkpt>
      <trkpt lat="44.21596" lon="6.01884">
        <ele>1001.35</ele>
        <time>2013-07-19T09:50:54Z</time>
      </trkpt>
      <trkpt lat="44.21596" lon="6.0186">
        <ele>997.51</ele>
        <time>2013-07-19T09:51:06Z</time>
      </trkpt>
      <trkpt lat="44.21597" lon="6.01858">
        <ele>997.99</ele>
        <time>2013-07-19T09:51:07Z</time>
      </trkpt>
      <trkpt lat="44.21598" lon="6.01853">
        <ele>999.43</ele>
        <time>2013-07-19T09:51:10Z</time>
      </trkpt>
      <trkpt lat="44.21599" lon="6.01834">
        <ele>997.99</ele>
        <time>2013-07-19T09:51:21Z</time>
      </trkpt>
      <trkpt lat="44.21602" lon="6.0182">
        <ele>994.62</ele>
        <time>2013-07-19T09:51:30Z</time>
      </trkpt>
      <trkpt lat="44.21604" lon="6.01802">
        <ele>995.1</ele>
        <time>2013-07-19T09:51:41Z</time>
      </trkpt>
      <trkpt lat="44.21607" lon="6.01783">
        <ele>993.66</ele>
        <time>2013-07-19T09:51:53Z</time>
      </trkpt>
      <trkpt lat="44.21607" lon="6.01781">
        <ele>993.18</ele>
        <time>2013-07-19T09:51:54Z</time>
      </trkpt>
      <trkpt lat="44.21612" lon="6.01766">
        <ele>993.66</ele>
        <time>2013-07-19T09:52:05Z</time>
      </trkpt>
      <trkpt lat="44.21613" lon="6.01766">
        <ele>993.18</ele>
        <time>2013-07-19T09:52:21Z</time>
      </trkpt>
      <trkpt lat="44.21613" lon="6.01766">
        <ele>992.7</ele>
        <time>2013-07-19T09:52:22Z</time>
      </trkpt>
      <trkpt lat="44.21629" lon="6.01766">
        <ele>992.22</ele>
        <time>2013-07-19T09:52:36Z</time>
      </trkpt>
      <trkpt lat="44.21633" lon="6.01767">
        <ele>990.78</ele>
        <time>2013-07-19T09:52:39Z</time>
      </trkpt>
      <trkpt lat="44.21648" lon="6.01776">
        <ele>989.33</ele>
        <time>2013-07-19T09:52:52Z</time>
      </trkpt>
      <trkpt lat="44.2165" lon="6.01776">
        <ele>989.33</ele>
        <time>2013-07-19T09:52:53Z</time>
      </trkpt>
      <trkpt lat="44.21663" lon="6.01788">
        <ele>986.45</ele>
        <time>2013-07-19T09:53:06Z</time>
      </trkpt>
      <trkpt lat="44.21675" lon="6.01802">
        <ele>985.97</ele>
        <time>2013-07-19T09:53:18Z</time>
      </trkpt>
      <trkpt lat="44.21684" lon="6.0181">
        <ele>985.49</ele>
        <time>2013-07-19T09:53:26Z</time>
      </trkpt>
      <trkpt lat="44.21697" lon="6.01817">
        <ele>984.53</ele>
        <time>2013-07-19T09:53:37Z</time>
      </trkpt>
      <trkpt lat="44.21713" lon="6.01819">
        <ele>983.57</ele>
        <time>2013-07-19T09:53:50Z</time>
      </trkpt>
      <trkpt lat="44.21733" lon="6.01817">
        <ele>983.09</ele>
        <time>2013-07-19T09:54:04Z</time>
      </trkpt>
      <trkpt lat="44.2174" lon="6.01815">
        <ele>980.68</ele>
        <time>2013-07-19T09:54:10Z</time>
      </trkpt>
      <trkpt lat="44.21748" lon="6.01813">
        <ele>980.2</ele>
        <time>2013-07-19T09:54:17Z</time>
      </trkpt>
      <trkpt lat="44.21763" lon="6.01815">
        <ele>977.32</ele>
        <time>2013-07-19T09:54:29Z</time>
      </trkpt>
      <trkpt lat="44.21764" lon="6.01815">
        <ele>978.76</ele>
        <time>2013-07-19T09:54:30Z</time>
      </trkpt>
      <trkpt lat="44.21778" lon="6.01815">
        <ele>977.32</ele>
        <time>2013-07-19T09:54:43Z</time>
      </trkpt>
      <trkpt lat="44.2179" lon="6.01813">
        <ele>973.95</ele>
        <time>2013-07-19T09:54:52Z</time>
      </trkpt>
      <trkpt lat="44.21804" lon="6.01816">
        <ele>974.43</ele>
        <time>2013-07-19T09:55:03Z</time>
      </trkpt>
      <trkpt lat="44.21807" lon="6.01816">
        <ele>973.47</ele>
        <time>2013-07-19T09:55:05Z</time>
      </trkpt>
      <trkpt lat="44.21818" lon="6.01799">
        <ele>973.95</ele>
        <time>2013-07-19T09:55:17Z</time>
      </trkpt>
      <trkpt lat="44.21818" lon="6.01797">
        <ele>972.51</ele>
        <time>2013-07-19T09:55:18Z</time>
      </trkpt>
      <trkpt lat="44.21816" lon="6.01777">
        <ele>972.99</ele>
        <time>2013-07-19T09:55:29Z</time>
      </trkpt>
      <trkpt lat="44.21816" lon="6.01752">
        <ele>970.59</ele>
        <time>2013-07-19T09:55:43Z</time>
      </trkpt>
      <trkpt lat="44.2182" lon="6.01731">
        <ele>969.63</ele>
        <time>2013-07-19T09:55:55Z</time>
      </trkpt>
      <trkpt lat="44.2182" lon="6.01714">
        <ele>969.63</ele>
        <time>2013-07-19T09:56:05Z</time>
      </trkpt>
      <trkpt lat="44.21819" lon="6.01689">
        <ele>968.67</ele>
        <time>2013-07-19T09:56:18Z</time>
      </trkpt>
      <trkpt lat="44.21823" lon="6.01675">
        <ele>968.67</ele>
        <time>2013-07-19T09:56:29Z</time>
      </trkpt>
      <trkpt lat="44.2183" lon="6.01649">
        <ele>967.22</ele>
        <time>2013-07-19T09:56:42Z</time>
      </trkpt>
      <trkpt lat="44.21831" lon="6.01628">
        <ele>968.18</ele>
        <time>2013-07-19T09:56:54Z</time>
      </trkpt>
      <trkpt lat="44.21836" lon="6.01608">
        <ele>964.82</ele>
        <time>2013-07-19T09:57:05Z</time>
      </trkpt>
      <trkpt lat="44.2184" lon="6.01584">
        <ele>964.82</ele>
        <time>2013-07-19T09:57:18Z</time>
      </trkpt>
      <trkpt lat="44.21846" lon="6.01571">
        <ele>961.94</ele>
        <time>2013-07-19T09:57:27Z</time>
      </trkpt>
      <trkpt lat="44.21862" lon="6.01554">
        <ele>959.05</ele>
        <time>2013-07-19T09:57:41Z</time>
      </trkpt>
      <trkpt lat="44.21871" lon="6.01539">
        <ele>959.53</ele>
        <time>2013-07-19T09:57:50Z</time>
      </trkpt>
      <trkpt lat="44.21871" lon="6.01536">
        <ele>958.09</ele>
        <time>2013-07-19T09:57:52Z</time>
      </trkpt>
      <trkpt lat="44.21866" lon="6.01526">
        <ele>958.09</ele>
        <time>2013-07-19T09:58:03Z</time>
      </trkpt>
      <trkpt lat="44.21862" lon="6.01517">
        <ele>957.13</ele>
        <time>2013-07-19T09:58:18Z</time>
      </trkpt>
      <trkpt lat="44.21857" lon="6.01505">
        <ele>957.13</ele>
        <time>2013-07-19T09:58:26Z</time>
      </trkpt>
      <trkpt lat="44.21851" lon="6.01482">
        <ele>953.77</ele>
        <time>2013-07-19T09:58:39Z</time>
      </trkpt>
      <trkpt lat="44.21849" lon="6.01463">
        <ele>951.84</ele>
        <time>2013-07-19T09:58:50Z</time>
      </trkpt>
      <trkpt lat="44.21848" lon="6.01456">
        <ele>951.36</ele>
        <time>2013-07-19T09:58:55Z</time>
      </trkpt>
      <trkpt lat="44.21847" lon="6.01446">
        <ele>950.4</ele>
        <time>2013-07-19T09:59:00Z</time>
      </trkpt>
      <trkpt lat="44.21846" lon="6.01441">
        <ele>949.92</ele>
        <time>2013-07-19T09:59:03Z</time>
      </trkpt>
      <trkpt lat="44.21845" lon="6.01434">
        <ele>950.4</ele>
        <time>2013-07-19T09:59:07Z</time>
      </trkpt>
      <trkpt lat="44.21841" lon="6.01416">
        <ele>948</ele>
        <time>2013-07-19T09:59:17Z</time>
      </trkpt>
      <trkpt lat="44.2184" lon="6.01415">
        <ele>948</ele>
        <time>2013-07-19T09:59:18Z</time>
      </trkpt>
      <trkpt lat="44.2184" lon="6.01408">
        <ele>948</ele>
        <time>2013-07-19T09:59:22Z</time>
      </trkpt>
      <trkpt lat="44.21837" lon="6.01397">
        <ele>947.52</ele>
        <time>2013-07-19T09:59:28Z</time>
      </trkpt>
      <trkpt lat="44.21836" lon="6.01378">
        <ele>947.52</ele>
        <time>2013-07-19T09:59:39Z</time>
      </trkpt>
      <trkpt lat="44.21834" lon="6.0136">
        <ele>944.15</ele>
        <time>2013-07-19T09:59:49Z</time>
      </trkpt>
      <trkpt lat="44.21833" lon="6.01359">
        <ele>944.63</ele>
        <time>2013-07-19T09:59:50Z</time>
      </trkpt>
      <trkpt lat="44.21832" lon="6.0135">
        <ele>943.67</ele>
        <time>2013-07-19T10:00:00Z</time>
      </trkpt>
      <trkpt lat="44.21829" lon="6.0135">
        <ele>944.63</ele>
        <time>2013-07-19T10:00:06Z</time>
      </trkpt>
      <trkpt lat="44.21814" lon="6.0135">
        <ele>941.75</ele>
        <time>2013-07-19T10:00:15Z</time>
      </trkpt>
      <trkpt lat="44.21801" lon="6.01363">
        <ele>940.31</ele>
        <time>2013-07-19T10:00:27Z</time>
      </trkpt>
      <trkpt lat="44.21801" lon="6.01365">
        <ele>940.79</ele>
        <time>2013-07-19T10:00:28Z</time>
      </trkpt>
      <trkpt lat="44.21795" lon="6.01386">
        <ele>941.75</ele>
        <time>2013-07-19T10:00:41Z</time>
      </trkpt>
      <trkpt lat="44.21795" lon="6.01399">
        <ele>937.42</ele>
        <time>2013-07-19T10:00:50Z</time>
      </trkpt>
      <trkpt lat="44.21787" lon="6.01397">
        <ele>937.42</ele>
        <time>2013-07-19T10:01:00Z</time>
      </trkpt>
      <trkpt lat="44.21782" lon="6.01393">
        <ele>937.9</ele>
        <time>2013-07-19T10:01:12Z</time>
      </trkpt>
      <trkpt lat="44.21787" lon="6.01385">
        <ele>937.42</ele>
        <time>2013-07-19T10:01:30Z</time>
      </trkpt>
      <trkpt lat="44.21789" lon="6.01388">
        <ele>937.42</ele>
        <time>2013-07-19T10:01:58Z</time>
      </trkpt>
      <trkpt lat="44.21787" lon="6.01388">
        <ele>937.42</ele>
        <time>2013-07-19T10:02:27Z</time>
      </trkpt>
      <trkpt lat="44.21787" lon="6.01385">
        <ele>936.46</ele>
        <time>2013-07-19T10:02:51Z</time>
      </trkpt>
      <trkpt lat="44.21787" lon="6.01385">
        <ele>936.46</ele>
        <time>2013-07-19T10:02:52Z</time>
      </trkpt>
      <trkpt lat="44.21779" lon="6.01366">
        <ele>935.5</ele>
        <time>2013-07-19T10:03:07Z</time>
      </trkpt>
      <trkpt lat="44.2178" lon="6.01364">
        <ele>935.02</ele>
        <time>2013-07-19T10:03:09Z</time>
      </trkpt>
      <trkpt lat="44.21781" lon="6.01347">
        <ele>933.58</ele>
        <time>2013-07-19T10:03:21Z</time>
      </trkpt>
      <trkpt lat="44.21776" lon="6.01327">
        <ele>932.14</ele>
        <time>2013-07-19T10:03:36Z</time>
      </trkpt>
      <trkpt lat="44.21776" lon="6.01305">
        <ele>930.69</ele>
        <time>2013-07-19T10:03:50Z</time>
      </trkpt>
      <trkpt lat="44.21782" lon="6.01283">
        <ele>928.77</ele>
        <time>2013-07-19T10:04:04Z</time>
      </trkpt>
      <trkpt lat="44.21789" lon="6.0127">
        <ele>927.33</ele>
        <time>2013-07-19T10:04:12Z</time>
      </trkpt>
      <trkpt lat="44.21796" lon="6.01259">
        <ele>925.41</ele>
        <time>2013-07-19T10:04:20Z</time>
      </trkpt>
      <trkpt lat="44.21797" lon="6.01257">
        <ele>926.37</ele>
        <time>2013-07-19T10:04:21Z</time>
      </trkpt>
      <trkpt lat="44.21798" lon="6.0124">
        <ele>925.41</ele>
        <time>2013-07-19T10:04:31Z</time>
      </trkpt>
      <trkpt lat="44.21801" lon="6.01223">
        <ele>923.96</ele>
        <time>2013-07-19T10:04:41Z</time>
      </trkpt>
      <trkpt lat="44.218" lon="6.01222">
        <ele>923.48</ele>
        <time>2013-07-19T10:04:42Z</time>
      </trkpt>
      <trkpt lat="44.21792" lon="6.01209">
        <ele>922.04</ele>
        <time>2013-07-19T10:04:54Z</time>
      </trkpt>
      <trkpt lat="44.2179" lon="6.01205">
        <ele>921.08</ele>
        <time>2013-07-19T10:04:58Z</time>
      </trkpt>
      <trkpt lat="44.21791" lon="6.01197">
        <ele>920.6</ele>
        <time>2013-07-19T10:05:03Z</time>
      </trkpt>
      <trkpt lat="44.21793" lon="6.01192">
        <ele>920.12</ele>
        <time>2013-07-19T10:05:07Z</time>
      </trkpt>
      <trkpt lat="44.21795" lon="6.01171">
        <ele>916.27</ele>
        <time>2013-07-19T10:05:19Z</time>
      </trkpt>
      <trkpt lat="44.21796" lon="6.01153">
        <ele>915.79</ele>
        <time>2013-07-19T10:05:30Z</time>
      </trkpt>
      <trkpt lat="44.21792" lon="6.01144">
        <ele>915.79</ele>
        <time>2013-07-19T10:05:40Z</time>
      </trkpt>
      <trkpt lat="44.21792" lon="6.01141">
        <ele>913.87</ele>
        <time>2013-07-19T10:05:42Z</time>
      </trkpt>
      <trkpt lat="44.21792" lon="6.01121">
        <ele>911.95</ele>
        <time>2013-07-19T10:05:54Z</time>
      </trkpt>
      <trkpt lat="44.21793" lon="6.01109">
        <ele>910.03</ele>
        <time>2013-07-19T10:06:01Z</time>
      </trkpt>
      <trkpt lat="44.21793" lon="6.01099">
        <ele>910.51</ele>
        <time>2013-07-19T10:06:06Z</time>
      </trkpt>
      <trkpt lat="44.2179" lon="6.01081">
        <ele>909.06</ele>
        <time>2013-07-19T10:06:17Z</time>
      </trkpt>
      <trkpt lat="44.21794" lon="6.01063">
        <ele>908.1</ele>
        <time>2013-07-19T10:06:29Z</time>
      </trkpt>
      <trkpt lat="44.21798" lon="6.01055">
        <ele>907.62</ele>
        <time>2013-07-19T10:06:35Z</time>
      </trkpt>
      <trkpt lat="44.21807" lon="6.01037">
        <ele>906.66</ele>
        <time>2013-07-19T10:06:48Z</time>
      </trkpt>
      <trkpt lat="44.21807" lon="6.01034">
        <ele>905.22</ele>
        <time>2013-07-19T10:06:51Z</time>
      </trkpt>
      <trkpt lat="44.21809" lon="6.01023">
        <ele>904.74</ele>
        <time>2013-07-19T10:07:01Z</time>
      </trkpt>
      <trkpt lat="44.21811" lon="6.0102">
        <ele>905.7</ele>
        <time>2013-07-19T10:07:04Z</time>
      </trkpt>
      <trkpt lat="44.21815" lon="6.01019">
        <ele>903.78</ele>
        <time>2013-07-19T10:07:07Z</time>
      </trkpt>
      <trkpt lat="44.21825" lon="6.01015">
        <ele>903.78</ele>
        <time>2013-07-19T10:07:17Z</time>
      </trkpt>
      <trkpt lat="44.21829" lon="6.01004">
        <ele>902.33</ele>
        <time>2013-07-19T10:07:23Z</time>
      </trkpt>
      <trkpt lat="44.21832" lon="6.0098">
        <ele>901.37</ele>
        <time>2013-07-19T10:07:34Z</time>
      </trkpt>
      <trkpt lat="44.21832" lon="6.00955">
        <ele>901.37</ele>
        <time>2013-07-19T10:07:47Z</time>
      </trkpt>
      <trkpt lat="44.21833" lon="6.00942">
        <ele>899.93</ele>
        <time>2013-07-19T10:07:55Z</time>
      </trkpt>
      <trkpt lat="44.21833" lon="6.00939">
        <ele>900.89</ele>
        <time>2013-07-19T10:07:57Z</time>
      </trkpt>
      <trkpt lat="44.2184" lon="6.00919">
        <ele>899.45</ele>
        <time>2013-07-19T10:08:10Z</time>
      </trkpt>
      <trkpt lat="44.21846" lon="6.00898">
        <ele>898.01</ele>
        <time>2013-07-19T10:08:23Z</time>
      </trkpt>
      <trkpt lat="44.21857" lon="6.00881">
        <ele>896.57</ele>
        <time>2013-07-19T10:08:37Z</time>
      </trkpt>
      <trkpt lat="44.2186" lon="6.00878">
        <ele>895.12</ele>
        <time>2013-07-19T10:08:40Z</time>
      </trkpt>
      <trkpt lat="44.21867" lon="6.0087">
        <ele>893.68</ele>
        <time>2013-07-19T10:08:47Z</time>
      </trkpt>
      <trkpt lat="44.21883" lon="6.00861">
        <ele>893.2</ele>
        <time>2013-07-19T10:09:01Z</time>
      </trkpt>
      <trkpt lat="44.21896" lon="6.0086">
        <ele>892.24</ele>
        <time>2013-07-19T10:09:15Z</time>
      </trkpt>
      <trkpt lat="44.21914" lon="6.00844">
        <ele>890.8</ele>
        <time>2013-07-19T10:09:33Z</time>
      </trkpt>
      <trkpt lat="44.21933" lon="6.00813">
        <ele>888.88</ele>
        <time>2013-07-19T10:09:51Z</time>
      </trkpt>
      <trkpt lat="44.21935" lon="6.00809">
        <ele>888.4</ele>
        <time>2013-07-19T10:09:54Z</time>
      </trkpt>
      <trkpt lat="44.21947" lon="6.00796">
        <ele>886.95</ele>
        <time>2013-07-19T10:10:07Z</time>
      </trkpt>
      <trkpt lat="44.21965" lon="6.0079">
        <ele>886.47</ele>
        <time>2013-07-19T10:10:22Z</time>
      </trkpt>
      <trkpt lat="44.21973" lon="6.00781">
        <ele>885.51</ele>
        <time>2013-07-19T10:10:32Z</time>
      </trkpt>
      <trkpt lat="44.21977" lon="6.00776">
        <ele>884.07</ele>
        <time>2013-07-19T10:10:36Z</time>
      </trkpt>
      <trkpt lat="44.21987" lon="6.00755">
        <ele>883.59</ele>
        <time>2013-07-19T10:10:50Z</time>
      </trkpt>
      <trkpt lat="44.21997" lon="6.00731">
        <ele>882.15</ele>
        <time>2013-07-19T10:11:05Z</time>
      </trkpt>
      <trkpt lat="44.22001" lon="6.00724">
        <ele>881.67</ele>
        <time>2013-07-19T10:11:10Z</time>
      </trkpt>
      <trkpt lat="44.22013" lon="6.00711">
        <ele>881.67</ele>
        <time>2013-07-19T10:11:23Z</time>
      </trkpt>
      <trkpt lat="44.2202" lon="6.00694">
        <ele>881.19</ele>
        <time>2013-07-19T10:11:35Z</time>
      </trkpt>
      <trkpt lat="44.22031" lon="6.00666">
        <ele>879.74</ele>
        <time>2013-07-19T10:11:50Z</time>
      </trkpt>
      <trkpt lat="44.22038" lon="6.00639">
        <ele>878.3</ele>
        <time>2013-07-19T10:12:07Z</time>
      </trkpt>
      <trkpt lat="44.22046" lon="6.00613">
        <ele>877.34</ele>
        <time>2013-07-19T10:12:24Z</time>
      </trkpt>
      <trkpt lat="44.22046" lon="6.00604">
        <ele>876.86</ele>
        <time>2013-07-19T10:12:30Z</time>
      </trkpt>
      <trkpt lat="44.22025" lon="6.00598">
        <ele>876.38</ele>
        <time>2013-07-19T10:12:45Z</time>
      </trkpt>
      <trkpt lat="44.22018" lon="6.00594">
        <ele>875.42</ele>
        <time>2013-07-19T10:12:51Z</time>
      </trkpt>
      <trkpt lat="44.21998" lon="6.00582">
        <ele>873.98</ele>
        <time>2013-07-19T10:13:09Z</time>
      </trkpt>
      <trkpt lat="44.21992" lon="6.00568">
        <ele>870.61</ele>
        <time>2013-07-19T10:13:22Z</time>
      </trkpt>
      <trkpt lat="44.22002" lon="6.00561">
        <ele>870.61</ele>
        <time>2013-07-19T10:13:35Z</time>
      </trkpt>
      <trkpt lat="44.22008" lon="6.00562">
        <ele>869.65</ele>
        <time>2013-07-19T10:13:41Z</time>
      </trkpt>
      <trkpt lat="44.22022" lon="6.00564">
        <ele>869.17</ele>
        <time>2013-07-19T10:13:57Z</time>
      </trkpt>
      <trkpt lat="44.2202" lon="6.00561">
        <ele>869.17</ele>
        <time>2013-07-19T10:14:16Z</time>
      </trkpt>
      <trkpt lat="44.22019" lon="6.00561">
        <ele>869.65</ele>
        <time>2013-07-19T10:14:30Z</time>
      </trkpt>
      <trkpt lat="44.22033" lon="6.00563">
        <ele>869.17</ele>
        <time>2013-07-19T10:14:44Z</time>
      </trkpt>
      <trkpt lat="44.22043" lon="6.00565">
        <ele>868.69</ele>
        <time>2013-07-19T10:14:56Z</time>
      </trkpt>
      <trkpt lat="44.22057" lon="6.00565">
        <ele>868.21</ele>
        <time>2013-07-19T10:15:08Z</time>
      </trkpt>
      <trkpt lat="44.22064" lon="6.00569">
        <ele>868.69</ele>
        <time>2013-07-19T10:15:14Z</time>
      </trkpt>
      <trkpt lat="44.22082" lon="6.00571">
        <ele>867.25</ele>
        <time>2013-07-19T10:15:27Z</time>
      </trkpt>
      <trkpt lat="44.22091" lon="6.00564">
        <ele>868.69</ele>
        <time>2013-07-19T10:15:36Z</time>
      </trkpt>
      <trkpt lat="44.22105" lon="6.00545">
        <ele>869.17</ele>
        <time>2013-07-19T10:15:49Z</time>
      </trkpt>
      <trkpt lat="44.22113" lon="6.00533">
        <ele>872.05</ele>
        <time>2013-07-19T10:16:01Z</time>
      </trkpt>
      <trkpt lat="44.2213" lon="6.00514">
        <ele>874.46</ele>
        <time>2013-07-19T10:16:17Z</time>
      </trkpt>
      <trkpt lat="44.22131" lon="6.00514">
        <ele>874.46</ele>
        <time>2013-07-19T10:16:18Z</time>
      </trkpt>
      <trkpt lat="44.22133" lon="6.00512">
        <ele>873.01</ele>
        <time>2013-07-19T10:16:20Z</time>
      </trkpt>
      <trkpt lat="44.22134" lon="6.00512">
        <ele>872.53</ele>
        <time>2013-07-19T10:16:21Z</time>
      </trkpt>
      <trkpt lat="44.22139" lon="6.00515">
        <ele>875.42</ele>
        <time>2013-07-19T10:16:26Z</time>
      </trkpt>
      <trkpt lat="44.22143" lon="6.00518">
        <ele>876.38</ele>
        <time>2013-07-19T10:16:30Z</time>
      </trkpt>
      <trkpt lat="44.22144" lon="6.00519">
        <ele>875.42</ele>
        <time>2013-07-19T10:16:31Z</time>
      </trkpt>
      <trkpt lat="44.22149" lon="6.00524">
        <ele>874.46</ele>
        <time>2013-07-19T10:16:37Z</time>
      </trkpt>
      <trkpt lat="44.22154" lon="6.00527">
        <ele>874.94</ele>
        <time>2013-07-19T10:16:42Z</time>
      </trkpt>
      <trkpt lat="44.22174" lon="6.00515">
        <ele>872.53</ele>
        <time>2013-07-19T10:16:59Z</time>
      </trkpt>
      <trkpt lat="44.2219" lon="6.00499">
        <ele>871.57</ele>
        <time>2013-07-19T10:17:11Z</time>
      </trkpt>
      <trkpt lat="44.222" lon="6.00473">
        <ele>870.61</ele>
        <time>2013-07-19T10:17:25Z</time>
      </trkpt>
      <trkpt lat="44.22201" lon="6.0047">
        <ele>872.53</ele>
        <time>2013-07-19T10:17:27Z</time>
      </trkpt>
      <trkpt lat="44.22203" lon="6.00466">
        <ele>871.09</ele>
        <time>2013-07-19T10:17:30Z</time>
      </trkpt>
      <trkpt lat="44.22204" lon="6.00465">
        <ele>872.05</ele>
        <time>2013-07-19T10:17:31Z</time>
      </trkpt>
      <trkpt lat="44.22219" lon="6.00447">
        <ele>874.46</ele>
        <time>2013-07-19T10:17:48Z</time>
      </trkpt>
      <trkpt lat="44.2223" lon="6.00435">
        <ele>875.9</ele>
        <time>2013-07-19T10:18:01Z</time>
      </trkpt>
      <trkpt lat="44.22232" lon="6.00433">
        <ele>874.94</ele>
        <time>2013-07-19T10:18:03Z</time>
      </trkpt>
      <trkpt lat="44.22234" lon="6.00431">
        <ele>876.38</ele>
        <time>2013-07-19T10:18:05Z</time>
      </trkpt>
      <trkpt lat="44.22243" lon="6.00421">
        <ele>875.9</ele>
        <time>2013-07-19T10:18:15Z</time>
      </trkpt>
      <trkpt lat="44.22253" lon="6.00418">
        <ele>878.3</ele>
        <time>2013-07-19T10:18:23Z</time>
      </trkpt>
      <trkpt lat="44.22256" lon="6.00418">
        <ele>877.34</ele>
        <time>2013-07-19T10:18:25Z</time>
      </trkpt>
      <trkpt lat="44.22258" lon="6.00418">
        <ele>876.86</ele>
        <time>2013-07-19T10:18:26Z</time>
      </trkpt>
      <trkpt lat="44.22262" lon="6.00417">
        <ele>876.86</ele>
        <time>2013-07-19T10:18:30Z</time>
      </trkpt>
      <trkpt lat="44.22269" lon="6.00416">
        <ele>880.22</ele>
        <time>2013-07-19T10:18:37Z</time>
      </trkpt>
      <trkpt lat="44.2227" lon="6.00415">
        <ele>879.26</ele>
        <time>2013-07-19T10:18:38Z</time>
      </trkpt>
      <trkpt lat="44.22289" lon="6.00407">
        <ele>880.22</ele>
        <time>2013-07-19T10:18:53Z</time>
      </trkpt>
      <trkpt lat="44.22298" lon="6.00405">
        <ele>881.19</ele>
        <time>2013-07-19T10:19:00Z</time>
      </trkpt>
      <trkpt lat="44.22316" lon="6.00404">
        <ele>880.71</ele>
        <time>2013-07-19T10:19:14Z</time>
      </trkpt>
      <trkpt lat="44.2233" lon="6.00395">
        <ele>881.67</ele>
        <time>2013-07-19T10:19:25Z</time>
      </trkpt>
      <trkpt lat="44.22334" lon="6.00391">
        <ele>881.67</ele>
        <time>2013-07-19T10:19:29Z</time>
      </trkpt>
      <trkpt lat="44.2234" lon="6.00388">
        <ele>882.63</ele>
        <time>2013-07-19T10:19:33Z</time>
      </trkpt>
      <trkpt lat="44.22355" lon="6.00374">
        <ele>884.07</ele>
        <time>2013-07-19T10:19:47Z</time>
      </trkpt>
      <trkpt lat="44.22357" lon="6.00369">
        <ele>883.59</ele>
        <time>2013-07-19T10:19:50Z</time>
      </trkpt>
      <trkpt lat="44.22375" lon="6.00358">
        <ele>882.63</ele>
        <time>2013-07-19T10:20:04Z</time>
      </trkpt>
      <trkpt lat="44.22377" lon="6.00356">
        <ele>886.47</ele>
        <time>2013-07-19T10:20:06Z</time>
      </trkpt>
      <trkpt lat="44.22386" lon="6.00351">
        <ele>885.99</ele>
        <time>2013-07-19T10:20:14Z</time>
      </trkpt>
      <trkpt lat="44.22393" lon="6.00349">
        <ele>887.43</ele>
        <time>2013-07-19T10:20:18Z</time>
      </trkpt>
      <trkpt lat="44.22395" lon="6.00347">
        <ele>886.47</ele>
        <time>2013-07-19T10:20:20Z</time>
      </trkpt>
      <trkpt lat="44.22402" lon="6.00342">
        <ele>888.88</ele>
        <time>2013-07-19T10:20:27Z</time>
      </trkpt>
      <trkpt lat="44.22421" lon="6.00335">
        <ele>888.4</ele>
        <time>2013-07-19T10:20:41Z</time>
      </trkpt>
      <trkpt lat="44.22439" lon="6.00339">
        <ele>889.36</ele>
        <time>2013-07-19T10:20:55Z</time>
      </trkpt>
      <trkpt lat="44.22452" lon="6.00344">
        <ele>885.99</ele>
        <time>2013-07-19T10:21:06Z</time>
      </trkpt>
      <trkpt lat="44.22456" lon="6.00346">
        <ele>889.36</ele>
        <time>2013-07-19T10:21:09Z</time>
      </trkpt>
      <trkpt lat="44.22477" lon="6.0034">
        <ele>888.88</ele>
        <time>2013-07-19T10:21:25Z</time>
      </trkpt>
      <trkpt lat="44.22496" lon="6.00337">
        <ele>889.84</ele>
        <time>2013-07-19T10:21:40Z</time>
      </trkpt>
      <trkpt lat="44.22515" lon="6.00314">
        <ele>888.88</ele>
        <time>2013-07-19T10:21:55Z</time>
      </trkpt>
      <trkpt lat="44.22529" lon="6.00305">
        <ele>888.4</ele>
        <time>2013-07-19T10:22:10Z</time>
      </trkpt>
      <trkpt lat="44.2254" lon="6.0029">
        <ele>889.36</ele>
        <time>2013-07-19T10:22:18Z</time>
      </trkpt>
      <trkpt lat="44.22549" lon="6.00287">
        <ele>888.88</ele>
        <time>2013-07-19T10:22:31Z</time>
      </trkpt>
      <trkpt lat="44.22548" lon="6.00292">
        <ele>889.36</ele>
        <time>2013-07-19T10:22:53Z</time>
      </trkpt>
      <trkpt lat="44.22556" lon="6.00288">
        <ele>888.4</ele>
        <time>2013-07-19T10:23:01Z</time>
      </trkpt>
      <trkpt lat="44.22571" lon="6.00278">
        <ele>889.36</ele>
        <time>2013-07-19T10:23:12Z</time>
      </trkpt>
      <trkpt lat="44.22583" lon="6.00267">
        <ele>889.84</ele>
        <time>2013-07-19T10:23:24Z</time>
      </trkpt>
      <trkpt lat="44.22577" lon="6.00235">
        <ele>888.88</ele>
        <time>2013-07-19T10:23:35Z</time>
      </trkpt>
      <trkpt lat="44.22573" lon="6.00229">
        <ele>888.4</ele>
        <time>2013-07-19T10:23:42Z</time>
      </trkpt>
      <trkpt lat="44.22571" lon="6.00228">
        <ele>888.88</ele>
        <time>2013-07-19T10:23:44Z</time>
      </trkpt>
      <trkpt lat="44.22569" lon="6.00224">
        <ele>888.88</ele>
        <time>2013-07-19T10:23:47Z</time>
      </trkpt>
      <trkpt lat="44.2256" lon="6.00209">
        <ele>887.43</ele>
        <time>2013-07-19T10:24:00Z</time>
      </trkpt>
      <trkpt lat="44.22553" lon="6.00198">
        <ele>887.91</ele>
        <time>2013-07-19T10:24:09Z</time>
      </trkpt>
      <trkpt lat="44.22546" lon="6.0018">
        <ele>887.91</ele>
        <time>2013-07-19T10:24:22Z</time>
      </trkpt>
      <trkpt lat="44.22547" lon="6.00162">
        <ele>885.99</ele>
        <time>2013-07-19T10:24:37Z</time>
      </trkpt>
      <trkpt lat="44.2255" lon="6.0016">
        <ele>883.59</ele>
        <time>2013-07-19T10:24:54Z</time>
      </trkpt>
      <trkpt lat="44.22551" lon="6.00157">
        <ele>885.51</ele>
        <time>2013-07-19T10:25:08Z</time>
      </trkpt>
      <trkpt lat="44.22548" lon="6.00159">
        <ele>885.51</ele>
        <time>2013-07-19T10:25:29Z</time>
      </trkpt>
      <trkpt lat="44.22549" lon="6.00157">
        <ele>885.51</ele>
        <time>2013-07-19T10:25:50Z</time>
      </trkpt>
      <trkpt lat="44.22552" lon="6.00157">
        <ele>885.51</ele>
        <time>2013-07-19T10:26:09Z</time>
      </trkpt>
      <trkpt lat="44.22554" lon="6.00157">
        <ele>885.51</ele>
        <time>2013-07-19T10:26:31Z</time>
      </trkpt>
      <trkpt lat="44.22555" lon="6.00157">
        <ele>885.51</ele>
        <time>2013-07-19T10:26:56Z</time>
      </trkpt>
    </trkseg>
  </trk>
</gpx>